PWSweather.com
Personal Weather Stations
Station Observations
1A3COP
Copperhill Airport Community, Copperhill, TN 37317

Copperhill Airport CommunityCopperhill, TN 37317

Lat: 35.015465, Lon: -84.340598

Elevation: 1830

Station Type: Acurite Pro 5 in 1

High Low Average
Temperature 40.8°F4.9°C 32.4°F0.2°C 36.3°F2.4°C
Dew Point 35.5°F1.9°C 22.1°F-5.5°C 28.2°F-2.1°C
Winds 10.4 mph 16.7 kmh Calm Calm 2.0 mph SW3.2 kmh SW
Wind Gusts 13.8 mph22.2 kmh -- 3.0 mph4.8 kmh
Humidity 89% 57% 73%
Pressure 30.02 in1016.6 mb 29.91 in1012.9 mb -
Precipitation 0.00 in0.0 mm - -
Hour Temp Dew Point Humidity Winds Wind Gusts Pressure Precip Precip Rate Daily Precip Total
12:00 AM 39.9°F4.4°C 35.5°F1.9°C 84% 4.6 mph NNE7.4 kmh NNE 5.8 mph9.3 kmh 29.95 in1014.2 mb - 0.00 in0.0 mm 0.00 in0.0 mm
12:01 AM 39.9°F4.4°C 35.5°F1.9°C 84% 3.5 mph N5.6 kmh N 4.6 mph7.4 kmh 29.95 in1014.2 mb - 0.00 in0.0 mm 0.00 in0.0 mm
12:02 AM 39.9°F4.4°C 35.5°F1.9°C 84% 4.6 mph N7.4 kmh N 5.8 mph9.3 kmh 29.96 in1014.6 mb - 0.00 in0.0 mm 0.00 in0.0 mm
12:03 AM 39.9°F4.4°C 35.2°F1.8°C 83% 4.6 mph N7.4 kmh N 4.6 mph7.4 kmh 29.96 in1014.6 mb - 0.00 in0.0 mm 0.00 in0.0 mm
12:04 AM 39.9°F4.4°C 35.2°F1.8°C 83% 4.6 mph NNE7.4 kmh NNE 6.9 mph11.1 kmh 29.96 in1014.6 mb - 0.00 in0.0 mm 0.00 in0.0 mm
12:05 AM 39.9°F4.4°C 34.9°F1.6°C 82% 5.8 mph N9.3 kmh N 6.9 mph11.1 kmh 29.96 in1014.6 mb - 0.00 in0.0 mm 0.00 in0.0 mm
12:06 AM 39.9°F4.4°C 34.9°F1.6°C 82% 4.6 mph NNE7.4 kmh NNE 4.6 mph7.4 kmh 29.96 in1014.6 mb - 0.00 in0.0 mm 0.00 in0.0 mm
12:07 AM 39.9°F4.4°C 34.9°F1.6°C 82% 3.5 mph N5.6 kmh N 4.6 mph7.4 kmh 29.96 in1014.6 mb - 0.00 in0.0 mm 0.00 in0.0 mm
12:08 AM 39.9°F4.4°C 34.9°F1.6°C 82% 3.5 mph NW5.6 kmh NW 4.6 mph7.4 kmh 29.96 in1014.6 mb - 0.00 in0.0 mm 0.00 in0.0 mm
12:09 AM 39.9°F4.4°C 34.9°F1.6°C 82% 4.6 mph NW7.4 kmh NW 4.6 mph7.4 kmh 29.96 in1014.6 mb - 0.00 in0.0 mm 0.00 in0.0 mm
12:10 AM 39.9°F4.4°C 34.9°F1.6°C 82% 3.5 mph NNW5.6 kmh NNW 10.4 mph16.7 kmh 29.96 in1014.6 mb - 0.00 in0.0 mm 0.00 in0.0 mm
12:11 AM 39.9°F4.4°C 34.9°F1.6°C 82% 5.8 mph NNW9.3 kmh NNW 6.9 mph11.1 kmh 29.96 in1014.6 mb - 0.00 in0.0 mm 0.00 in0.0 mm
12:12 AM 39.9°F4.4°C 34.9°F1.6°C 82% 4.6 mph N7.4 kmh N 5.8 mph9.3 kmh 29.96 in1014.6 mb - 0.00 in0.0 mm 0.00 in0.0 mm
12:13 AM 39.9°F4.4°C 34.9°F1.6°C 82% 4.6 mph N7.4 kmh N 6.9 mph11.1 kmh 29.96 in1014.6 mb - 0.00 in0.0 mm 0.00 in0.0 mm
12:14 AM 39.7°F4.3°C 35.0°F1.7°C 83% 5.8 mph NNE9.3 kmh NNE 5.8 mph9.3 kmh 29.96 in1014.6 mb - 0.00 in0.0 mm 0.00 in0.0 mm
12:15 AM 39.7°F4.3°C 35.0°F1.7°C 83% 3.5 mph NE5.6 kmh NE 4.6 mph7.4 kmh 29.96 in1014.6 mb - 0.00 in0.0 mm 0.00 in0.0 mm
12:16 AM 39.7°F4.3°C 35.0°F1.7°C 83% 3.5 mph NNW5.6 kmh NNW 3.5 mph5.6 kmh 29.96 in1014.6 mb - 0.00 in0.0 mm 0.00 in0.0 mm
12:17 AM 39.7°F4.3°C 35.0°F1.7°C 83% 3.5 mph N5.6 kmh N 5.8 mph9.3 kmh 29.96 in1014.6 mb - 0.00 in0.0 mm 0.00 in0.0 mm
12:18 AM 39.7°F4.3°C 34.9°F1.6°C 83% 5.8 mph NNE9.3 kmh NNE 5.8 mph9.3 kmh 29.96 in1014.6 mb - 0.00 in0.0 mm 0.00 in0.0 mm
12:19 AM 39.6°F4.2°C 34.6°F1.4°C 82% 4.6 mph NNW7.4 kmh NNW 4.6 mph7.4 kmh 29.96 in1014.6 mb - 0.00 in0.0 mm 0.00 in0.0 mm
12:20 AM 39.6°F4.2°C 34.6°F1.4°C 82% 2.3 mph NNW3.7 kmh NNW 2.3 mph3.7 kmh 29.96 in1014.6 mb - 0.00 in0.0 mm 0.00 in0.0 mm
12:21 AM 39.6°F4.2°C 34.6°F1.4°C 82% 2.3 mph N3.7 kmh N 4.6 mph7.4 kmh 29.96 in1014.6 mb - 0.00 in0.0 mm 0.00 in0.0 mm
12:22 AM 39.6°F4.2°C 34.6°F1.4°C 82% 3.5 mph ENE5.6 kmh ENE 4.6 mph7.4 kmh 29.96 in1014.6 mb - 0.00 in0.0 mm 0.00 in0.0 mm
12:23 AM 39.6°F4.2°C 34.6°F1.4°C 82% 3.5 mph N5.6 kmh N 3.5 mph5.6 kmh 29.96 in1014.6 mb - 0.00 in0.0 mm 0.00 in0.0 mm
12:24 AM 39.6°F4.2°C 34.6°F1.4°C 82% 3.5 mph NW5.6 kmh NW 5.8 mph9.3 kmh 29.96 in1014.6 mb - 0.00 in0.0 mm 0.00 in0.0 mm
12:25 AM 39.6°F4.2°C 34.6°F1.4°C 82% 3.5 mph NW5.6 kmh NW 6.9 mph11.1 kmh 29.95 in1014.2 mb - 0.00 in0.0 mm 0.00 in0.0 mm
12:26 AM 39.6°F4.2°C 34.6°F1.4°C 82% 4.6 mph N7.4 kmh N 6.9 mph11.1 kmh 29.95 in1014.2 mb - 0.00 in0.0 mm 0.00 in0.0 mm
12:27 AM 39.4°F4.1°C 34.1°F1.2°C 81% 4.6 mph NNW7.4 kmh NNW 4.6 mph7.4 kmh 29.95 in1014.2 mb - 0.00 in0.0 mm 0.00 in0.0 mm
12:28 AM 39.4°F4.1°C 34.1°F1.2°C 81% 3.5 mph NE5.6 kmh NE 3.5 mph5.6 kmh 29.95 in1014.2 mb - 0.00 in0.0 mm 0.00 in0.0 mm
12:29 AM 39.4°F4.1°C 34.1°F1.2°C 81% 2.3 mph N3.7 kmh N 3.5 mph5.6 kmh 29.95 in1014.2 mb - 0.00 in0.0 mm 0.00 in0.0 mm
12:30 AM 39.4°F4.1°C 34.1°F1.2°C 81% 3.5 mph N5.6 kmh N 3.5 mph5.6 kmh 29.95 in1014.2 mb - 0.00 in0.0 mm 0.00 in0.0 mm
12:31 AM 39.4°F4.1°C 34.4°F1.3°C 82% 3.5 mph NW5.6 kmh NW 5.8 mph9.3 kmh 29.95 in1014.2 mb - 0.00 in0.0 mm 0.00 in0.0 mm
12:32 AM 39.4°F4.1°C 34.4°F1.3°C 82% 3.5 mph NW5.6 kmh NW 5.8 mph9.3 kmh 29.95 in1014.2 mb - 0.00 in0.0 mm 0.00 in0.0 mm
12:33 AM 39.4°F4.1°C 34.4°F1.3°C 82% 4.6 mph N7.4 kmh N 5.8 mph9.3 kmh 29.95 in1014.2 mb - 0.00 in0.0 mm 0.00 in0.0 mm
12:34 AM 39.4°F4.1°C 34.4°F1.3°C 82% 4.6 mph N7.4 kmh N 4.6 mph7.4 kmh 29.95 in1014.2 mb - 0.00 in0.0 mm 0.00 in0.0 mm
12:35 AM 39.4°F4.1°C 34.6°F1.4°C 83% 4.6 mph NW7.4 kmh NW 6.9 mph11.1 kmh 29.95 in1014.2 mb - 0.00 in0.0 mm 0.00 in0.0 mm
12:36 AM 39.2°F4.0°C 34.5°F1.4°C 83% 5.8 mph NW9.3 kmh NW 8.1 mph13.0 kmh 29.95 in1014.2 mb - 0.00 in0.0 mm 0.00 in0.0 mm
12:37 AM 39.2°F4.0°C 34.5°F1.4°C 83% 5.8 mph NW9.3 kmh NW 8.1 mph13.0 kmh 29.95 in1014.2 mb - 0.00 in0.0 mm 0.00 in0.0 mm
12:38 AM 39.2°F4.0°C 34.5°F1.4°C 83% 3.5 mph N5.6 kmh N 5.8 mph9.3 kmh 29.95 in1014.2 mb - 0.00 in0.0 mm 0.00 in0.0 mm
12:39 AM 39.2°F4.0°C 34.5°F1.4°C 83% 4.6 mph N7.4 kmh N 5.8 mph9.3 kmh 29.95 in1014.2 mb - 0.00 in0.0 mm 0.00 in0.0 mm
12:40 AM 39.2°F4.0°C 34.8°F1.6°C 84% 4.6 mph 7.4 kmh 4.6 mph7.4 kmh 29.95 in1014.2 mb - 0.00 in0.0 mm 0.00 in0.0 mm
12:41 AM 39.2°F4.0°C 34.8°F1.6°C 84% 4.6 mph NW7.4 kmh NW 5.8 mph9.3 kmh 29.95 in1014.2 mb - 0.00 in0.0 mm 0.00 in0.0 mm
12:42 AM 39.2°F4.0°C 34.8°F1.6°C 84% 4.6 mph NNE7.4 kmh NNE 5.8 mph9.3 kmh 29.95 in1014.2 mb - 0.00 in0.0 mm 0.00 in0.0 mm
12:43 AM 39.2°F4.0°C 34.8°F1.6°C 84% 4.6 mph NW7.4 kmh NW 5.8 mph9.3 kmh 29.95 in1014.2 mb - 0.00 in0.0 mm 0.00 in0.0 mm
12:44 AM 39.2°F4.0°C 34.8°F1.6°C 84% 3.5 mph WNW5.6 kmh WNW 3.5 mph5.6 kmh 29.95 in1014.2 mb - 0.00 in0.0 mm 0.00 in0.0 mm
12:45 AM 39.2°F4.0°C 34.8°F1.6°C 84% 3.5 mph N5.6 kmh N 3.5 mph5.6 kmh 29.95 in1014.2 mb - 0.00 in0.0 mm 0.00 in0.0 mm
12:46 AM 39.0°F3.9°C 34.9°F1.6°C 85% 3.5 mph N5.6 kmh N 4.6 mph7.4 kmh 29.95 in1014.2 mb - 0.00 in0.0 mm 0.00 in0.0 mm
12:47 AM 39.0°F3.9°C 34.9°F1.6°C 85% 3.5 mph NW5.6 kmh NW 4.6 mph7.4 kmh 29.95 in1014.2 mb - 0.00 in0.0 mm 0.00 in0.0 mm
12:48 AM 39.0°F3.9°C 34.9°F1.6°C 85% 3.5 mph NW5.6 kmh NW 4.6 mph7.4 kmh 29.95 in1014.2 mb - 0.00 in0.0 mm 0.00 in0.0 mm
12:49 AM 39.0°F3.9°C 34.9°F1.6°C 85% 3.5 mph N5.6 kmh N 8.1 mph13.0 kmh 29.95 in1014.2 mb - 0.00 in0.0 mm 0.00 in0.0 mm
12:50 AM 39.0°F3.9°C 34.9°F1.6°C 85% 5.8 mph NW9.3 kmh NW 8.1 mph13.0 kmh 29.95 in1014.2 mb - 0.00 in0.0 mm 0.00 in0.0 mm
12:51 AM 39.0°F3.9°C 34.9°F1.6°C 85% 5.8 mph NNW9.3 kmh NNW 6.9 mph11.1 kmh 29.95 in1014.2 mb - 0.00 in0.0 mm 0.00 in0.0 mm
12:52 AM 39.0°F3.9°C 34.9°F1.6°C 85% 4.6 mph N7.4 kmh N 3.5 mph5.6 kmh 29.95 in1014.2 mb - 0.00 in0.0 mm 0.00 in0.0 mm
12:53 AM 39.0°F3.9°C 34.9°F1.6°C 85% 3.5 mph NW5.6 kmh NW 5.8 mph9.3 kmh 29.95 in1014.2 mb - 0.00 in0.0 mm 0.00 in0.0 mm
12:54 AM 39.0°F3.9°C 34.9°F1.6°C 85% 4.6 mph NNW7.4 kmh NNW 5.8 mph9.3 kmh 29.95 in1014.2 mb - 0.00 in0.0 mm 0.00 in0.0 mm
12:55 AM 39.0°F3.9°C 34.9°F1.6°C 85% 3.5 mph NNE5.6 kmh NNE 4.6 mph7.4 kmh 29.95 in1014.2 mb - 0.00 in0.0 mm 0.00 in0.0 mm
12:56 AM 38.9°F3.8°C 34.8°F1.6°C 85% 4.6 mph N7.4 kmh N 4.6 mph7.4 kmh 29.95 in1014.2 mb - 0.00 in0.0 mm 0.00 in0.0 mm
12:57 AM 38.8°F3.8°C 35.0°F1.7°C 86% 3.5 mph SW5.6 kmh SW 3.5 mph5.6 kmh 29.95 in1014.2 mb - 0.00 in0.0 mm 0.00 in0.0 mm
12:58 AM 38.8°F3.8°C 35.0°F1.7°C 86% 3.5 mph NW5.6 kmh NW 5.8 mph9.3 kmh 29.95 in1014.2 mb - 0.00 in0.0 mm 0.00 in0.0 mm
12:59 AM 38.8°F3.8°C 35.0°F1.7°C 86% 4.6 mph N7.4 kmh N 5.8 mph9.3 kmh 29.95 in1014.2 mb - 0.00 in0.0 mm 0.00 in0.0 mm
01:00 AM 38.8°F3.8°C 35.0°F1.7°C 86% 4.6 mph NNW7.4 kmh NNW 5.8 mph9.3 kmh 29.95 in1014.2 mb - 0.00 in0.0 mm 0.00 in0.0 mm
01:01 AM 38.8°F3.8°C 35.0°F1.7°C 86% 4.6 mph N7.4 kmh N 5.8 mph9.3 kmh 29.95 in1014.2 mb - 0.00 in0.0 mm 0.00 in0.0 mm
01:02 AM 38.8°F3.8°C 35.0°F1.7°C 86% 4.6 mph N7.4 kmh N 4.6 mph7.4 kmh 29.95 in1014.2 mb - 0.00 in0.0 mm 0.00 in0.0 mm
01:03 AM 38.8°F3.8°C 35.0°F1.7°C 86% 3.5 mph ESE5.6 kmh ESE 3.5 mph5.6 kmh 29.95 in1014.2 mb - 0.00 in0.0 mm 0.00 in0.0 mm
01:04 AM 38.8°F3.8°C 35.0°F1.7°C 86% 3.5 mph N5.6 kmh N 4.6 mph7.4 kmh 29.95 in1014.2 mb - 0.00 in0.0 mm 0.00 in0.0 mm
01:05 AM 38.8°F3.8°C 35.0°F1.7°C 86% 3.5 mph NW5.6 kmh NW 4.6 mph7.4 kmh 29.95 in1014.2 mb - 0.00 in0.0 mm 0.00 in0.0 mm
01:06 AM 38.8°F3.8°C 35.0°F1.7°C 86% 2.3 mph NW3.7 kmh NW 2.3 mph3.7 kmh 29.95 in1014.2 mb - 0.00 in0.0 mm 0.00 in0.0 mm
01:07 AM 38.8°F3.8°C 35.0°F1.7°C 86% 2.3 mph NNW3.7 kmh NNW 3.5 mph5.6 kmh 29.95 in1014.2 mb - 0.00 in0.0 mm 0.00 in0.0 mm
01:08 AM 38.8°F3.8°C 34.9°F1.6°C 86% 3.5 mph N5.6 kmh N 3.5 mph5.6 kmh 29.95 in1014.2 mb - 0.00 in0.0 mm 0.00 in0.0 mm
01:09 AM 38.7°F3.7°C 34.9°F1.6°C 86% 3.5 mph WNW5.6 kmh WNW 4.6 mph7.4 kmh 29.95 in1014.2 mb - 0.00 in0.0 mm 0.00 in0.0 mm
01:10 AM 38.7°F3.7°C 34.9°F1.6°C 86% 3.5 mph N5.6 kmh N 3.5 mph5.6 kmh 29.95 in1014.2 mb - 0.00 in0.0 mm 0.00 in0.0 mm
01:11 AM 38.7°F3.7°C 34.9°F1.6°C 86% 3.5 mph NNE5.6 kmh NNE 3.5 mph5.6 kmh 29.95 in1014.2 mb - 0.00 in0.0 mm 0.00 in0.0 mm
01:12 AM 38.7°F3.7°C 34.9°F1.6°C 86% 3.5 mph N5.6 kmh N 3.5 mph5.6 kmh 29.95 in1014.2 mb - 0.00 in0.0 mm 0.00 in0.0 mm
01:13 AM 38.7°F3.7°C 34.9°F1.6°C 86% 2.3 mph NW3.7 kmh NW 2.3 mph3.7 kmh 29.95 in1014.2 mb - 0.00 in0.0 mm 0.00 in0.0 mm
01:14 AM 38.5°F3.6°C 34.7°F1.5°C 86% 2.3 mph NNW3.7 kmh NNW 3.5 mph5.6 kmh 29.94 in1013.9 mb - 0.00 in0.0 mm 0.00 in0.0 mm
01:15 AM 38.5°F3.6°C 35.0°F1.7°C 87% 2.3 mph NW3.7 kmh NW 2.3 mph3.7 kmh 29.93 in1013.5 mb - 0.00 in0.0 mm 0.00 in0.0 mm
01:16 AM 38.5°F3.6°C 35.0°F1.7°C 87% 2.3 mph N3.7 kmh N 3.5 mph5.6 kmh 29.93 in1013.5 mb - 0.00 in0.0 mm 0.00 in0.0 mm
01:17 AM 38.4°F3.6°C 34.8°F1.6°C 87% 3.5 mph NW5.6 kmh NW 5.8 mph9.3 kmh 29.93 in1013.5 mb - 0.00 in0.0 mm 0.00 in0.0 mm
01:18 AM 38.3°F3.5°C 34.8°F1.6°C 87% 4.6 mph NW7.4 kmh NW 5.8 mph9.3 kmh 29.93 in1013.5 mb - 0.00 in0.0 mm 0.00 in0.0 mm
01:19 AM 38.3°F3.5°C 34.8°F1.6°C 87% 3.5 mph NW5.6 kmh NW 3.5 mph5.6 kmh 29.93 in1013.5 mb - 0.00 in0.0 mm 0.00 in0.0 mm
01:20 AM 38.3°F3.5°C 35.1°F1.7°C 88% 2.3 mph NW3.7 kmh NW 2.3 mph3.7 kmh 29.93 in1013.5 mb - 0.00 in0.0 mm 0.00 in0.0 mm
01:21 AM 38.2°F3.4°C 35.0°F1.7°C 88% 2.3 mph N3.7 kmh N 3.5 mph5.6 kmh 29.93 in1013.5 mb - 0.00 in0.0 mm 0.00 in0.0 mm
01:22 AM 38.1°F3.4°C 34.9°F1.6°C 88% 3.5 mph NNW5.6 kmh NNW 3.5 mph5.6 kmh 29.93 in1013.5 mb - 0.00 in0.0 mm 0.00 in0.0 mm
01:23 AM 38.0°F3.3°C 34.7°F1.5°C 88% 3.5 mph WNW5.6 kmh WNW 4.6 mph7.4 kmh 29.93 in1013.5 mb - 0.00 in0.0 mm 0.00 in0.0 mm
01:24 AM 37.9°F3.3°C 34.7°F1.5°C 88% 3.5 mph WNW5.6 kmh WNW 3.5 mph5.6 kmh 29.93 in1013.5 mb - 0.00 in0.0 mm 0.00 in0.0 mm
01:25 AM 37.9°F3.3°C 34.7°F1.5°C 88% 3.5 mph N5.6 kmh N 3.5 mph5.6 kmh 29.94 in1013.9 mb - 0.00 in0.0 mm 0.00 in0.0 mm
01:26 AM 37.8°F3.2°C 34.6°F1.4°C 88% 2.3 mph N3.7 kmh N 2.3 mph3.7 kmh 29.94 in1013.9 mb - 0.00 in0.0 mm 0.00 in0.0 mm
01:27 AM 37.8°F3.2°C 34.8°F1.6°C 89% 1.2 mph N1.9 kmh N 2.3 mph3.7 kmh 29.94 in1013.9 mb - 0.00 in0.0 mm 0.00 in0.0 mm
01:28 AM 37.8°F3.2°C 34.8°F1.6°C 89% 2.3 mph WNW3.7 kmh WNW 2.3 mph3.7 kmh 29.94 in1013.9 mb - 0.00 in0.0 mm 0.00 in0.0 mm
01:29 AM 37.8°F3.2°C 34.8°F1.6°C 89% 2.3 mph N3.7 kmh N 2.3 mph3.7 kmh 29.94 in1013.9 mb - 0.00 in0.0 mm 0.00 in0.0 mm
01:30 AM 37.7°F3.2°C 34.8°F1.6°C 89% 2.3 mph NNW3.7 kmh NNW 4.6 mph7.4 kmh 29.94 in1013.9 mb - 0.00 in0.0 mm 0.00 in0.0 mm
01:31 AM 37.6°F3.1°C 34.7°F1.5°C 89% 3.5 mph NNE5.6 kmh NNE 4.6 mph7.4 kmh 29.94 in1013.9 mb - 0.00 in0.0 mm 0.00 in0.0 mm
01:32 AM 37.6°F3.1°C 34.7°F1.5°C 89% 3.5 mph NNW5.6 kmh NNW 4.6 mph7.4 kmh 29.94 in1013.9 mb - 0.00 in0.0 mm 0.00 in0.0 mm
01:33 AM 37.6°F3.1°C 34.7°F1.5°C 89% 3.5 mph NNE5.6 kmh NNE 4.6 mph7.4 kmh 29.94 in1013.9 mb - 0.00 in0.0 mm 0.00 in0.0 mm
01:34 AM 37.6°F3.1°C 34.4°F1.3°C 88% 3.5 mph N5.6 kmh N 4.6 mph7.4 kmh 29.94 in1013.9 mb - 0.00 in0.0 mm 0.00 in0.0 mm
01:35 AM 37.6°F3.1°C 34.4°F1.3°C 88% 2.3 mph N3.7 kmh N 2.3 mph3.7 kmh 29.94 in1013.9 mb - 0.00 in0.0 mm 0.00 in0.0 mm
01:36 AM 37.6°F3.1°C 34.4°F1.3°C 88% 2.3 mph NNW3.7 kmh NNW 3.5 mph5.6 kmh 29.94 in1013.9 mb - 0.00 in0.0 mm 0.00 in0.0 mm
01:37 AM 37.5°F3.1°C 34.3°F1.3°C 88% 3.5 mph NW5.6 kmh NW 5.8 mph9.3 kmh 29.94 in1013.9 mb - 0.00 in0.0 mm 0.00 in0.0 mm
01:38 AM 37.4°F3.0°C 34.2°F1.2°C 88% 4.6 mph NW7.4 kmh NW 5.8 mph9.3 kmh 29.93 in1013.5 mb - 0.00 in0.0 mm 0.00 in0.0 mm
01:39 AM 37.4°F3.0°C 34.2°F1.2°C 88% 4.6 mph WSW7.4 kmh WSW 9.2 mph14.8 kmh 29.93 in1013.5 mb - 0.00 in0.0 mm 0.00 in0.0 mm
01:40 AM 37.2°F2.9°C 34.0°F1.1°C 88% 6.9 mph NW11.1 kmh NW 10.4 mph16.7 kmh 29.93 in1013.5 mb - 0.00 in0.0 mm 0.00 in0.0 mm
01:41 AM 37.2°F2.9°C 34.0°F1.1°C 88% 5.8 mph NW9.3 kmh NW 5.8 mph9.3 kmh 29.93 in1013.5 mb - 0.00 in0.0 mm 0.00 in0.0 mm
01:42 AM 37.2°F2.9°C 34.0°F1.1°C 88% 3.5 mph NW5.6 kmh NW 5.8 mph9.3 kmh 29.93 in1013.5 mb - 0.00 in0.0 mm 0.00 in0.0 mm
01:43 AM 37.2°F2.9°C 34.0°F1.1°C 88% 5.8 mph NW9.3 kmh NW 9.2 mph14.8 kmh 29.93 in1013.5 mb - 0.00 in0.0 mm 0.00 in0.0 mm
01:44 AM 37.2°F2.9°C 33.7°F0.9°C 87% 5.8 mph NE9.3 kmh NE 4.6 mph7.4 kmh 29.93 in1013.5 mb - 0.00 in0.0 mm 0.00 in0.0 mm
01:45 AM 37.2°F2.9°C 33.7°F0.9°C 87% 3.5 mph NNE5.6 kmh NNE 4.6 mph7.4 kmh 29.93 in1013.5 mb - 0.00 in0.0 mm 0.00 in0.0 mm
01:46 AM 37.2°F2.9°C 34.0°F1.1°C 88% 3.5 mph NW5.6 kmh NW 4.6 mph7.4 kmh 29.93 in1013.5 mb - 0.00 in0.0 mm 0.00 in0.0 mm
01:47 AM 37.2°F2.9°C 34.0°F1.1°C 88% 3.5 mph N5.6 kmh N 4.6 mph7.4 kmh 29.93 in1013.5 mb - 0.00 in0.0 mm 0.00 in0.0 mm
01:48 AM 37.2°F2.9°C 34.0°F1.1°C 88% 3.5 mph N5.6 kmh N 5.8 mph9.3 kmh 29.93 in1013.5 mb - 0.00 in0.0 mm 0.00 in0.0 mm
01:49 AM 37.2°F2.9°C 34.0°F1.1°C 88% 5.8 mph W9.3 kmh W 8.1 mph13.0 kmh 29.93 in1013.5 mb - 0.00 in0.0 mm 0.00 in0.0 mm
01:50 AM 37.2°F2.9°C 34.0°F1.1°C 88% 5.8 mph NNW9.3 kmh NNW 4.6 mph7.4 kmh 29.93 in1013.5 mb - 0.00 in0.0 mm 0.00 in0.0 mm
01:51 AM 37.2°F2.9°C 34.0°F1.1°C 88% 3.5 mph NW5.6 kmh NW 5.8 mph9.3 kmh 29.93 in1013.5 mb - 0.00 in0.0 mm 0.00 in0.0 mm
01:52 AM 37.0°F2.8°C 33.8°F1.0°C 88% 5.8 mph W9.3 kmh W 10.4 mph16.7 kmh 29.93 in1013.5 mb - 0.00 in0.0 mm 0.00 in0.0 mm
01:53 AM 37.0°F2.8°C 33.8°F1.0°C 88% 5.8 mph W9.3 kmh W 9.2 mph14.8 kmh 29.93 in1013.5 mb - 0.00 in0.0 mm 0.00 in0.0 mm
01:54 AM 37.0°F2.8°C 33.8°F1.0°C 88% 5.8 mph N9.3 kmh N 9.2 mph14.8 kmh 29.93 in1013.5 mb - 0.00 in0.0 mm 0.00 in0.0 mm
01:55 AM 37.0°F2.8°C 33.8°F1.0°C 88% 5.8 mph N9.3 kmh N 5.8 mph9.3 kmh 29.93 in1013.5 mb - 0.00 in0.0 mm 0.00 in0.0 mm
01:56 AM 37.0°F2.8°C 33.8°F1.0°C 88% 4.6 mph NW7.4 kmh NW 4.6 mph7.4 kmh 29.93 in1013.5 mb - 0.00 in0.0 mm 0.00 in0.0 mm
01:57 AM 37.0°F2.8°C 33.7°F0.9°C 88% 4.6 mph NW7.4 kmh NW 4.6 mph7.4 kmh 29.93 in1013.5 mb - 0.00 in0.0 mm 0.00 in0.0 mm
01:58 AM 36.9°F2.7°C 33.7°F0.9°C 88% 3.5 mph NW5.6 kmh NW 4.6 mph7.4 kmh 29.93 in1013.5 mb - 0.00 in0.0 mm 0.00 in0.0 mm
01:59 AM 36.9°F2.7°C 34.0°F1.1°C 89% 4.6 mph NNW7.4 kmh NNW 5.8 mph9.3 kmh 29.93 in1013.5 mb - 0.00 in0.0 mm 0.00 in0.0 mm
02:00 AM 36.9°F2.7°C 34.0°F1.1°C 89% 4.6 mph NNE7.4 kmh NNE 5.8 mph9.3 kmh 29.93 in1013.5 mb - 0.00 in0.0 mm 0.00 in0.0 mm
02:01 AM 36.9°F2.7°C 34.0°F1.1°C 89% 4.6 mph NNW7.4 kmh NNW 5.8 mph9.3 kmh 29.93 in1013.5 mb - 0.00 in0.0 mm 0.00 in0.0 mm
02:02 AM 36.9°F2.7°C 33.9°F1.1°C 89% 4.6 mph NW7.4 kmh NW 5.8 mph9.3 kmh 29.94 in1013.9 mb - 0.00 in0.0 mm 0.00 in0.0 mm
02:03 AM 36.7°F2.6°C 33.8°F1.0°C 89% 4.6 mph NNW7.4 kmh NNW 5.8 mph9.3 kmh 29.94 in1013.9 mb - 0.00 in0.0 mm 0.00 in0.0 mm
02:04 AM 36.7°F2.6°C 33.5°F0.8°C 88% 4.6 mph NNW7.4 kmh NNW 5.8 mph9.3 kmh 29.94 in1013.9 mb - 0.00 in0.0 mm 0.00 in0.0 mm
02:05 AM 36.7°F2.6°C 33.5°F0.8°C 88% 4.6 mph NNW7.4 kmh NNW 10.4 mph16.7 kmh 29.94 in1013.9 mb - 0.00 in0.0 mm 0.00 in0.0 mm
02:06 AM 36.7°F2.6°C 33.5°F0.8°C 88% 8.1 mph NNW13.0 kmh NNW 9.2 mph14.8 kmh 29.94 in1013.9 mb - 0.00 in0.0 mm 0.00 in0.0 mm
02:07 AM 36.7°F2.6°C 33.5°F0.8°C 88% 4.6 mph NW7.4 kmh NW 5.8 mph9.3 kmh 29.94 in1013.9 mb - 0.00 in0.0 mm 0.00 in0.0 mm
02:08 AM 36.5°F2.5°C 33.3°F0.7°C 88% 5.8 mph W9.3 kmh W 5.8 mph9.3 kmh 29.94 in1013.9 mb - 0.00 in0.0 mm 0.00 in0.0 mm
02:09 AM 36.5°F2.5°C 33.3°F0.7°C 88% 4.6 mph NW7.4 kmh NW 5.8 mph9.3 kmh 29.94 in1013.9 mb - 0.00 in0.0 mm 0.00 in0.0 mm
02:10 AM 36.5°F2.5°C 33.3°F0.7°C 88% 3.5 mph N5.6 kmh N 4.6 mph7.4 kmh 29.94 in1013.9 mb - 0.00 in0.0 mm 0.00 in0.0 mm
02:11 AM 36.5°F2.5°C 33.3°F0.7°C 88% 4.6 mph N7.4 kmh N 8.1 mph13.0 kmh 29.94 in1013.9 mb - 0.00 in0.0 mm 0.00 in0.0 mm
02:12 AM 36.5°F2.5°C 33.0°F0.6°C 87% 5.8 mph N9.3 kmh N 8.1 mph13.0 kmh 29.94 in1013.9 mb - 0.00 in0.0 mm 0.00 in0.0 mm
02:13 AM 36.5°F2.5°C 33.0°F0.6°C 87% 6.9 mph NNW11.1 kmh NNW 6.9 mph11.1 kmh 29.94 in1013.9 mb - 0.00 in0.0 mm 0.00 in0.0 mm
02:14 AM 36.5°F2.5°C 33.0°F0.6°C 87% 4.6 mph NW7.4 kmh NW 5.8 mph9.3 kmh 29.95 in1014.2 mb - 0.00 in0.0 mm 0.00 in0.0 mm
02:15 AM 36.5°F2.5°C 33.0°F0.6°C 87% 4.6 mph N7.4 kmh N 5.8 mph9.3 kmh 29.95 in1014.2 mb - 0.00 in0.0 mm 0.00 in0.0 mm
02:16 AM 36.5°F2.5°C 33.0°F0.6°C 87% 4.6 mph WNW7.4 kmh WNW 5.8 mph9.3 kmh 29.95 in1014.2 mb - 0.00 in0.0 mm 0.00 in0.0 mm
02:17 AM 36.5°F2.5°C 33.0°F0.6°C 87% 3.5 mph NNW5.6 kmh NNW 3.5 mph5.6 kmh 29.95 in1014.2 mb - 0.00 in0.0 mm 0.00 in0.0 mm
02:18 AM 36.4°F2.4°C 32.9°F0.5°C 87% 3.5 mph NNW5.6 kmh NNW 5.8 mph9.3 kmh 29.95 in1014.2 mb - 0.00 in0.0 mm 0.00 in0.0 mm
02:19 AM 36.3°F2.4°C 32.8°F0.4°C 87% 4.6 mph NNW7.4 kmh NNW 4.6 mph7.4 kmh 29.95 in1014.2 mb - 0.00 in0.0 mm 0.00 in0.0 mm
02:20 AM 36.3°F2.4°C 32.8°F0.4°C 87% 4.6 mph W7.4 kmh W 5.8 mph9.3 kmh 29.95 in1014.2 mb - 0.00 in0.0 mm 0.00 in0.0 mm
02:21 AM 36.3°F2.4°C 32.8°F0.4°C 87% 3.5 mph NW5.6 kmh NW 5.8 mph9.3 kmh 29.95 in1014.2 mb - 0.00 in0.0 mm 0.00 in0.0 mm
02:22 AM 36.3°F2.4°C 32.8°F0.4°C 87% 4.6 mph NNE7.4 kmh NNE 6.9 mph11.1 kmh 29.95 in1014.2 mb - 0.00 in0.0 mm 0.00 in0.0 mm
02:23 AM 36.2°F2.3°C 32.7°F0.4°C 87% 6.9 mph N11.1 kmh N 6.9 mph11.1 kmh 29.95 in1014.2 mb - 0.00 in0.0 mm 0.00 in0.0 mm
02:24 AM 36.1°F2.3°C 32.6°F0.3°C 87% 4.6 mph N7.4 kmh N 6.9 mph11.1 kmh 29.95 in1014.2 mb - 0.00 in0.0 mm 0.00 in0.0 mm
02:25 AM 36.1°F2.3°C 32.6°F0.3°C 87% 4.6 mph NW7.4 kmh NW 5.8 mph9.3 kmh 29.95 in1014.2 mb - 0.00 in0.0 mm 0.00 in0.0 mm
02:26 AM 36.1°F2.3°C 32.6°F0.3°C 87% 5.8 mph NW9.3 kmh NW 8.1 mph13.0 kmh 29.94 in1013.9 mb - 0.00 in0.0 mm 0.00 in0.0 mm
02:27 AM 36.1°F2.3°C 32.6°F0.3°C 87% 4.6 mph N7.4 kmh N 4.6 mph7.4 kmh 29.94 in1013.9 mb - 0.00 in0.0 mm 0.00 in0.0 mm
02:28 AM 36.1°F2.3°C 32.6°F0.3°C 87% 4.6 mph NW7.4 kmh NW 8.1 mph13.0 kmh 29.94 in1013.9 mb - 0.00 in0.0 mm 0.00 in0.0 mm
02:29 AM 36.1°F2.3°C 32.6°F0.3°C 87% 6.9 mph N11.1 kmh N 8.1 mph13.0 kmh 29.94 in1013.9 mb - 0.00 in0.0 mm 0.00 in0.0 mm
02:30 AM 36.1°F2.3°C 32.6°F0.3°C 87% 4.6 mph NE7.4 kmh NE 4.6 mph7.4 kmh 29.94 in1013.9 mb - 0.00 in0.0 mm 0.00 in0.0 mm
02:31 AM 36.1°F2.3°C 32.6°F0.3°C 87% 4.6 mph NW7.4 kmh NW 5.8 mph9.3 kmh 29.94 in1013.9 mb - 0.00 in0.0 mm 0.00 in0.0 mm
02:32 AM 36.1°F2.3°C 32.6°F0.3°C 87% 3.5 mph NNW5.6 kmh NNW 4.6 mph7.4 kmh 29.94 in1013.9 mb - 0.00 in0.0 mm 0.00 in0.0 mm
02:33 AM 36.1°F2.3°C 32.6°F0.3°C 87% 3.5 mph N5.6 kmh N 5.8 mph9.3 kmh 29.94 in1013.9 mb - 0.00 in0.0 mm 0.00 in0.0 mm
02:34 AM 36.0°F2.2°C 32.5°F0.3°C 87% 4.6 mph NNW7.4 kmh NNW 6.9 mph11.1 kmh 29.94 in1013.9 mb - 0.00 in0.0 mm 0.00 in0.0 mm
02:35 AM 36.0°F2.2°C 32.5°F0.3°C 87% 3.5 mph N5.6 kmh N 6.9 mph11.1 kmh 29.94 in1013.9 mb - 0.00 in0.0 mm 0.00 in0.0 mm
02:36 AM 36.0°F2.2°C 32.5°F0.3°C 87% 4.6 mph N7.4 kmh N 6.9 mph11.1 kmh 29.94 in1013.9 mb - 0.00 in0.0 mm 0.00 in0.0 mm
02:37 AM 36.0°F2.2°C 32.5°F0.3°C 87% 3.5 mph NW5.6 kmh NW 6.9 mph11.1 kmh 29.95 in1014.2 mb - 0.00 in0.0 mm 0.00 in0.0 mm
02:38 AM 36.0°F2.2°C 32.5°F0.3°C 87% 5.8 mph N9.3 kmh N 5.8 mph9.3 kmh 29.95 in1014.2 mb - 0.00 in0.0 mm 0.00 in0.0 mm
02:39 AM 36.0°F2.2°C 32.5°F0.3°C 87% 4.6 mph NW7.4 kmh NW 3.5 mph5.6 kmh 29.95 in1014.2 mb - 0.00 in0.0 mm 0.00 in0.0 mm
02:40 AM 36.0°F2.2°C 32.5°F0.3°C 87% 3.5 mph NNW5.6 kmh NNW 3.5 mph5.6 kmh 29.95 in1014.2 mb - 0.00 in0.0 mm 0.00 in0.0 mm
02:41 AM 36.0°F2.2°C 32.5°F0.3°C 87% 3.5 mph NW5.6 kmh NW 3.5 mph5.6 kmh 29.95 in1014.2 mb - 0.00 in0.0 mm 0.00 in0.0 mm
02:42 AM 36.0°F2.2°C 32.5°F0.3°C 87% 3.5 mph WNW5.6 kmh WNW 5.8 mph9.3 kmh 29.95 in1014.2 mb - 0.00 in0.0 mm 0.00 in0.0 mm
02:43 AM 36.0°F2.2°C 32.5°F0.3°C 87% 3.5 mph NW5.6 kmh NW 4.6 mph7.4 kmh 29.95 in1014.2 mb - 0.00 in0.0 mm 0.00 in0.0 mm
02:44 AM 35.9°F2.2°C 32.4°F0.2°C 87% 4.6 mph N7.4 kmh N 6.9 mph11.1 kmh 29.95 in1014.2 mb - 0.00 in0.0 mm 0.00 in0.0 mm
02:45 AM 35.8°F2.1°C 32.3°F0.2°C 87% 5.8 mph N9.3 kmh N 5.8 mph9.3 kmh 29.95 in1014.2 mb - 0.00 in0.0 mm 0.00 in0.0 mm
02:46 AM 35.8°F2.1°C 32.0°F0.0°C 86% 4.6 mph N7.4 kmh N 5.8 mph9.3 kmh 29.95 in1014.2 mb - 0.00 in0.0 mm 0.00 in0.0 mm
02:47 AM 35.8°F2.1°C 32.0°F0.0°C 86% 4.6 mph N7.4 kmh N 5.8 mph9.3 kmh 29.95 in1014.2 mb - 0.00 in0.0 mm 0.00 in0.0 mm
02:48 AM 35.8°F2.1°C 32.0°F0.0°C 86% 4.6 mph WNW7.4 kmh WNW 6.9 mph11.1 kmh 29.95 in1014.2 mb - 0.00 in0.0 mm 0.00 in0.0 mm
02:49 AM 35.8°F2.1°C 32.0°F0.0°C 86% 4.6 mph N7.4 kmh N 4.6 mph7.4 kmh 29.95 in1014.2 mb - 0.00 in0.0 mm 0.00 in0.0 mm
02:50 AM 35.8°F2.1°C 32.0°F0.0°C 86% 3.5 mph N5.6 kmh N 3.5 mph5.6 kmh 29.95 in1014.2 mb - 0.00 in0.0 mm 0.00 in0.0 mm
02:51 AM 35.8°F2.1°C 32.0°F0.0°C 86% 3.5 mph NNW5.6 kmh NNW 6.9 mph11.1 kmh 29.95 in1014.2 mb - 0.00 in0.0 mm 0.00 in0.0 mm
02:52 AM 35.8°F2.1°C 32.0°F0.0°C 86% 4.6 mph N7.4 kmh N 6.9 mph11.1 kmh 29.95 in1014.2 mb - 0.00 in0.0 mm 0.00 in0.0 mm
02:53 AM 35.8°F2.1°C 32.0°F0.0°C 86% 4.6 mph NNE7.4 kmh NNE 5.8 mph9.3 kmh 29.95 in1014.2 mb - 0.00 in0.0 mm 0.00 in0.0 mm
02:54 AM 35.8°F2.1°C 32.0°F0.0°C 86% 3.5 mph N5.6 kmh N 5.8 mph9.3 kmh 29.95 in1014.2 mb - 0.00 in0.0 mm 0.00 in0.0 mm
02:55 AM 35.8°F2.1°C 32.0°F0.0°C 86% 4.6 mph N7.4 kmh N 4.6 mph7.4 kmh 29.95 in1014.2 mb - 0.00 in0.0 mm 0.00 in0.0 mm
02:56 AM 35.7°F2.1°C 32.0°F0.0°C 86% 3.5 mph N5.6 kmh N 4.6 mph7.4 kmh 29.95 in1014.2 mb - 0.00 in0.0 mm 0.00 in0.0 mm
02:57 AM 35.6°F2.0°C 31.8°F-0.1°C 86% 3.5 mph N5.6 kmh N 4.6 mph7.4 kmh 29.95 in1014.2 mb - 0.00 in0.0 mm 0.00 in0.0 mm
02:58 AM 35.6°F2.0°C 31.8°F-0.1°C 86% 3.5 mph NNW5.6 kmh NNW 5.8 mph9.3 kmh 29.95 in1014.2 mb - 0.00 in0.0 mm 0.00 in0.0 mm
02:59 AM 35.6°F2.0°C 31.8°F-0.1°C 86% 4.6 mph NNW7.4 kmh NNW 4.6 mph7.4 kmh 29.95 in1014.2 mb - 0.00 in0.0 mm 0.00 in0.0 mm
03:00 AM 35.6°F2.0°C 31.8°F-0.1°C 86% 4.6 mph NNW7.4 kmh NNW 4.6 mph7.4 kmh 29.95 in1014.2 mb - 0.00 in0.0 mm 0.00 in0.0 mm
03:01 AM 35.6°F2.0°C 31.8°F-0.1°C 86% 3.5 mph N5.6 kmh N 3.5 mph5.6 kmh 29.95 in1014.2 mb - 0.00 in0.0 mm 0.00 in0.0 mm
03:02 AM 35.6°F2.0°C 31.8°F-0.1°C 86% 3.5 mph N5.6 kmh N 3.5 mph5.6 kmh 29.95 in1014.2 mb - 0.00 in0.0 mm 0.00 in0.0 mm
03:03 AM 35.6°F2.0°C 31.8°F-0.1°C 86% 2.3 mph N3.7 kmh N 3.5 mph5.6 kmh 29.95 in1014.2 mb - 0.00 in0.0 mm 0.00 in0.0 mm
03:04 AM 35.6°F2.0°C 31.8°F-0.1°C 86% 3.5 mph NW5.6 kmh NW 3.5 mph5.6 kmh 29.95 in1014.2 mb - 0.00 in0.0 mm 0.00 in0.0 mm
03:05 AM 35.6°F2.0°C 31.8°F-0.1°C 86% 3.5 mph N5.6 kmh N 3.5 mph5.6 kmh 29.95 in1014.2 mb - 0.00 in0.0 mm 0.00 in0.0 mm
03:06 AM 35.5°F1.9°C 31.8°F-0.1°C 86% 2.3 mph NW3.7 kmh NW 3.5 mph5.6 kmh 29.95 in1014.2 mb - 0.00 in0.0 mm 0.00 in0.0 mm
03:07 AM 35.4°F1.9°C 31.6°F-0.2°C 86% 2.3 mph NNE3.7 kmh NNE 3.5 mph5.6 kmh 29.95 in1014.2 mb - 0.00 in0.0 mm 0.00 in0.0 mm
03:08 AM 35.4°F1.9°C 31.6°F-0.2°C 86% 2.3 mph N3.7 kmh N 3.5 mph5.6 kmh 29.95 in1014.2 mb - 0.00 in0.0 mm 0.00 in0.0 mm
03:09 AM 35.4°F1.9°C 31.6°F-0.2°C 86% 3.5 mph N5.6 kmh N 3.5 mph5.6 kmh 29.95 in1014.2 mb - 0.00 in0.0 mm 0.00 in0.0 mm
03:10 AM 35.4°F1.9°C 31.6°F-0.2°C 86% 2.3 mph NNE3.7 kmh NNE 2.3 mph3.7 kmh 29.95 in1014.2 mb - 0.00 in0.0 mm 0.00 in0.0 mm
03:11 AM 35.4°F1.9°C 31.6°F-0.2°C 86% 1.2 mph NNW1.9 kmh NNW 2.3 mph3.7 kmh 29.95 in1014.2 mb - 0.00 in0.0 mm 0.00 in0.0 mm
03:12 AM 35.4°F1.9°C 31.9°F-0.1°C 87% 2.3 mph NW3.7 kmh NW 3.5 mph5.6 kmh 29.95 in1014.2 mb - 0.00 in0.0 mm 0.00 in0.0 mm
03:13 AM 35.4°F1.9°C 31.9°F-0.1°C 87% 3.5 mph WNW5.6 kmh WNW 3.5 mph5.6 kmh 29.95 in1014.2 mb - 0.00 in0.0 mm 0.00 in0.0 mm
03:14 AM 35.4°F1.9°C 31.9°F-0.1°C 87% 2.3 mph N3.7 kmh N 2.3 mph3.7 kmh 29.95 in1014.2 mb - 0.00 in0.0 mm 0.00 in0.0 mm
03:15 AM 35.4°F1.9°C 31.9°F-0.1°C 87% 2.3 mph NW3.7 kmh NW 3.5 mph5.6 kmh 29.95 in1014.2 mb - 0.00 in0.0 mm 0.00 in0.0 mm
03:16 AM 35.2°F1.8°C 31.7°F-0.2°C 87% 2.3 mph NE3.7 kmh NE 2.3 mph3.7 kmh 29.95 in1014.2 mb - 0.00 in0.0 mm 0.00 in0.0 mm
03:17 AM 35.2°F1.8°C 31.7°F-0.2°C 87% 2.3 mph NNW3.7 kmh NNW 3.5 mph5.6 kmh 29.95 in1014.2 mb - 0.00 in0.0 mm 0.00 in0.0 mm
03:18 AM 35.2°F1.8°C 31.7°F-0.2°C 87% 3.5 mph NNW5.6 kmh NNW 3.5 mph5.6 kmh 29.95 in1014.2 mb - 0.00 in0.0 mm 0.00 in0.0 mm
03:19 AM 35.2°F1.8°C 31.7°F-0.2°C 87% 2.3 mph N3.7 kmh N 2.3 mph3.7 kmh 29.95 in1014.2 mb - 0.00 in0.0 mm 0.00 in0.0 mm
03:20 AM 35.2°F1.8°C 31.7°F-0.2°C 87% 2.3 mph N3.7 kmh N 2.3 mph3.7 kmh 29.95 in1014.2 mb - 0.00 in0.0 mm 0.00 in0.0 mm
03:21 AM 35.2°F1.8°C 32.0°F0.0°C 88% 2.3 mph NW3.7 kmh NW 3.5 mph5.6 kmh 29.95 in1014.2 mb - 0.00 in0.0 mm 0.00 in0.0 mm
03:22 AM 35.2°F1.8°C 32.0°F0.0°C 88% 3.5 mph NNW5.6 kmh NNW 3.5 mph5.6 kmh 29.95 in1014.2 mb - 0.00 in0.0 mm 0.00 in0.0 mm
03:23 AM 35.2°F1.8°C 32.0°F0.0°C 88% 2.3 mph NNW3.7 kmh NNW 3.5 mph5.6 kmh 29.95 in1014.2 mb - 0.00 in0.0 mm 0.00 in0.0 mm
03:24 AM 35.2°F1.8°C 32.0°F0.0°C 88% 2.3 mph NW3.7 kmh NW 2.3 mph3.7 kmh 29.95 in1014.2 mb - 0.00 in0.0 mm 0.00 in0.0 mm
03:25 AM 35.2°F1.8°C 32.0°F0.0°C 88% 2.3 mph NW3.7 kmh NW 2.3 mph3.7 kmh 29.95 in1014.2 mb - 0.00 in0.0 mm 0.00 in0.0 mm
03:26 AM 35.1°F1.7°C 31.9°F-0.1°C 88% 2.3 mph N3.7 kmh N 2.3 mph3.7 kmh 29.95 in1014.2 mb - 0.00 in0.0 mm 0.00 in0.0 mm
03:27 AM 35.1°F1.7°C 31.9°F-0.1°C 88% 2.3 mph N3.7 kmh N 2.3 mph3.7 kmh 29.95 in1014.2 mb - 0.00 in0.0 mm 0.00 in0.0 mm
03:28 AM 35.1°F1.7°C 31.9°F-0.1°C 88% 2.3 mph N3.7 kmh N 2.3 mph3.7 kmh 29.95 in1014.2 mb - 0.00 in0.0 mm 0.00 in0.0 mm
03:29 AM 35.1°F1.7°C 31.9°F-0.1°C 88% 2.3 mph NW3.7 kmh NW 3.5 mph5.6 kmh 29.95 in1014.2 mb - 0.00 in0.0 mm 0.00 in0.0 mm
03:30 AM 35.1°F1.7°C 31.9°F-0.1°C 88% 3.5 mph NNW5.6 kmh NNW 3.5 mph5.6 kmh 29.95 in1014.2 mb - 0.00 in0.0 mm 0.00 in0.0 mm
03:31 AM 35.1°F1.7°C 31.9°F-0.1°C 88% 3.5 mph N5.6 kmh N 5.8 mph9.3 kmh 29.95 in1014.2 mb - 0.00 in0.0 mm 0.00 in0.0 mm
03:32 AM 35.1°F1.7°C 31.9°F-0.1°C 88% 3.5 mph WNW5.6 kmh WNW 4.6 mph7.4 kmh 29.95 in1014.2 mb - 0.00 in0.0 mm 0.00 in0.0 mm
03:33 AM 35.1°F1.7°C 31.9°F-0.1°C 88% 3.5 mph NE5.6 kmh NE 4.6 mph7.4 kmh 29.95 in1014.2 mb - 0.00 in0.0 mm 0.00 in0.0 mm
03:34 AM 35.1°F1.7°C 31.9°F-0.1°C 88% 3.5 mph WNW5.6 kmh WNW 4.6 mph7.4 kmh 29.95 in1014.2 mb - 0.00 in0.0 mm 0.00 in0.0 mm
03:35 AM 35.1°F1.7°C 31.9°F-0.1°C 88% 3.5 mph NW5.6 kmh NW 3.5 mph5.6 kmh 29.95 in1014.2 mb - 0.00 in0.0 mm 0.00 in0.0 mm
03:36 AM 35.1°F1.7°C 31.9°F-0.1°C 88% 2.3 mph N3.7 kmh N 2.3 mph3.7 kmh 29.95 in1014.2 mb - 0.00 in0.0 mm 0.00 in0.0 mm
03:37 AM 35.1°F1.7°C 31.9°F-0.1°C 88% 2.3 mph NE3.7 kmh NE 2.3 mph3.7 kmh 29.95 in1014.2 mb - 0.00 in0.0 mm 0.00 in0.0 mm
03:38 AM 35.1°F1.7°C 31.9°F-0.1°C 88% 2.3 mph N3.7 kmh N 3.5 mph5.6 kmh 29.95 in1014.2 mb - 0.00 in0.0 mm 0.00 in0.0 mm
03:39 AM 35.1°F1.7°C 31.9°F-0.1°C 88% 3.5 mph NW5.6 kmh NW 3.5 mph5.6 kmh 29.95 in1014.2 mb - 0.00 in0.0 mm 0.00 in0.0 mm
03:40 AM 35.1°F1.7°C 31.9°F-0.1°C 88% 3.5 mph NNE5.6 kmh NNE 3.5 mph5.6 kmh 29.95 in1014.2 mb - 0.00 in0.0 mm 0.00 in0.0 mm
03:41 AM 35.1°F1.7°C 31.9°F-0.1°C 88% 2.3 mph N3.7 kmh N 3.5 mph5.6 kmh 29.95 in1014.2 mb - 0.00 in0.0 mm 0.00 in0.0 mm
03:42 AM 35.1°F1.7°C 31.9°F-0.1°C 88% 2.3 mph N3.7 kmh N 2.3 mph3.7 kmh 29.95 in1014.2 mb - 0.00 in0.0 mm 0.00 in0.0 mm
03:43 AM 35.1°F1.7°C 31.9°F-0.1°C 88% 2.3 mph NNW3.7 kmh NNW 3.5 mph5.6 kmh 29.95 in1014.2 mb - 0.00 in0.0 mm 0.00 in0.0 mm
03:44 AM 34.9°F1.6°C 31.7°F-0.2°C 88% 3.5 mph NNW5.6 kmh NNW 4.6 mph7.4 kmh 29.95 in1014.2 mb - 0.00 in0.0 mm 0.00 in0.0 mm
03:45 AM 34.9°F1.6°C 31.7°F-0.2°C 88% 3.5 mph NNE5.6 kmh NNE 4.6 mph7.4 kmh 29.95 in1014.2 mb - 0.00 in0.0 mm 0.00 in0.0 mm
03:46 AM 34.9°F1.6°C 31.7°F-0.2°C 88% 2.3 mph NW3.7 kmh NW 4.6 mph7.4 kmh 29.95 in1014.2 mb - 0.00 in0.0 mm 0.00 in0.0 mm
03:47 AM 34.9°F1.6°C 31.7°F-0.2°C 88% 3.5 mph NNW5.6 kmh NNW 3.5 mph5.6 kmh 29.95 in1014.2 mb - 0.00 in0.0 mm 0.00 in0.0 mm
03:48 AM 34.9°F1.6°C 31.7°F-0.2°C 88% 2.3 mph NNW3.7 kmh NNW 3.5 mph5.6 kmh 29.95 in1014.2 mb - 0.00 in0.0 mm 0.00 in0.0 mm
03:49 AM 34.9°F1.6°C 31.7°F-0.2°C 88% 3.5 mph NNW5.6 kmh NNW 4.6 mph7.4 kmh 29.95 in1014.2 mb - 0.00 in0.0 mm 0.00 in0.0 mm
03:50 AM 34.9°F1.6°C 31.7°F-0.2°C 88% 4.6 mph N7.4 kmh N 6.9 mph11.1 kmh 29.95 in1014.2 mb - 0.00 in0.0 mm 0.00 in0.0 mm
03:51 AM 34.9°F1.6°C 31.7°F-0.2°C 88% 4.6 mph N7.4 kmh N 4.6 mph7.4 kmh 29.95 in1014.2 mb - 0.00 in0.0 mm 0.00 in0.0 mm
03:52 AM 34.9°F1.6°C 31.7°F-0.2°C 88% 3.5 mph NW5.6 kmh NW 3.5 mph5.6 kmh 29.95 in1014.2 mb - 0.00 in0.0 mm 0.00 in0.0 mm
03:53 AM 34.9°F1.6°C 31.7°F-0.2°C 88% 3.5 mph NW5.6 kmh NW 5.8 mph9.3 kmh 29.95 in1014.2 mb - 0.00 in0.0 mm 0.00 in0.0 mm
03:54 AM 34.9°F1.6°C 31.7°F-0.2°C 88% 4.6 mph NW7.4 kmh NW 5.8 mph9.3 kmh 29.95 in1014.2 mb - 0.00 in0.0 mm 0.00 in0.0 mm
03:55 AM 34.9°F1.6°C 31.7°F-0.2°C 88% 2.3 mph NW3.7 kmh NW 3.5 mph5.6 kmh 29.95 in1014.2 mb - 0.00 in0.0 mm 0.00 in0.0 mm
03:56 AM 34.9°F1.6°C 31.7°F-0.2°C 88% 3.5 mph NNW5.6 kmh NNW 6.9 mph11.1 kmh 29.95 in1014.2 mb - 0.00 in0.0 mm 0.00 in0.0 mm
03:57 AM 34.9°F1.6°C 31.7°F-0.2°C 88% 4.6 mph N7.4 kmh N 5.8 mph9.3 kmh 29.95 in1014.2 mb - 0.00 in0.0 mm 0.00 in0.0 mm
03:58 AM 34.9°F1.6°C 31.4°F-0.3°C 87% 4.6 mph NNE7.4 kmh NNE 6.9 mph11.1 kmh 29.95 in1014.2 mb - 0.00 in0.0 mm 0.00 in0.0 mm
03:59 AM 34.9°F1.6°C 31.4°F-0.3°C 87% 4.6 mph WNW7.4 kmh WNW 6.9 mph11.1 kmh 29.95 in1014.2 mb - 0.00 in0.0 mm 0.00 in0.0 mm
04:00 AM 34.9°F1.6°C 31.1°F-0.5°C 86% 4.6 mph NE7.4 kmh NE 4.6 mph7.4 kmh 29.95 in1014.2 mb - 0.00 in0.0 mm 0.00 in0.0 mm
04:01 AM 34.9°F1.6°C 31.1°F-0.5°C 86% 3.5 mph NW5.6 kmh NW 4.6 mph7.4 kmh 29.95 in1014.2 mb - 0.00 in0.0 mm 0.00 in0.0 mm
04:02 AM 34.9°F1.6°C 31.1°F-0.5°C 86% 3.5 mph NW5.6 kmh NW 4.6 mph7.4 kmh 29.95 in1014.2 mb - 0.00 in0.0 mm 0.00 in0.0 mm
04:03 AM 34.9°F1.6°C 31.1°F-0.5°C 86% 3.5 mph N5.6 kmh N 3.5 mph5.6 kmh 29.95 in1014.2 mb - 0.00 in0.0 mm 0.00 in0.0 mm
04:04 AM 34.9°F1.6°C 31.1°F-0.5°C 86% 3.5 mph N5.6 kmh N 8.1 mph13.0 kmh 29.95 in1014.2 mb - 0.00 in0.0 mm 0.00 in0.0 mm
04:05 AM 34.9°F1.6°C 31.1°F-0.5°C 86% 5.8 mph NW9.3 kmh NW 8.1 mph13.0 kmh 29.95 in1014.2 mb - 0.00 in0.0 mm 0.00 in0.0 mm
04:06 AM 34.9°F1.6°C 31.1°F-0.5°C 86% 4.6 mph NNW7.4 kmh NNW 3.5 mph5.6 kmh 29.95 in1014.2 mb - 0.00 in0.0 mm 0.00 in0.0 mm
04:07 AM 34.9°F1.6°C 31.1°F-0.5°C 86% 2.3 mph NE3.7 kmh NE 3.5 mph5.6 kmh 29.95 in1014.2 mb - 0.00 in0.0 mm 0.00 in0.0 mm
04:08 AM 34.9°F1.6°C 31.1°F-0.5°C 86% 2.3 mph NNE3.7 kmh NNE 5.8 mph9.3 kmh 29.95 in1014.2 mb - 0.00 in0.0 mm 0.00 in0.0 mm
04:09 AM 34.9°F1.6°C 31.1°F-0.5°C 86% 3.5 mph N5.6 kmh N 5.8 mph9.3 kmh 29.95 in1014.2 mb - 0.00 in0.0 mm 0.00 in0.0 mm
04:10 AM 34.9°F1.6°C 31.1°F-0.5°C 86% 4.6 mph N7.4 kmh N 5.8 mph9.3 kmh 29.95 in1014.2 mb - 0.00 in0.0 mm 0.00 in0.0 mm
04:11 AM 34.9°F1.6°C 31.1°F-0.5°C 86% 4.6 mph N7.4 kmh N 5.8 mph9.3 kmh 29.95 in1014.2 mb - 0.00 in0.0 mm 0.00 in0.0 mm
04:12 AM 34.9°F1.6°C 31.1°F-0.5°C 86% 4.6 mph N7.4 kmh N 4.6 mph7.4 kmh 29.95 in1014.2 mb - 0.00 in0.0 mm 0.00 in0.0 mm
04:13 AM 34.9°F1.6°C 31.1°F-0.5°C 86% 3.5 mph NNW5.6 kmh NNW 5.8 mph9.3 kmh 29.95 in1014.2 mb - 0.00 in0.0 mm 0.00 in0.0 mm
04:14 AM 34.8°F1.6°C 30.7°F-0.7°C 85% 5.8 mph N9.3 kmh N 9.2 mph14.8 kmh 29.95 in1014.2 mb - 0.00 in0.0 mm 0.00 in0.0 mm
04:15 AM 34.7°F1.5°C 30.4°F-0.9°C 84% 6.9 mph NNW11.1 kmh NNW 8.1 mph13.0 kmh 29.95 in1014.2 mb - 0.00 in0.0 mm 0.00 in0.0 mm
04:16 AM 34.7°F1.5°C 30.1°F-1.1°C 83% 6.9 mph NE11.1 kmh NE 9.2 mph14.8 kmh 29.95 in1014.2 mb - 0.00 in0.0 mm 0.00 in0.0 mm
04:17 AM 34.7°F1.5°C 29.8°F-1.2°C 82% 5.8 mph N9.3 kmh N 5.8 mph9.3 kmh 29.95 in1014.2 mb - 0.00 in0.0 mm 0.00 in0.0 mm
04:18 AM 34.7°F1.5°C 29.8°F-1.2°C 82% 4.6 mph NE7.4 kmh NE 5.8 mph9.3 kmh 29.95 in1014.2 mb - 0.00 in0.0 mm 0.00 in0.0 mm
04:19 AM 34.7°F1.5°C 29.8°F-1.2°C 82% 4.6 mph NNE7.4 kmh NNE 5.8 mph9.3 kmh 29.95 in1014.2 mb - 0.00 in0.0 mm 0.00 in0.0 mm
04:20 AM 34.7°F1.5°C 29.8°F-1.2°C 82% 4.6 mph N7.4 kmh N 5.8 mph9.3 kmh 29.95 in1014.2 mb - 0.00 in0.0 mm 0.00 in0.0 mm
04:21 AM 34.7°F1.5°C 29.5°F-1.4°C 81% 3.5 mph NNW5.6 kmh NNW 4.6 mph7.4 kmh 29.95 in1014.2 mb - 0.00 in0.0 mm 0.00 in0.0 mm
04:22 AM 34.7°F1.5°C 29.2°F-1.6°C 80% 3.5 mph NNE5.6 kmh NNE 4.6 mph7.4 kmh 29.95 in1014.2 mb - 0.00 in0.0 mm 0.00 in0.0 mm
04:23 AM 34.7°F1.5°C 28.9°F-1.7°C 79% 4.6 mph NW7.4 kmh NW 5.8 mph9.3 kmh 29.95 in1014.2 mb - 0.00 in0.0 mm 0.00 in0.0 mm
04:24 AM 34.7°F1.5°C 28.5°F-1.9°C 78% 5.8 mph N9.3 kmh N 8.1 mph13.0 kmh 29.95 in1014.2 mb - 0.00 in0.0 mm 0.00 in0.0 mm
04:25 AM 34.7°F1.5°C 28.2°F-2.1°C 77% 8.1 mph NW13.0 kmh NW 9.2 mph14.8 kmh 29.95 in1014.2 mb - 0.00 in0.0 mm 0.00 in0.0 mm
04:26 AM 34.7°F1.5°C 27.9°F-2.3°C 76% 5.8 mph W9.3 kmh W 5.8 mph9.3 kmh 29.95 in1014.2 mb - 0.00 in0.0 mm 0.00 in0.0 mm
04:27 AM 34.7°F1.5°C 28.5°F-1.9°C 78% 3.5 mph N5.6 kmh N 3.5 mph5.6 kmh 29.95 in1014.2 mb - 0.00 in0.0 mm 0.00 in0.0 mm
04:28 AM 34.7°F1.5°C 28.9°F-1.7°C 79% 4.6 mph N7.4 kmh N 6.9 mph11.1 kmh 29.95 in1014.2 mb - 0.00 in0.0 mm 0.00 in0.0 mm
04:29 AM 34.7°F1.5°C 28.8°F-1.8°C 79% 4.6 mph WNW7.4 kmh WNW 5.8 mph9.3 kmh 29.95 in1014.2 mb - 0.00 in0.0 mm 0.00 in0.0 mm
04:30 AM 34.5°F1.4°C 29.0°F-1.7°C 80% 3.5 mph N5.6 kmh N 3.5 mph5.6 kmh 29.95 in1014.2 mb - 0.00 in0.0 mm 0.00 in0.0 mm
04:31 AM 34.5°F1.4°C 29.0°F-1.7°C 80% 3.5 mph N5.6 kmh N 3.5 mph5.6 kmh 29.95 in1014.2 mb - 0.00 in0.0 mm 0.00 in0.0 mm
04:32 AM 34.5°F1.4°C 29.3°F-1.5°C 81% 3.5 mph W5.6 kmh W 5.8 mph9.3 kmh 29.95 in1014.2 mb - 0.00 in0.0 mm 0.00 in0.0 mm
04:33 AM 34.5°F1.4°C 29.0°F-1.7°C 80% 5.8 mph N9.3 kmh N 5.8 mph9.3 kmh 29.95 in1014.2 mb - 0.00 in0.0 mm 0.00 in0.0 mm
04:34 AM 34.5°F1.4°C 29.0°F-1.7°C 80% 4.6 mph NNW7.4 kmh NNW 5.8 mph9.3 kmh 29.95 in1014.2 mb - 0.00 in0.0 mm 0.00 in0.0 mm
04:35 AM 34.3°F1.3°C 28.8°F-1.8°C 80% 3.5 mph N5.6 kmh N 5.8 mph9.3 kmh 29.95 in1014.2 mb - 0.00 in0.0 mm 0.00 in0.0 mm
04:36 AM 34.3°F1.3°C 28.5°F-1.9°C 79% 4.6 mph ENE7.4 kmh ENE 5.8 mph9.3 kmh 29.95 in1014.2 mb - 0.00 in0.0 mm 0.00 in0.0 mm
04:37 AM 34.3°F1.3°C 27.8°F-2.3°C 77% 5.8 mph N9.3 kmh N 8.1 mph13.0 kmh 29.95 in1014.2 mb - 0.00 in0.0 mm 0.00 in0.0 mm
04:38 AM 34.3°F1.3°C 27.8°F-2.3°C 77% 4.6 mph N7.4 kmh N 10.4 mph16.7 kmh 29.95 in1014.2 mb - 0.00 in0.0 mm 0.00 in0.0 mm
04:39 AM 34.3°F1.3°C 27.8°F-2.3°C 77% 6.9 mph N11.1 kmh N 10.4 mph16.7 kmh 29.95 in1014.2 mb - 0.00 in0.0 mm 0.00 in0.0 mm
04:40 AM 34.3°F1.3°C 27.8°F-2.3°C 77% 5.8 mph NE9.3 kmh NE 10.4 mph16.7 kmh 29.95 in1014.2 mb - 0.00 in0.0 mm 0.00 in0.0 mm
04:41 AM 34.3°F1.3°C 27.8°F-2.3°C 77% 8.1 mph N13.0 kmh N 10.4 mph16.7 kmh 29.95 in1014.2 mb - 0.00 in0.0 mm 0.00 in0.0 mm
04:42 AM 34.3°F1.3°C 27.2°F-2.7°C 75% 6.9 mph NNE11.1 kmh NNE 5.8 mph9.3 kmh 29.95 in1014.2 mb - 0.00 in0.0 mm 0.00 in0.0 mm
04:43 AM 34.3°F1.3°C 27.2°F-2.7°C 75% 4.6 mph N7.4 kmh N 10.4 mph16.7 kmh 29.95 in1014.2 mb - 0.00 in0.0 mm 0.00 in0.0 mm
04:44 AM 34.3°F1.3°C 27.2°F-2.7°C 75% 6.9 mph NNE11.1 kmh NNE 10.4 mph16.7 kmh 29.95 in1014.2 mb - 0.00 in0.0 mm 0.00 in0.0 mm
04:45 AM 34.3°F1.3°C 27.2°F-2.7°C 75% 5.8 mph NNW9.3 kmh NNW 5.8 mph9.3 kmh 29.95 in1014.2 mb - 0.00 in0.0 mm 0.00 in0.0 mm
04:46 AM 34.3°F1.3°C 27.2°F-2.7°C 75% 3.5 mph NNW5.6 kmh NNW 4.6 mph7.4 kmh 29.95 in1014.2 mb - 0.00 in0.0 mm 0.00 in0.0 mm
04:47 AM 34.3°F1.3°C 27.2°F-2.7°C 75% 4.6 mph N7.4 kmh N 9.2 mph14.8 kmh 29.95 in1014.2 mb - 0.00 in0.0 mm 0.00 in0.0 mm
04:48 AM 34.3°F1.3°C 27.2°F-2.7°C 75% 6.9 mph NNW11.1 kmh NNW 9.2 mph14.8 kmh 29.95 in1014.2 mb - 0.00 in0.0 mm 0.00 in0.0 mm
04:49 AM 34.2°F1.2°C 27.1°F-2.7°C 75% 6.9 mph NW11.1 kmh NW 5.8 mph9.3 kmh 29.95 in1014.2 mb - 0.00 in0.0 mm 0.00 in0.0 mm
04:50 AM 34.2°F1.2°C 27.1°F-2.7°C 75% 3.5 mph NW5.6 kmh NW 4.6 mph7.4 kmh 29.94 in1013.9 mb - 0.00 in0.0 mm 0.00 in0.0 mm
04:51 AM 34.2°F1.2°C 27.4°F-2.6°C 76% 3.5 mph NNW5.6 kmh NNW 4.6 mph7.4 kmh 29.94 in1013.9 mb - 0.00 in0.0 mm 0.00 in0.0 mm
04:52 AM 34.2°F1.2°C 27.4°F-2.6°C 76% 5.8 mph NE9.3 kmh NE 10.4 mph16.7 kmh 29.94 in1013.9 mb - 0.00 in0.0 mm 0.00 in0.0 mm
04:53 AM 34.0°F1.1°C 26.9°F-2.8°C 75% 8.1 mph N13.0 kmh N 10.4 mph16.7 kmh 29.94 in1013.9 mb - 0.00 in0.0 mm 0.00 in0.0 mm
04:54 AM 34.0°F1.1°C 26.6°F-3.0°C 74% 6.9 mph N11.1 kmh N 8.1 mph13.0 kmh 29.94 in1013.9 mb - 0.00 in0.0 mm 0.00 in0.0 mm
04:55 AM 34.0°F1.1°C 26.6°F-3.0°C 74% 5.8 mph N9.3 kmh N 5.8 mph9.3 kmh 29.94 in1013.9 mb - 0.00 in0.0 mm 0.00 in0.0 mm
04:56 AM 34.0°F1.1°C 26.9°F-2.8°C 75% 4.6 mph N7.4 kmh N 6.9 mph11.1 kmh 29.94 in1013.9 mb - 0.00 in0.0 mm 0.00 in0.0 mm
04:57 AM 34.0°F1.1°C 26.6°F-3.0°C 74% 6.9 mph NW11.1 kmh NW 8.1 mph13.0 kmh 29.94 in1013.9 mb - 0.00 in0.0 mm 0.00 in0.0 mm
04:58 AM 34.0°F1.1°C 26.9°F-2.8°C 75% 5.8 mph NNE9.3 kmh NNE 10.4 mph16.7 kmh 29.94 in1013.9 mb - 0.00 in0.0 mm 0.00 in0.0 mm
04:59 AM 33.8°F1.0°C 26.4°F-3.1°C 74% 8.1 mph N13.0 kmh N 6.9 mph11.1 kmh 29.94 in1013.9 mb - 0.00 in0.0 mm 0.00 in0.0 mm
05:00 AM 33.8°F1.0°C 26.4°F-3.1°C 74% 4.6 mph N7.4 kmh N 4.6 mph7.4 kmh 29.94 in1013.9 mb - 0.00 in0.0 mm 0.00 in0.0 mm
05:01 AM 33.8°F1.0°C 26.4°F-3.1°C 74% 3.5 mph NNW5.6 kmh NNW 3.5 mph5.6 kmh 29.94 in1013.9 mb - 0.00 in0.0 mm 0.00 in0.0 mm
05:02 AM 33.8°F1.0°C 26.7°F-2.9°C 75% 3.5 mph NW5.6 kmh NW 5.8 mph9.3 kmh 29.94 in1013.9 mb - 0.00 in0.0 mm 0.00 in0.0 mm
05:03 AM 33.8°F1.0°C 26.7°F-2.9°C 75% 4.6 mph N7.4 kmh N 6.9 mph11.1 kmh 29.94 in1013.9 mb - 0.00 in0.0 mm 0.00 in0.0 mm
05:04 AM 33.8°F1.0°C 26.7°F-2.9°C 75% 5.8 mph NW9.3 kmh NW 5.8 mph9.3 kmh 29.94 in1013.9 mb - 0.00 in0.0 mm 0.00 in0.0 mm
05:05 AM 33.8°F1.0°C 26.7°F-2.9°C 75% 4.6 mph NW7.4 kmh NW 4.6 mph7.4 kmh 29.94 in1013.9 mb - 0.00 in0.0 mm 0.00 in0.0 mm
05:06 AM 33.7°F0.9°C 26.6°F-3.0°C 75% 4.6 mph N7.4 kmh N 8.1 mph13.0 kmh 29.94 in1013.9 mb - 0.00 in0.0 mm 0.00 in0.0 mm
05:07 AM 33.6°F0.9°C 26.5°F-3.1°C 75% 4.6 mph N7.4 kmh N 5.8 mph9.3 kmh 29.94 in1013.9 mb - 0.00 in0.0 mm 0.00 in0.0 mm
05:08 AM 33.6°F0.9°C 25.9°F-3.4°C 73% 4.6 mph NW7.4 kmh NW 5.8 mph9.3 kmh 29.94 in1013.9 mb - 0.00 in0.0 mm 0.00 in0.0 mm
05:09 AM 33.6°F0.9°C 25.9°F-3.4°C 73% 5.8 mph WNW9.3 kmh WNW 8.1 mph13.0 kmh 29.94 in1013.9 mb - 0.00 in0.0 mm 0.00 in0.0 mm
05:10 AM 33.6°F0.9°C 25.9°F-3.4°C 73% 5.8 mph N9.3 kmh N 5.8 mph9.3 kmh 29.94 in1013.9 mb - 0.00 in0.0 mm 0.00 in0.0 mm
05:11 AM 33.6°F0.9°C 25.9°F-3.4°C 73% 4.6 mph NNW7.4 kmh NNW 5.8 mph9.3 kmh 29.94 in1013.9 mb - 0.00 in0.0 mm 0.00 in0.0 mm
05:12 AM 33.6°F0.9°C 26.2°F-3.2°C 74% 6.9 mph N11.1 kmh N 13.8 mph22.2 kmh 29.94 in1013.9 mb - 0.00 in0.0 mm 0.00 in0.0 mm
05:13 AM 33.6°F0.9°C 25.9°F-3.4°C 73% 10.4 mph NNW16.7 kmh NNW 12.7 mph20.4 kmh 29.94 in1013.9 mb - 0.00 in0.0 mm 0.00 in0.0 mm
05:14 AM 33.6°F0.9°C 25.9°F-3.4°C 73% 8.1 mph WNW13.0 kmh WNW 10.4 mph16.7 kmh 29.95 in1014.2 mb - 0.00 in0.0 mm 0.00 in0.0 mm
05:15 AM 33.6°F0.9°C 25.9°F-3.4°C 73% 6.9 mph NNW11.1 kmh NNW 9.2 mph14.8 kmh 29.95 in1014.2 mb - 0.00 in0.0 mm 0.00 in0.0 mm
05:16 AM 33.6°F0.9°C 25.9°F-3.4°C 73% 6.9 mph NW11.1 kmh NW 10.4 mph16.7 kmh 29.95 in1014.2 mb - 0.00 in0.0 mm 0.00 in0.0 mm
05:17 AM 33.6°F0.9°C 25.9°F-3.4°C 73% 8.1 mph E13.0 kmh E 10.4 mph16.7 kmh 29.95 in1014.2 mb - 0.00 in0.0 mm 0.00 in0.0 mm
05:18 AM 33.6°F0.9°C 25.9°F-3.4°C 73% 6.9 mph N11.1 kmh N 5.8 mph9.3 kmh 29.95 in1014.2 mb - 0.00 in0.0 mm 0.00 in0.0 mm
05:19 AM 33.5°F0.8°C 25.7°F-3.5°C 73% 5.8 mph N9.3 kmh N 8.1 mph13.0 kmh 29.95 in1014.2 mb - 0.00 in0.0 mm 0.00 in0.0 mm
05:20 AM 33.4°F0.8°C 25.7°F-3.5°C 73% 6.9 mph NNW11.1 kmh NNW 8.1 mph13.0 kmh 29.95 in1014.2 mb - 0.00 in0.0 mm 0.00 in0.0 mm
05:21 AM 33.4°F0.8°C 25.7°F-3.5°C 73% 5.8 mph N9.3 kmh N 6.9 mph11.1 kmh 29.95 in1014.2 mb - 0.00 in0.0 mm 0.00 in0.0 mm
05:22 AM 33.4°F0.8°C 25.7°F-3.5°C 73% 5.8 mph NW9.3 kmh NW 8.1 mph13.0 kmh 29.95 in1014.2 mb - 0.00 in0.0 mm 0.00 in0.0 mm
05:23 AM 33.4°F0.8°C 26.0°F-3.3°C 74% 5.8 mph ENE9.3 kmh ENE 11.5 mph18.5 kmh 29.95 in1014.2 mb - 0.00 in0.0 mm 0.00 in0.0 mm
05:24 AM 33.4°F0.8°C 25.7°F-3.5°C 73% 9.2 mph NNE14.8 kmh NNE 11.5 mph18.5 kmh 29.95 in1014.2 mb - 0.00 in0.0 mm 0.00 in0.0 mm
05:25 AM 33.4°F0.8°C 25.7°F-3.5°C 73% 5.8 mph N9.3 kmh N 5.8 mph9.3 kmh 29.95 in1014.2 mb - 0.00 in0.0 mm 0.00 in0.0 mm
05:26 AM 33.4°F0.8°C 26.0°F-3.3°C 74% 5.8 mph N9.3 kmh N 10.4 mph16.7 kmh 29.95 in1014.2 mb - 0.00 in0.0 mm 0.00 in0.0 mm
05:27 AM 33.3°F0.7°C 25.6°F-3.6°C 73% 8.1 mph NNW13.0 kmh NNW 10.4 mph16.7 kmh 29.95 in1014.2 mb - 0.00 in0.0 mm 0.00 in0.0 mm
05:28 AM 33.3°F0.7°C 25.2°F-3.8°C 72% 8.1 mph N13.0 kmh N 12.7 mph20.4 kmh 29.95 in1014.2 mb - 0.00 in0.0 mm 0.00 in0.0 mm
05:29 AM 33.3°F0.7°C 25.2°F-3.8°C 72% 10.4 mph NE16.7 kmh NE 12.7 mph20.4 kmh 29.95 in1014.2 mb - 0.00 in0.0 mm 0.00 in0.0 mm
05:30 AM 33.3°F0.7°C 25.2°F-3.8°C 72% 8.1 mph NE13.0 kmh NE 9.2 mph14.8 kmh 29.95 in1014.2 mb - 0.00 in0.0 mm 0.00 in0.0 mm
05:31 AM 33.3°F0.7°C 25.2°F-3.8°C 72% 8.1 mph N13.0 kmh N 8.1 mph13.0 kmh 29.95 in1014.2 mb - 0.00 in0.0 mm 0.00 in0.0 mm
05:32 AM 33.3°F0.7°C 25.2°F-3.8°C 72% 6.9 mph NNE11.1 kmh NNE 8.1 mph13.0 kmh 29.95 in1014.2 mb - 0.00 in0.0 mm 0.00 in0.0 mm
05:33 AM 33.3°F0.7°C 25.6°F-3.6°C 73% 5.8 mph NNW9.3 kmh NNW 10.4 mph16.7 kmh 29.95 in1014.2 mb - 0.00 in0.0 mm 0.00 in0.0 mm
05:34 AM 33.3°F0.7°C 25.6°F-3.6°C 73% 8.1 mph NW13.0 kmh NW 10.4 mph16.7 kmh 29.95 in1014.2 mb - 0.00 in0.0 mm 0.00 in0.0 mm
05:35 AM 33.3°F0.7°C 25.2°F-3.8°C 72% 6.9 mph N11.1 kmh N 5.8 mph9.3 kmh 29.95 in1014.2 mb - 0.00 in0.0 mm 0.00 in0.0 mm
05:36 AM 33.3°F0.7°C 25.2°F-3.8°C 72% 5.8 mph N9.3 kmh N 6.9 mph11.1 kmh 29.95 in1014.2 mb - 0.00 in0.0 mm 0.00 in0.0 mm
05:37 AM 33.3°F0.7°C 25.2°F-3.8°C 72% 6.9 mph N11.1 kmh N 9.2 mph14.8 kmh 29.95 in1014.2 mb - 0.00 in0.0 mm 0.00 in0.0 mm
05:38 AM 33.3°F0.7°C 25.2°F-3.8°C 72% 5.8 mph NE9.3 kmh NE 5.8 mph9.3 kmh 29.94 in1013.9 mb - 0.00 in0.0 mm 0.00 in0.0 mm
05:39 AM 33.3°F0.7°C 25.2°F-3.8°C 72% 3.5 mph NE5.6 kmh NE 5.8 mph9.3 kmh 29.94 in1013.9 mb - 0.00 in0.0 mm 0.00 in0.0 mm
05:40 AM 33.1°F0.6°C 25.1°F-3.8°C 72% 4.6 mph ENE7.4 kmh ENE 5.8 mph9.3 kmh 29.94 in1013.9 mb - 0.00 in0.0 mm 0.00 in0.0 mm
05:41 AM 33.1°F0.6°C 25.1°F-3.8°C 72% 3.5 mph WNW5.6 kmh WNW 4.6 mph7.4 kmh 29.94 in1013.9 mb - 0.00 in0.0 mm 0.00 in0.0 mm
05:42 AM 33.1°F0.6°C 25.1°F-3.8°C 72% 4.6 mph N7.4 kmh N 5.8 mph9.3 kmh 29.94 in1013.9 mb - 0.00 in0.0 mm 0.00 in0.0 mm
05:43 AM 33.1°F0.6°C 25.1°F-3.8°C 72% 4.6 mph N7.4 kmh N 9.2 mph14.8 kmh 29.94 in1013.9 mb - 0.00 in0.0 mm 0.00 in0.0 mm
05:44 AM 33.1°F0.6°C 25.4°F-3.7°C 73% 5.8 mph N9.3 kmh N 9.2 mph14.8 kmh 29.94 in1013.9 mb - 0.00 in0.0 mm 0.00 in0.0 mm
05:45 AM 33.1°F0.6°C 25.4°F-3.7°C 73% 6.9 mph NNE11.1 kmh NNE 9.2 mph14.8 kmh 29.94 in1013.9 mb - 0.00 in0.0 mm 0.00 in0.0 mm
05:46 AM 33.1°F0.6°C 25.4°F-3.7°C 73% 6.9 mph N11.1 kmh N 10.4 mph16.7 kmh 29.94 in1013.9 mb - 0.00 in0.0 mm 0.00 in0.0 mm
05:47 AM 33.1°F0.6°C 25.1°F-3.8°C 72% 6.9 mph N11.1 kmh N 10.4 mph16.7 kmh 29.94 in1013.9 mb - 0.00 in0.0 mm 0.00 in0.0 mm
05:48 AM 33.1°F0.6°C 25.1°F-3.8°C 72% 9.2 mph NNE14.8 kmh NNE 10.4 mph16.7 kmh 29.94 in1013.9 mb - 0.00 in0.0 mm 0.00 in0.0 mm
05:49 AM 33.1°F0.6°C 25.1°F-3.8°C 72% 6.9 mph NNW11.1 kmh NNW 9.2 mph14.8 kmh 29.94 in1013.9 mb - 0.00 in0.0 mm 0.00 in0.0 mm
05:50 AM 33.1°F0.6°C 25.1°F-3.8°C 72% 6.9 mph W11.1 kmh W 8.1 mph13.0 kmh 29.94 in1013.9 mb - 0.00 in0.0 mm 0.00 in0.0 mm
05:51 AM 33.1°F0.6°C 25.1°F-3.8°C 72% 8.1 mph NNE13.0 kmh NNE 9.2 mph14.8 kmh 29.94 in1013.9 mb - 0.00 in0.0 mm 0.00 in0.0 mm
05:52 AM 33.1°F0.6°C 25.1°F-3.8°C 72% 6.9 mph NNE11.1 kmh NNE 8.1 mph13.0 kmh 29.94 in1013.9 mb - 0.00 in0.0 mm 0.00 in0.0 mm
05:53 AM 33.1°F0.6°C 24.7°F-4.1°C 71% 5.8 mph N9.3 kmh N 6.9 mph11.1 kmh 29.94 in1013.9 mb - 0.00 in0.0 mm 0.00 in0.0 mm
05:54 AM 33.1°F0.6°C 25.1°F-3.8°C 72% 4.6 mph W7.4 kmh W 5.8 mph9.3 kmh 29.94 in1013.9 mb - 0.00 in0.0 mm 0.00 in0.0 mm
05:55 AM 33.0°F0.6°C 24.9°F-3.9°C 72% 4.6 mph NE7.4 kmh NE 5.8 mph9.3 kmh 29.94 in1013.9 mb - 0.00 in0.0 mm 0.00 in0.0 mm
05:56 AM 32.9°F0.5°C 24.9°F-3.9°C 72% 4.6 mph NW7.4 kmh NW 5.8 mph9.3 kmh 29.94 in1013.9 mb - 0.00 in0.0 mm 0.00 in0.0 mm
05:57 AM 32.9°F0.5°C 24.9°F-3.9°C 72% 5.8 mph N9.3 kmh N 8.1 mph13.0 kmh 29.94 in1013.9 mb - 0.00 in0.0 mm 0.00 in0.0 mm
05:58 AM 32.9°F0.5°C 24.5°F-4.2°C 71% 5.8 mph NW9.3 kmh NW 8.1 mph13.0 kmh 29.94 in1013.9 mb - 0.00 in0.0 mm 0.00 in0.0 mm
05:59 AM 32.9°F0.5°C 24.9°F-3.9°C 72% 3.5 mph N5.6 kmh N 3.5 mph5.6 kmh 29.94 in1013.9 mb - 0.00 in0.0 mm 0.00 in0.0 mm
06:00 AM 32.9°F0.5°C 24.9°F-3.9°C 72% 3.5 mph N5.6 kmh N 4.6 mph7.4 kmh 29.94 in1013.9 mb - 0.00 in0.0 mm 0.00 in0.0 mm
06:01 AM 32.9°F0.5°C 24.9°F-3.9°C 72% 4.6 mph N7.4 kmh N 5.8 mph9.3 kmh 29.94 in1013.9 mb - 0.00 in0.0 mm 0.00 in0.0 mm
06:02 AM 32.9°F0.5°C 24.9°F-3.9°C 72% 4.6 mph 7.4 kmh 5.8 mph9.3 kmh 29.94 in1013.9 mb - 0.00 in0.0 mm 0.00 in0.0 mm
06:03 AM 32.9°F0.5°C 24.9°F-3.9°C 72% 4.6 mph NE7.4 kmh NE 5.8 mph9.3 kmh 29.94 in1013.9 mb - 0.00 in0.0 mm 0.00 in0.0 mm
06:04 AM 32.9°F0.5°C 24.9°F-3.9°C 72% 5.8 mph N9.3 kmh N 9.2 mph14.8 kmh 29.94 in1013.9 mb - 0.00 in0.0 mm 0.00 in0.0 mm
06:05 AM 32.9°F0.5°C 24.5°F-4.2°C 71% 6.9 mph N11.1 kmh N 8.1 mph13.0 kmh 29.94 in1013.9 mb - 0.00 in0.0 mm 0.00 in0.0 mm
06:06 AM 32.9°F0.5°C 24.5°F-4.2°C 71% 5.8 mph NNE9.3 kmh NNE 8.1 mph13.0 kmh 29.94 in1013.9 mb - 0.00 in0.0 mm 0.00 in0.0 mm
06:07 AM 32.9°F0.5°C 24.5°F-4.2°C 71% 3.5 mph N5.6 kmh N 5.8 mph9.3 kmh 29.94 in1013.9 mb - 0.00 in0.0 mm 0.00 in0.0 mm
06:08 AM 32.9°F0.5°C 24.5°F-4.2°C 71% 4.6 mph SW7.4 kmh SW 4.6 mph7.4 kmh 29.94 in1013.9 mb - 0.00 in0.0 mm 0.00 in0.0 mm
06:09 AM 32.9°F0.5°C 24.9°F-3.9°C 72% 2.3 mph W3.7 kmh W 2.3 mph3.7 kmh 29.94 in1013.9 mb - 0.00 in0.0 mm 0.00 in0.0 mm
06:10 AM 32.9°F0.5°C 24.9°F-3.9°C 72% 2.3 mph N3.7 kmh N 4.6 mph7.4 kmh 29.94 in1013.9 mb - 0.00 in0.0 mm 0.00 in0.0 mm
06:11 AM 32.9°F0.5°C 24.9°F-3.9°C 72% 4.6 mph WNW7.4 kmh WNW 8.1 mph13.0 kmh 29.94 in1013.9 mb - 0.00 in0.0 mm 0.00 in0.0 mm
06:12 AM 32.9°F0.5°C 24.9°F-3.9°C 72% 4.6 mph N7.4 kmh N 4.6 mph7.4 kmh 29.94 in1013.9 mb - 0.00 in0.0 mm 0.00 in0.0 mm
06:13 AM 32.9°F0.5°C 24.9°F-3.9°C 72% 3.5 mph N5.6 kmh N 4.6 mph7.4 kmh 29.94 in1013.9 mb - 0.00 in0.0 mm 0.00 in0.0 mm
06:14 AM 32.9°F0.5°C 24.9°F-3.9°C 72% 3.5 mph W5.6 kmh W 5.8 mph9.3 kmh 29.94 in1013.9 mb - 0.00 in0.0 mm 0.00 in0.0 mm
06:15 AM 32.9°F0.5°C 24.9°F-3.9°C 72% 3.5 mph NW5.6 kmh NW 5.8 mph9.3 kmh 29.94 in1013.9 mb - 0.00 in0.0 mm 0.00 in0.0 mm
06:16 AM 32.9°F0.5°C 24.9°F-3.9°C 72% 4.6 mph W7.4 kmh W 3.5 mph5.6 kmh 29.94 in1013.9 mb - 0.00 in0.0 mm 0.00 in0.0 mm
06:17 AM 32.9°F0.5°C 24.9°F-3.9°C 72% 4.6 mph ENE7.4 kmh ENE 6.9 mph11.1 kmh 29.94 in1013.9 mb - 0.00 in0.0 mm 0.00 in0.0 mm
06:18 AM 32.9°F0.5°C 24.9°F-3.9°C 72% 5.8 mph N9.3 kmh N 10.4 mph16.7 kmh 29.94 in1013.9 mb - 0.00 in0.0 mm 0.00 in0.0 mm
06:19 AM 32.9°F0.5°C 24.9°F-3.9°C 72% 8.1 mph NNE13.0 kmh NNE 8.1 mph13.0 kmh 29.94 in1013.9 mb - 0.00 in0.0 mm 0.00 in0.0 mm
06:20 AM 32.9°F0.5°C 24.5°F-4.2°C 71% 5.8 mph NW9.3 kmh NW 6.9 mph11.1 kmh 29.94 in1013.9 mb - 0.00 in0.0 mm 0.00 in0.0 mm
06:21 AM 32.9°F0.5°C 24.5°F-4.2°C 71% 4.6 mph W7.4 kmh W 6.9 mph11.1 kmh 29.94 in1013.9 mb - 0.00 in0.0 mm 0.00 in0.0 mm
06:22 AM 32.9°F0.5°C 24.9°F-3.9°C 72% 4.6 mph NNE7.4 kmh NNE 4.6 mph7.4 kmh 29.94 in1013.9 mb - 0.00 in0.0 mm 0.00 in0.0 mm
06:23 AM 32.9°F0.5°C 24.9°F-3.9°C 72% 4.6 mph NW7.4 kmh NW 6.9 mph11.1 kmh 29.94 in1013.9 mb - 0.00 in0.0 mm 0.00 in0.0 mm
06:24 AM 32.9°F0.5°C 24.9°F-3.9°C 72% 6.9 mph N11.1 kmh N 6.9 mph11.1 kmh 29.94 in1013.9 mb - 0.00 in0.0 mm 0.00 in0.0 mm
06:25 AM 32.9°F0.5°C 24.9°F-3.9°C 72% 5.8 mph WNW9.3 kmh WNW 5.8 mph9.3 kmh 29.95 in1014.2 mb - 0.00 in0.0 mm 0.00 in0.0 mm
06:26 AM 32.9°F0.5°C 24.9°F-3.9°C 72% 3.5 mph NW5.6 kmh NW 3.5 mph5.6 kmh 29.95 in1014.2 mb - 0.00 in0.0 mm 0.00 in0.0 mm
06:27 AM 32.9°F0.5°C 24.9°F-3.9°C 72% 3.5 mph N5.6 kmh N 5.8 mph9.3 kmh 29.95 in1014.2 mb - 0.00 in0.0 mm 0.00 in0.0 mm
06:28 AM 32.9°F0.5°C 24.9°F-3.9°C 72% 3.5 mph NW5.6 kmh NW 4.6 mph7.4 kmh 29.95 in1014.2 mb - 0.00 in0.0 mm 0.00 in0.0 mm
06:29 AM 32.9°F0.5°C 24.9°F-3.9°C 72% 3.5 mph NW5.6 kmh NW 4.6 mph7.4 kmh 29.95 in1014.2 mb - 0.00 in0.0 mm 0.00 in0.0 mm
06:30 AM 32.9°F0.5°C 24.9°F-3.9°C 72% 3.5 mph W5.6 kmh W 4.6 mph7.4 kmh 29.95 in1014.2 mb - 0.00 in0.0 mm 0.00 in0.0 mm
06:31 AM 32.9°F0.5°C 24.9°F-3.9°C 72% 3.5 mph NNW5.6 kmh NNW 4.6 mph7.4 kmh 29.95 in1014.2 mb - 0.00 in0.0 mm 0.00 in0.0 mm
06:32 AM 32.8°F0.4°C 24.8°F-4.0°C 72% 2.3 mph N3.7 kmh N 3.5 mph5.6 kmh 29.95 in1014.2 mb - 0.00 in0.0 mm 0.00 in0.0 mm
06:33 AM 32.7°F0.4°C 25.0°F-3.9°C 73% 2.3 mph WNW3.7 kmh WNW 4.6 mph7.4 kmh 29.95 in1014.2 mb - 0.00 in0.0 mm 0.00 in0.0 mm
06:34 AM 32.7°F0.4°C 25.0°F-3.9°C 73% 3.5 mph NW5.6 kmh NW 4.6 mph7.4 kmh 29.95 in1014.2 mb - 0.00 in0.0 mm 0.00 in0.0 mm
06:35 AM 32.7°F0.4°C 25.0°F-3.9°C 73% 3.5 mph W5.6 kmh W 3.5 mph5.6 kmh 29.95 in1014.2 mb - 0.00 in0.0 mm 0.00 in0.0 mm
06:36 AM 32.7°F0.4°C 25.0°F-3.9°C 73% 3.5 mph NE5.6 kmh NE 4.6 mph7.4 kmh 29.95 in1014.2 mb - 0.00 in0.0 mm 0.00 in0.0 mm
06:37 AM 32.7°F0.4°C 25.0°F-3.9°C 73% 3.5 mph N5.6 kmh N 3.5 mph5.6 kmh 29.95 in1014.2 mb - 0.00 in0.0 mm 0.00 in0.0 mm
06:38 AM 32.7°F0.4°C 25.0°F-3.9°C 73% 2.3 mph W3.7 kmh W 3.5 mph5.6 kmh 29.95 in1014.2 mb - 0.00 in0.0 mm 0.00 in0.0 mm
06:39 AM 32.7°F0.4°C 25.3°F-3.7°C 74% 1.2 mph NW1.9 kmh NW 3.5 mph5.6 kmh 29.95 in1014.2 mb - 0.00 in0.0 mm 0.00 in0.0 mm
06:40 AM 32.7°F0.4°C 25.3°F-3.7°C 74% 3.5 mph NW5.6 kmh NW 4.6 mph7.4 kmh 29.95 in1014.2 mb - 0.00 in0.0 mm 0.00 in0.0 mm
06:41 AM 32.7°F0.4°C 25.3°F-3.7°C 74% 3.5 mph NW5.6 kmh NW 4.6 mph7.4 kmh 29.95 in1014.2 mb - 0.00 in0.0 mm 0.00 in0.0 mm
06:42 AM 32.7°F0.4°C 25.6°F-3.6°C 75% 2.3 mph WNW3.7 kmh WNW 3.5 mph5.6 kmh 29.95 in1014.2 mb - 0.00 in0.0 mm 0.00 in0.0 mm
06:43 AM 32.7°F0.4°C 25.6°F-3.6°C 75% 2.3 mph N3.7 kmh N 4.6 mph7.4 kmh 29.95 in1014.2 mb - 0.00 in0.0 mm 0.00 in0.0 mm
06:44 AM 32.7°F0.4°C 25.6°F-3.6°C 75% 3.5 mph N5.6 kmh N 3.5 mph5.6 kmh 29.95 in1014.2 mb - 0.00 in0.0 mm 0.00 in0.0 mm
06:45 AM 32.7°F0.4°C 25.6°F-3.6°C 75% 2.3 mph N3.7 kmh N 3.5 mph5.6 kmh 29.95 in1014.2 mb - 0.00 in0.0 mm 0.00 in0.0 mm
06:46 AM 32.7°F0.4°C 25.6°F-3.6°C 75% 3.5 mph NW5.6 kmh NW 3.5 mph5.6 kmh 29.95 in1014.2 mb - 0.00 in0.0 mm 0.00 in0.0 mm
06:47 AM 32.7°F0.4°C 25.6°F-3.6°C 75% 3.5 mph N5.6 kmh N 3.5 mph5.6 kmh 29.95 in1014.2 mb - 0.00 in0.0 mm 0.00 in0.0 mm
06:48 AM 32.7°F0.4°C 25.6°F-3.6°C 75% 3.5 mph WNW5.6 kmh WNW 3.5 mph5.6 kmh 29.95 in1014.2 mb - 0.00 in0.0 mm 0.00 in0.0 mm
06:49 AM 32.7°F0.4°C 26.0°F-3.3°C 76% 2.3 mph NW3.7 kmh NW 3.5 mph5.6 kmh 29.95 in1014.2 mb - 0.00 in0.0 mm 0.00 in0.0 mm
06:50 AM 32.6°F0.3°C 25.9°F-3.4°C 76% 3.5 mph NNE5.6 kmh NNE 4.6 mph7.4 kmh 29.95 in1014.2 mb - 0.00 in0.0 mm 0.00 in0.0 mm
06:51 AM 32.5°F0.3°C 25.8°F-3.4°C 76% 3.5 mph N5.6 kmh N 5.8 mph9.3 kmh 29.95 in1014.2 mb - 0.00 in0.0 mm 0.00 in0.0 mm
06:52 AM 32.5°F0.3°C 25.8°F-3.4°C 76% 4.6 mph NW7.4 kmh NW 5.8 mph9.3 kmh 29.95 in1014.2 mb - 0.00 in0.0 mm 0.00 in0.0 mm
06:53 AM 32.5°F0.3°C 25.8°F-3.4°C 76% 3.5 mph NNW5.6 kmh NNW 5.8 mph9.3 kmh 29.95 in1014.2 mb - 0.00 in0.0 mm 0.00 in0.0 mm
06:54 AM 32.5°F0.3°C 25.8°F-3.4°C 76% 3.5 mph N5.6 kmh N 3.5 mph5.6 kmh 29.95 in1014.2 mb - 0.00 in0.0 mm 0.00 in0.0 mm
06:55 AM 32.5°F0.3°C 25.8°F-3.4°C 76% 3.5 mph WNW5.6 kmh WNW 5.8 mph9.3 kmh 29.95 in1014.2 mb - 0.00 in0.0 mm 0.00 in0.0 mm
06:56 AM 32.5°F0.3°C 25.8°F-3.4°C 76% 3.5 mph NNW5.6 kmh NNW 3.5 mph5.6 kmh 29.95 in1014.2 mb - 0.00 in0.0 mm 0.00 in0.0 mm
06:57 AM 32.5°F0.3°C 25.8°F-3.4°C 76% 3.5 mph N5.6 kmh N 3.5 mph5.6 kmh 29.95 in1014.2 mb - 0.00 in0.0 mm 0.00 in0.0 mm
06:58 AM 32.5°F0.3°C 25.8°F-3.4°C 76% 2.3 mph N3.7 kmh N 3.5 mph5.6 kmh 29.95 in1014.2 mb - 0.00 in0.0 mm 0.00 in0.0 mm
06:59 AM 32.5°F0.3°C 25.8°F-3.4°C 76% 3.5 mph ENE5.6 kmh ENE 3.5 mph5.6 kmh 29.95 in1014.2 mb - 0.00 in0.0 mm 0.00 in0.0 mm
07:00 AM 32.5°F0.3°C 25.8°F-3.4°C 76% 2.3 mph WNW3.7 kmh WNW 2.3 mph3.7 kmh 29.95 in1014.2 mb - 0.00 in0.0 mm 0.00 in0.0 mm
07:01 AM 32.5°F0.3°C 25.8°F-3.4°C 76% 2.3 mph N3.7 kmh N 2.3 mph3.7 kmh 29.95 in1014.2 mb - 0.00 in0.0 mm 0.00 in0.0 mm
07:02 AM 32.5°F0.3°C 25.8°F-3.4°C 76% 2.3 mph NW3.7 kmh NW 3.5 mph5.6 kmh 29.96 in1014.6 mb - 0.00 in0.0 mm 0.00 in0.0 mm
07:03 AM 32.5°F0.3°C 25.8°F-3.4°C 76% 2.3 mph N3.7 kmh N 2.3 mph3.7 kmh 29.96 in1014.6 mb - 0.00 in0.0 mm 0.00 in0.0 mm
07:04 AM 32.5°F0.3°C 25.8°F-3.4°C 76% 2.3 mph NNW3.7 kmh NNW 3.5 mph5.6 kmh 29.96 in1014.6 mb - 0.00 in0.0 mm 0.00 in0.0 mm
07:05 AM 32.5°F0.3°C 25.8°F-3.4°C 76% 3.5 mph NW5.6 kmh NW 5.8 mph9.3 kmh 29.96 in1014.6 mb - 0.00 in0.0 mm 0.00 in0.0 mm
07:06 AM 32.5°F0.3°C 25.8°F-3.4°C 76% 3.5 mph NNE5.6 kmh NNE 3.5 mph5.6 kmh 29.96 in1014.6 mb - 0.00 in0.0 mm 0.00 in0.0 mm
07:07 AM 32.5°F0.3°C 25.8°F-3.4°C 76% 2.3 mph N3.7 kmh N 2.3 mph3.7 kmh 29.96 in1014.6 mb - 0.00 in0.0 mm 0.00 in0.0 mm
07:08 AM 32.5°F0.3°C 25.8°F-3.4°C 76% 2.3 mph NW3.7 kmh NW 3.5 mph5.6 kmh 29.96 in1014.6 mb - 0.00 in0.0 mm 0.00 in0.0 mm
07:09 AM 32.5°F0.3°C 25.8°F-3.4°C 76% 3.5 mph N5.6 kmh N 4.6 mph7.4 kmh 29.96 in1014.6 mb - 0.00 in0.0 mm 0.00 in0.0 mm
07:10 AM 32.5°F0.3°C 25.8°F-3.4°C 76% 3.5 mph N5.6 kmh N 4.6 mph7.4 kmh 29.96 in1014.6 mb - 0.00 in0.0 mm 0.00 in0.0 mm
07:11 AM 32.5°F0.3°C 26.1°F-3.3°C 77% 2.3 mph NNW3.7 kmh NNW 2.3 mph3.7 kmh 29.96 in1014.6 mb - 0.00 in0.0 mm 0.00 in0.0 mm
07:12 AM 32.5°F0.3°C 26.1°F-3.3°C 77% 2.3 mph NW3.7 kmh NW 3.5 mph5.6 kmh 29.96 in1014.6 mb - 0.00 in0.0 mm 0.00 in0.0 mm
07:13 AM 32.5°F0.3°C 26.1°F-3.3°C 77% 2.3 mph NW3.7 kmh NW 2.3 mph3.7 kmh 29.96 in1014.6 mb - 0.00 in0.0 mm 0.00 in0.0 mm
07:14 AM 32.5°F0.3°C 26.1°F-3.3°C 77% 2.3 mph NW3.7 kmh NW 3.5 mph5.6 kmh 29.95 in1014.2 mb - 0.00 in0.0 mm 0.00 in0.0 mm
07:15 AM 32.5°F0.3°C 26.1°F-3.3°C 77% 3.5 mph NNE5.6 kmh NNE 4.6 mph7.4 kmh 29.95 in1014.2 mb - 0.00 in0.0 mm 0.00 in0.0 mm
07:16 AM 32.5°F0.3°C 26.1°F-3.3°C 77% 3.5 mph WNW5.6 kmh WNW 5.8 mph9.3 kmh 29.95 in1014.2 mb - 0.00 in0.0 mm 0.00 in0.0 mm
07:17 AM 32.5°F0.3°C 26.1°F-3.3°C 77% 4.6 mph N7.4 kmh N 5.8 mph9.3 kmh 29.95 in1014.2 mb - 0.00 in0.0 mm 0.00 in0.0 mm
07:18 AM 32.5°F0.3°C 26.1°F-3.3°C 77% 4.6 mph N7.4 kmh N 4.6 mph7.4 kmh 29.95 in1014.2 mb - 0.00 in0.0 mm 0.00 in0.0 mm
07:19 AM 32.5°F0.3°C 25.8°F-3.4°C 76% 4.6 mph N7.4 kmh N 5.8 mph9.3 kmh 29.95 in1014.2 mb - 0.00 in0.0 mm 0.00 in0.0 mm
07:20 AM 32.7°F0.4°C 26.0°F-3.3°C 76% 3.5 mph NW5.6 kmh NW 3.5 mph5.6 kmh 29.95 in1014.2 mb - 0.00 in0.0 mm 0.00 in0.0 mm
07:21 AM 32.7°F0.4°C 26.0°F-3.3°C 76% 3.5 mph NW5.6 kmh NW 5.8 mph9.3 kmh 29.95 in1014.2 mb - 0.00 in0.0 mm 0.00 in0.0 mm
07:22 AM 32.7°F0.4°C 26.0°F-3.3°C 76% 3.5 mph NW5.6 kmh NW 3.5 mph5.6 kmh 29.95 in1014.2 mb - 0.00 in0.0 mm 0.00 in0.0 mm
07:23 AM 32.7°F0.4°C 26.0°F-3.3°C 76% 3.5 mph NW5.6 kmh NW 3.5 mph5.6 kmh 29.95 in1014.2 mb - 0.00 in0.0 mm 0.00 in0.0 mm
07:24 AM 32.7°F0.4°C 26.0°F-3.3°C 76% 3.5 mph NW5.6 kmh NW 4.6 mph7.4 kmh 29.95 in1014.2 mb - 0.00 in0.0 mm 0.00 in0.0 mm
07:25 AM 32.7°F0.4°C 26.0°F-3.3°C 76% 4.6 mph NW7.4 kmh NW 5.8 mph9.3 kmh 29.96 in1014.6 mb - 0.00 in0.0 mm 0.00 in0.0 mm
07:26 AM 32.7°F0.4°C 26.3°F-3.2°C 77% 4.6 mph N7.4 kmh N 6.9 mph11.1 kmh 29.96 in1014.6 mb - 0.00 in0.0 mm 0.00 in0.0 mm
07:27 AM 32.7°F0.4°C 26.3°F-3.2°C 77% 4.6 mph N7.4 kmh N 5.8 mph9.3 kmh 29.96 in1014.6 mb - 0.00 in0.0 mm 0.00 in0.0 mm
07:28 AM 32.7°F0.4°C 26.0°F-3.3°C 76% 5.8 mph N9.3 kmh N 8.1 mph13.0 kmh 29.96 in1014.6 mb - 0.00 in0.0 mm 0.00 in0.0 mm
07:29 AM 32.7°F0.4°C 26.0°F-3.3°C 76% 5.8 mph N9.3 kmh N 5.8 mph9.3 kmh 29.96 in1014.6 mb - 0.00 in0.0 mm 0.00 in0.0 mm
07:30 AM 32.7°F0.4°C 26.3°F-3.2°C 77% 3.5 mph WNW5.6 kmh WNW 3.5 mph5.6 kmh 29.96 in1014.6 mb - 0.00 in0.0 mm 0.00 in0.0 mm
07:31 AM 32.7°F0.4°C 26.6°F-3.0°C 78% 4.6 mph N7.4 kmh N 8.1 mph13.0 kmh 29.96 in1014.6 mb - 0.00 in0.0 mm 0.00 in0.0 mm
07:32 AM 32.7°F0.4°C 26.3°F-3.2°C 77% 8.1 mph NNE13.0 kmh NNE 6.9 mph11.1 kmh 29.96 in1014.6 mb - 0.00 in0.0 mm 0.00 in0.0 mm
07:33 AM 32.7°F0.4°C 26.3°F-3.2°C 77% 4.6 mph NNE7.4 kmh NNE 3.5 mph5.6 kmh 29.96 in1014.6 mb - 0.00 in0.0 mm 0.00 in0.0 mm
07:34 AM 32.7°F0.4°C 26.3°F-3.2°C 77% 3.5 mph N5.6 kmh N 5.8 mph9.3 kmh 29.96 in1014.6 mb - 0.00 in0.0 mm 0.00 in0.0 mm
07:35 AM 32.7°F0.4°C 26.3°F-3.2°C 77% 4.6 mph NNW7.4 kmh NNW 9.2 mph14.8 kmh 29.96 in1014.6 mb - 0.00 in0.0 mm 0.00 in0.0 mm
07:36 AM 32.7°F0.4°C 26.0°F-3.3°C 76% 5.8 mph NNE9.3 kmh NNE 8.1 mph13.0 kmh 29.96 in1014.6 mb - 0.00 in0.0 mm 0.00 in0.0 mm
07:37 AM 32.7°F0.4°C 26.0°F-3.3°C 76% 5.8 mph N9.3 kmh N 8.1 mph13.0 kmh 29.96 in1014.6 mb - 0.00 in0.0 mm 0.00 in0.0 mm
07:38 AM 32.7°F0.4°C 26.0°F-3.3°C 76% 4.6 mph NE7.4 kmh NE 5.8 mph9.3 kmh 29.95 in1014.2 mb - 0.00 in0.0 mm 0.00 in0.0 mm
07:39 AM 32.7°F0.4°C 26.0°F-3.3°C 76% 4.6 mph N7.4 kmh N 5.8 mph9.3 kmh 29.95 in1014.2 mb - 0.00 in0.0 mm 0.00 in0.0 mm
07:40 AM 32.7°F0.4°C 26.0°F-3.3°C 76% 4.6 mph NNE7.4 kmh NNE 4.6 mph7.4 kmh 29.95 in1014.2 mb - 0.00 in0.0 mm 0.00 in0.0 mm
07:41 AM 32.7°F0.4°C 26.3°F-3.2°C 77% 3.5 mph NNE5.6 kmh NNE 4.6 mph7.4 kmh 29.95 in1014.2 mb - 0.00 in0.0 mm 0.00 in0.0 mm
07:42 AM 32.5°F0.3°C 26.1°F-3.3°C 77% 3.5 mph NNE5.6 kmh NNE 4.6 mph7.4 kmh 29.95 in1014.2 mb - 0.00 in0.0 mm 0.00 in0.0 mm
07:43 AM 32.5°F0.3°C 26.1°F-3.3°C 77% 4.6 mph N7.4 kmh N 5.8 mph9.3 kmh 29.95 in1014.2 mb - 0.00 in0.0 mm 0.00 in0.0 mm
07:44 AM 32.5°F0.3°C 26.1°F-3.3°C 77% 4.6 mph N7.4 kmh N 4.6 mph7.4 kmh 29.95 in1014.2 mb - 0.00 in0.0 mm 0.00 in0.0 mm
07:45 AM 32.5°F0.3°C 26.1°F-3.3°C 77% 3.5 mph WNW5.6 kmh WNW 3.5 mph5.6 kmh 29.95 in1014.2 mb - 0.00 in0.0 mm 0.00 in0.0 mm
07:46 AM 32.5°F0.3°C 26.1°F-3.3°C 77% 2.3 mph WNW3.7 kmh WNW 2.3 mph3.7 kmh 29.95 in1014.2 mb - 0.00 in0.0 mm 0.00 in0.0 mm
07:47 AM 32.5°F0.3°C 26.1°F-3.3°C 77% 3.5 mph N5.6 kmh N 5.8 mph9.3 kmh 29.95 in1014.2 mb - 0.00 in0.0 mm 0.00 in0.0 mm
07:48 AM 32.5°F0.3°C 26.1°F-3.3°C 77% 3.5 mph N5.6 kmh N 5.8 mph9.3 kmh 29.95 in1014.2 mb - 0.00 in0.0 mm 0.00 in0.0 mm
07:49 AM 32.5°F0.3°C 25.8°F-3.4°C 76% 4.6 mph NNE7.4 kmh NNE 4.6 mph7.4 kmh 29.95 in1014.2 mb - 0.00 in0.0 mm 0.00 in0.0 mm
07:50 AM 32.5°F0.3°C 25.8°F-3.4°C 76% 4.6 mph NE7.4 kmh NE 5.8 mph9.3 kmh 29.95 in1014.2 mb - 0.00 in0.0 mm 0.00 in0.0 mm
07:51 AM 32.5°F0.3°C 25.8°F-3.4°C 76% 5.8 mph N9.3 kmh N 5.8 mph9.3 kmh 29.95 in1014.2 mb - 0.00 in0.0 mm 0.00 in0.0 mm
07:52 AM 32.5°F0.3°C 25.7°F-3.5°C 76% 5.8 mph N9.3 kmh N 10.4 mph16.7 kmh 29.95 in1014.2 mb - 0.00 in0.0 mm 0.00 in0.0 mm
07:53 AM 32.4°F0.2°C 25.0°F-3.9°C 74% 6.9 mph N11.1 kmh N 6.9 mph11.1 kmh 29.95 in1014.2 mb - 0.00 in0.0 mm 0.00 in0.0 mm
07:54 AM 32.4°F0.2°C 25.0°F-3.9°C 74% 5.8 mph N9.3 kmh N 5.8 mph9.3 kmh 29.95 in1014.2 mb - 0.00 in0.0 mm 0.00 in0.0 mm
07:55 AM 32.4°F0.2°C 25.0°F-3.9°C 74% 3.5 mph NE5.6 kmh NE 3.5 mph5.6 kmh 29.95 in1014.2 mb - 0.00 in0.0 mm 0.00 in0.0 mm
07:56 AM 32.4°F0.2°C 25.0°F-3.9°C 74% 3.5 mph NW5.6 kmh NW 4.6 mph7.4 kmh 29.95 in1014.2 mb - 0.00 in0.0 mm 0.00 in0.0 mm
07:57 AM 32.4°F0.2°C 24.7°F-4.1°C 73% 3.5 mph NE5.6 kmh NE 6.9 mph11.1 kmh 29.95 in1014.2 mb - 0.00 in0.0 mm 0.00 in0.0 mm
07:58 AM 32.4°F0.2°C 24.4°F-4.2°C 72% 5.8 mph NNE9.3 kmh NNE 6.9 mph11.1 kmh 29.95 in1014.2 mb - 0.00 in0.0 mm 0.00 in0.0 mm
07:59 AM 32.4°F0.2°C 24.0°F-4.4°C 71% 6.9 mph NE11.1 kmh NE 11.5 mph18.5 kmh 29.95 in1014.2 mb - 0.00 in0.0 mm 0.00 in0.0 mm
08:00 AM 32.4°F0.2°C 23.7°F-4.6°C 70% 9.2 mph NE14.8 kmh NE 10.4 mph16.7 kmh 29.95 in1014.2 mb - 0.00 in0.0 mm 0.00 in0.0 mm
08:01 AM 32.4°F0.2°C 23.7°F-4.6°C 70% 5.8 mph NNE9.3 kmh NNE 6.9 mph11.1 kmh 29.95 in1014.2 mb - 0.00 in0.0 mm 0.00 in0.0 mm
08:02 AM 32.4°F0.2°C 23.7°F-4.6°C 70% 4.6 mph NNW7.4 kmh NNW 4.6 mph7.4 kmh 29.95 in1014.2 mb - 0.00 in0.0 mm 0.00 in0.0 mm
08:03 AM 32.4°F0.2°C 23.7°F-4.6°C 70% 3.5 mph N5.6 kmh N 4.6 mph7.4 kmh 29.95 in1014.2 mb - 0.00 in0.0 mm 0.00 in0.0 mm
08:04 AM 32.4°F0.2°C 23.7°F-4.6°C 70% 1.2 mph NNE1.9 kmh NNE 4.6 mph7.4 kmh 29.95 in1014.2 mb - 0.00 in0.0 mm 0.00 in0.0 mm
08:05 AM 32.4°F0.2°C 23.7°F-4.6°C 70% 3.5 mph NNE5.6 kmh NNE 5.8 mph9.3 kmh 29.95 in1014.2 mb - 0.00 in0.0 mm 0.00 in0.0 mm
08:06 AM 32.4°F0.2°C 23.7°F-4.6°C 70% 3.5 mph NNW5.6 kmh NNW 3.5 mph5.6 kmh 29.95 in1014.2 mb - 0.00 in0.0 mm 0.00 in0.0 mm
08:07 AM 32.4°F0.2°C 23.7°F-4.6°C 70% 2.3 mph NW3.7 kmh NW 3.5 mph5.6 kmh 29.95 in1014.2 mb - 0.00 in0.0 mm 0.00 in0.0 mm
08:08 AM 32.4°F0.2°C 23.7°F-4.6°C 70% 3.5 mph NNE5.6 kmh NNE 5.8 mph9.3 kmh 29.95 in1014.2 mb - 0.00 in0.0 mm 0.00 in0.0 mm
08:09 AM 32.4°F0.2°C 24.0°F-4.4°C 71% 3.5 mph N5.6 kmh N 5.8 mph9.3 kmh 29.95 in1014.2 mb - 0.00 in0.0 mm 0.00 in0.0 mm
08:10 AM 32.4°F0.2°C 24.0°F-4.4°C 71% 2.3 mph N3.7 kmh N 3.5 mph5.6 kmh 29.95 in1014.2 mb - 0.00 in0.0 mm 0.00 in0.0 mm
08:11 AM 32.4°F0.2°C 24.0°F-4.4°C 71% 3.5 mph NE5.6 kmh NE 6.9 mph11.1 kmh 29.95 in1014.2 mb - 0.00 in0.0 mm 0.00 in0.0 mm
08:12 AM 32.4°F0.2°C 24.0°F-4.4°C 71% 4.6 mph N7.4 kmh N 3.5 mph5.6 kmh 29.95 in1014.2 mb - 0.00 in0.0 mm 0.00 in0.0 mm
08:13 AM 32.4°F0.2°C 24.0°F-4.4°C 71% 3.5 mph N5.6 kmh N 3.5 mph5.6 kmh 29.95 in1014.2 mb - 0.00 in0.0 mm 0.00 in0.0 mm
08:14 AM 32.4°F0.2°C 24.0°F-4.4°C 71% 3.5 mph NNW5.6 kmh NNW 3.5 mph5.6 kmh 29.95 in1014.2 mb - 0.00 in0.0 mm 0.00 in0.0 mm
08:15 AM 32.4°F0.2°C 24.0°F-4.4°C 71% 3.5 mph NNW5.6 kmh NNW 3.5 mph5.6 kmh 29.95 in1014.2 mb - 0.00 in0.0 mm 0.00 in0.0 mm
08:16 AM 32.4°F0.2°C 24.0°F-4.4°C 71% 2.3 mph NNW3.7 kmh NNW 3.5 mph5.6 kmh 29.95 in1014.2 mb - 0.00 in0.0 mm 0.00 in0.0 mm
08:17 AM 32.4°F0.2°C 24.0°F-4.4°C 71% 2.3 mph NNW3.7 kmh NNW 2.3 mph3.7 kmh 29.95 in1014.2 mb - 0.00 in0.0 mm 0.00 in0.0 mm
08:18 AM 32.4°F0.2°C 24.0°F-4.4°C 71% 2.3 mph WNW3.7 kmh WNW 3.5 mph5.6 kmh 29.95 in1014.2 mb - 0.00 in0.0 mm 0.00 in0.0 mm
08:19 AM 32.4°F0.2°C 24.0°F-4.4°C 71% 3.5 mph N5.6 kmh N 4.6 mph7.4 kmh 29.95 in1014.2 mb - 0.00 in0.0 mm 0.00 in0.0 mm
08:20 AM 32.4°F0.2°C 24.0°F-4.4°C 71% 3.5 mph NNW5.6 kmh NNW 5.8 mph9.3 kmh 29.95 in1014.2 mb - 0.00 in0.0 mm 0.00 in0.0 mm
08:21 AM 32.4°F0.2°C 23.7°F-4.6°C 70% 5.8 mph NNE9.3 kmh NNE 6.9 mph11.1 kmh 29.95 in1014.2 mb - 0.00 in0.0 mm 0.00 in0.0 mm
08:22 AM 32.5°F0.3°C 23.5°F-4.7°C 69% 5.8 mph N9.3 kmh N 9.2 mph14.8 kmh 29.95 in1014.2 mb - 0.00 in0.0 mm 0.00 in0.0 mm
08:23 AM 32.5°F0.3°C 23.5°F-4.7°C 69% 5.8 mph NE9.3 kmh NE 5.8 mph9.3 kmh 29.95 in1014.2 mb - 0.00 in0.0 mm 0.00 in0.0 mm
08:24 AM 32.5°F0.3°C 23.5°F-4.7°C 69% 5.8 mph NNW9.3 kmh NNW 8.1 mph13.0 kmh 29.95 in1014.2 mb - 0.00 in0.0 mm 0.00 in0.0 mm
08:25 AM 32.7°F0.4°C 23.6°F-4.7°C 69% 5.8 mph NNW9.3 kmh NNW 8.1 mph13.0 kmh 29.95 in1014.2 mb - 0.00 in0.0 mm 0.00 in0.0 mm
08:26 AM 32.7°F0.4°C 23.6°F-4.7°C 69% 4.6 mph NNW7.4 kmh NNW 6.9 mph11.1 kmh 29.95 in1014.2 mb - 0.00 in0.0 mm 0.00 in0.0 mm
08:27 AM 32.7°F0.4°C 23.3°F-4.8°C 68% 5.8 mph N9.3 kmh N 9.2 mph14.8 kmh 29.95 in1014.2 mb - 0.00 in0.0 mm 0.00 in0.0 mm
08:28 AM 32.9°F0.5°C 23.1°F-4.9°C 67% 6.9 mph N11.1 kmh N 9.2 mph14.8 kmh 29.95 in1014.2 mb - 0.00 in0.0 mm 0.00 in0.0 mm
08:29 AM 32.9°F0.5°C 23.1°F-4.9°C 67% 5.8 mph N9.3 kmh N 6.9 mph11.1 kmh 29.95 in1014.2 mb - 0.00 in0.0 mm 0.00 in0.0 mm
08:30 AM 32.9°F0.5°C 23.1°F-4.9°C 67% 6.9 mph N11.1 kmh N 6.9 mph11.1 kmh 29.95 in1014.2 mb - 0.00 in0.0 mm 0.00 in0.0 mm
08:31 AM 32.9°F0.5°C 23.2°F-4.9°C 67% 5.8 mph WNW9.3 kmh WNW 6.9 mph11.1 kmh 29.95 in1014.2 mb - 0.00 in0.0 mm 0.00 in0.0 mm
08:32 AM 33.1°F0.6°C 22.6°F-5.2°C 65% 5.8 mph NW9.3 kmh NW 6.9 mph11.1 kmh 29.95 in1014.2 mb - 0.00 in0.0 mm 0.00 in0.0 mm
08:33 AM 33.1°F0.6°C 22.6°F-5.2°C 65% 3.5 mph N5.6 kmh N 5.8 mph9.3 kmh 29.95 in1014.2 mb - 0.00 in0.0 mm 0.00 in0.0 mm
08:34 AM 33.1°F0.6°C 23.0°F-5.0°C 66% 3.5 mph N5.6 kmh N 4.6 mph7.4 kmh 29.95 in1014.2 mb - 0.00 in0.0 mm 0.00 in0.0 mm
08:35 AM 33.1°F0.6°C 23.0°F-5.0°C 66% 3.5 mph NW5.6 kmh NW 4.6 mph7.4 kmh 29.95 in1014.2 mb - 0.00 in0.0 mm 0.00 in0.0 mm
08:36 AM 33.1°F0.6°C 23.0°F-5.0°C 66% 3.5 mph WNW5.6 kmh WNW 4.6 mph7.4 kmh 29.95 in1014.2 mb - 0.00 in0.0 mm 0.00 in0.0 mm
08:37 AM 33.1°F0.6°C 23.0°F-5.0°C 66% 4.6 mph WNW7.4 kmh WNW 5.8 mph9.3 kmh 29.95 in1014.2 mb - 0.00 in0.0 mm 0.00 in0.0 mm
08:38 AM 33.1°F0.6°C 22.6°F-5.2°C 65% 5.8 mph N9.3 kmh N 6.9 mph11.1 kmh 29.96 in1014.6 mb - 0.00 in0.0 mm 0.00 in0.0 mm
08:39 AM 33.2°F0.7°C 22.3°F-5.4°C 64% 5.8 mph N9.3 kmh N 5.8 mph9.3 kmh 29.96 in1014.6 mb - 0.00 in0.0 mm 0.00 in0.0 mm
08:40 AM 33.3°F0.7°C 22.8°F-5.1°C 65% 4.6 mph NNE7.4 kmh NNE 5.8 mph9.3 kmh 29.96 in1014.6 mb - 0.00 in0.0 mm 0.00 in0.0 mm
08:41 AM 33.3°F0.7°C 22.8°F-5.1°C 65% 5.8 mph N9.3 kmh N 8.1 mph13.0 kmh 29.96 in1014.6 mb - 0.00 in0.0 mm 0.00 in0.0 mm
08:42 AM 33.3°F0.7°C 22.8°F-5.1°C 65% 5.8 mph WNW9.3 kmh WNW 4.6 mph7.4 kmh 29.96 in1014.6 mb - 0.00 in0.0 mm 0.00 in0.0 mm
08:43 AM 33.3°F0.7°C 22.8°F-5.1°C 65% 3.5 mph NNE5.6 kmh NNE 4.6 mph7.4 kmh 29.96 in1014.6 mb - 0.00 in0.0 mm 0.00 in0.0 mm
08:44 AM 33.3°F0.7°C 23.2°F-4.9°C 66% 2.3 mph N3.7 kmh N 3.5 mph5.6 kmh 29.96 in1014.6 mb - 0.00 in0.0 mm 0.00 in0.0 mm
08:45 AM 33.4°F0.8°C 23.3°F-4.8°C 66% 3.5 mph NNE5.6 kmh NNE 5.8 mph9.3 kmh 29.96 in1014.6 mb - 0.00 in0.0 mm 0.00 in0.0 mm
08:46 AM 33.4°F0.8°C 22.9°F-5.1°C 65% 5.8 mph N9.3 kmh N 6.9 mph11.1 kmh 29.96 in1014.6 mb - 0.00 in0.0 mm 0.00 in0.0 mm
08:47 AM 33.5°F0.8°C 23.0°F-5.0°C 65% 4.6 mph NNW7.4 kmh NNW 4.6 mph7.4 kmh 29.96 in1014.6 mb - 0.00 in0.0 mm 0.00 in0.0 mm
08:48 AM 33.6°F0.9°C 23.1°F-4.9°C 65% 3.5 mph N5.6 kmh N 4.6 mph7.4 kmh 29.96 in1014.6 mb - 0.00 in0.0 mm 0.00 in0.0 mm
08:49 AM 33.6°F0.9°C 23.1°F-4.9°C 65% 4.6 mph ESE7.4 kmh ESE 4.6 mph7.4 kmh 29.96 in1014.6 mb - 0.00 in0.0 mm 0.00 in0.0 mm
08:50 AM 33.6°F0.9°C 22.7°F-5.2°C 64% 4.6 mph NNE7.4 kmh NNE 5.8 mph9.3 kmh 29.96 in1014.6 mb - 0.00 in0.0 mm 0.00 in0.0 mm
08:51 AM 33.7°F0.9°C 22.8°F-5.1°C 64% 4.6 mph W7.4 kmh W 5.8 mph9.3 kmh 29.96 in1014.6 mb - 0.00 in0.0 mm 0.00 in0.0 mm
08:52 AM 33.8°F1.0°C 22.9°F-5.1°C 64% 2.3 mph WSW3.7 kmh WSW 8.1 mph13.0 kmh 29.96 in1014.6 mb - 0.00 in0.0 mm 0.00 in0.0 mm
08:53 AM 33.8°F1.0°C 22.9°F-5.1°C 64% 6.9 mph E11.1 kmh E 11.5 mph18.5 kmh 29.96 in1014.6 mb - 0.00 in0.0 mm 0.00 in0.0 mm
08:54 AM 33.8°F1.0°C 22.9°F-5.1°C 64% 9.2 mph N14.8 kmh N 10.4 mph16.7 kmh 29.96 in1014.6 mb - 0.00 in0.0 mm 0.00 in0.0 mm
08:55 AM 33.8°F1.0°C 22.1°F-5.5°C 62% 9.2 mph NE14.8 kmh NE 10.4 mph16.7 kmh 29.96 in1014.6 mb - 0.00 in0.0 mm 0.00 in0.0 mm
08:56 AM 33.9°F1.1°C 22.6°F-5.2°C 63% 6.9 mph NNE11.1 kmh NNE 6.9 mph11.1 kmh 29.96 in1014.6 mb - 0.00 in0.0 mm 0.00 in0.0 mm
08:57 AM 34.0°F1.1°C 22.7°F-5.2°C 63% 5.8 mph N9.3 kmh N 5.8 mph9.3 kmh 29.96 in1014.6 mb - 0.00 in0.0 mm 0.00 in0.0 mm
08:58 AM 34.0°F1.1°C 22.7°F-5.2°C 63% 5.8 mph N9.3 kmh N 8.1 mph13.0 kmh 29.96 in1014.6 mb - 0.00 in0.0 mm 0.00 in0.0 mm
08:59 AM 34.0°F1.1°C 23.1°F-4.9°C 64% 5.8 mph NW9.3 kmh NW 5.8 mph9.3 kmh 29.96 in1014.6 mb - 0.00 in0.0 mm 0.00 in0.0 mm
09:00 AM 34.0°F1.1°C 23.1°F-4.9°C 64% 4.6 mph W7.4 kmh W 4.6 mph7.4 kmh 29.96 in1014.6 mb - 0.00 in0.0 mm 0.00 in0.0 mm
09:01 AM 34.2°F1.2°C 23.3°F-4.8°C 64% 4.6 mph NNW7.4 kmh NNW 4.6 mph7.4 kmh 29.96 in1014.6 mb - 0.00 in0.0 mm 0.00 in0.0 mm
09:02 AM 34.2°F1.2°C 23.3°F-4.8°C 64% 4.6 mph NNE7.4 kmh NNE 5.8 mph9.3 kmh 29.96 in1014.6 mb - 0.00 in0.0 mm 0.00 in0.0 mm
09:03 AM 34.2°F1.2°C 23.3°F-4.8°C 64% 4.6 mph N7.4 kmh N 3.5 mph5.6 kmh 29.96 in1014.6 mb - 0.00 in0.0 mm 0.00 in0.0 mm
09:04 AM 34.2°F1.2°C 23.3°F-4.8°C 64% 3.5 mph NNW5.6 kmh NNW 6.9 mph11.1 kmh 29.96 in1014.6 mb - 0.00 in0.0 mm 0.00 in0.0 mm
09:05 AM 34.2°F1.2°C 22.9°F-5.1°C 63% 6.9 mph E11.1 kmh E 9.2 mph14.8 kmh 29.96 in1014.6 mb - 0.00 in0.0 mm 0.00 in0.0 mm
09:06 AM 34.2°F1.2°C 22.9°F-5.1°C 63% 6.9 mph NE11.1 kmh NE 6.9 mph11.1 kmh 29.96 in1014.6 mb - 0.00 in0.0 mm 0.00 in0.0 mm
09:07 AM 34.2°F1.2°C 22.9°F-5.1°C 63% 5.8 mph N9.3 kmh N 5.8 mph9.3 kmh 29.96 in1014.6 mb - 0.00 in0.0 mm 0.00 in0.0 mm
09:08 AM 34.2°F1.2°C 22.9°F-5.1°C 63% 4.6 mph N7.4 kmh N 5.8 mph9.3 kmh 29.96 in1014.6 mb - 0.00 in0.0 mm 0.00 in0.0 mm
09:09 AM 34.2°F1.2°C 22.9°F-5.1°C 63% 4.6 mph NNE7.4 kmh NNE 5.8 mph9.3 kmh 29.96 in1014.6 mb - 0.00 in0.0 mm 0.00 in0.0 mm
09:10 AM 34.3°F1.3°C 23.0°F-5.0°C 63% 3.5 mph NE5.6 kmh NE 4.6 mph7.4 kmh 29.96 in1014.6 mb - 0.00 in0.0 mm 0.00 in0.0 mm
09:11 AM 34.3°F1.3°C 23.0°F-5.0°C 63% 4.6 mph N7.4 kmh N 4.6 mph7.4 kmh 29.96 in1014.6 mb - 0.00 in0.0 mm 0.00 in0.0 mm
09:12 AM 34.3°F1.3°C 23.0°F-5.0°C 63% 4.6 mph NE7.4 kmh NE 6.9 mph11.1 kmh 29.96 in1014.6 mb - 0.00 in0.0 mm 0.00 in0.0 mm
09:13 AM 34.3°F1.3°C 23.0°F-5.0°C 63% 5.8 mph NNE9.3 kmh NNE 5.8 mph9.3 kmh 29.96 in1014.6 mb - 0.00 in0.0 mm 0.00 in0.0 mm
09:14 AM 34.3°F1.3°C 23.0°F-5.0°C 63% 4.6 mph N7.4 kmh N 4.6 mph7.4 kmh 29.97 in1014.9 mb - 0.00 in0.0 mm 0.00 in0.0 mm
09:15 AM 34.5°F1.4°C 23.2°F-4.9°C 63% 3.5 mph WNW5.6 kmh WNW 3.5 mph5.6 kmh 29.97 in1014.9 mb - 0.00 in0.0 mm 0.00 in0.0 mm
09:16 AM 34.5°F1.4°C 23.2°F-4.9°C 63% 3.5 mph NW5.6 kmh NW 5.8 mph9.3 kmh 29.97 in1014.9 mb - 0.00 in0.0 mm 0.00 in0.0 mm
09:17 AM 34.5°F1.4°C 22.8°F-5.1°C 62% 4.6 mph N7.4 kmh N 5.8 mph9.3 kmh 29.97 in1014.9 mb - 0.00 in0.0 mm 0.00 in0.0 mm
09:18 AM 34.5°F1.4°C 22.4°F-5.3°C 61% 4.6 mph NE7.4 kmh NE 5.8 mph9.3 kmh 29.97 in1014.9 mb - 0.00 in0.0 mm 0.00 in0.0 mm
09:19 AM 34.5°F1.4°C 22.8°F-5.1°C 62% 3.5 mph SW5.6 kmh SW 4.6 mph7.4 kmh 29.97 in1014.9 mb - 0.00 in0.0 mm 0.00 in0.0 mm
09:20 AM 34.5°F1.4°C 22.4°F-5.3°C 61% 3.5 mph N5.6 kmh N 3.5 mph5.6 kmh 29.97 in1014.9 mb - 0.00 in0.0 mm 0.00 in0.0 mm
09:21 AM 34.6°F1.4°C 22.9°F-5.1°C 62% 3.5 mph NNW5.6 kmh NNW 4.6 mph7.4 kmh 29.97 in1014.9 mb - 0.00 in0.0 mm 0.00 in0.0 mm
09:22 AM 34.7°F1.5°C 23.0°F-5.0°C 62% 3.5 mph N5.6 kmh N 4.6 mph7.4 kmh 29.97 in1014.9 mb - 0.00 in0.0 mm 0.00 in0.0 mm
09:23 AM 34.7°F1.5°C 23.0°F-5.0°C 62% 3.5 mph NW5.6 kmh NW 4.6 mph7.4 kmh 29.97 in1014.9 mb - 0.00 in0.0 mm 0.00 in0.0 mm
09:24 AM 34.7°F1.5°C 22.6°F-5.2°C 61% 3.5 mph WSW5.6 kmh WSW 4.6 mph7.4 kmh 29.97 in1014.9 mb - 0.00 in0.0 mm 0.00 in0.0 mm
09:25 AM 34.7°F1.5°C 22.6°F-5.2°C 61% 2.3 mph N3.7 kmh N 2.3 mph3.7 kmh 29.97 in1014.9 mb - 0.00 in0.0 mm 0.00 in0.0 mm
09:26 AM 34.7°F1.5°C 23.0°F-5.0°C 62% 2.3 mph N3.7 kmh N 4.6 mph7.4 kmh 29.98 in1015.2 mb - 0.00 in0.0 mm 0.00 in0.0 mm
09:27 AM 34.7°F1.5°C 23.0°F-5.0°C 62% 3.5 mph N5.6 kmh N 4.6 mph7.4 kmh 29.98 in1015.2 mb - 0.00 in0.0 mm 0.00 in0.0 mm
09:28 AM 34.7°F1.5°C 23.0°F-5.0°C 62% 3.5 mph N5.6 kmh N 3.5 mph5.6 kmh 29.98 in1015.2 mb - 0.00 in0.0 mm 0.00 in0.0 mm
09:29 AM 34.7°F1.5°C 23.0°F-5.0°C 62% 2.3 mph N3.7 kmh N 2.3 mph3.7 kmh 29.98 in1015.2 mb - 0.00 in0.0 mm 0.00 in0.0 mm
09:30 AM 34.8°F1.6°C 23.1°F-4.9°C 62% 2.3 mph NNW3.7 kmh NNW 5.8 mph9.3 kmh 29.98 in1015.2 mb - 0.00 in0.0 mm 0.00 in0.0 mm
09:31 AM 34.9°F1.6°C 23.2°F-4.9°C 62% 3.5 mph NNW5.6 kmh NNW 5.8 mph9.3 kmh 29.98 in1015.2 mb - 0.00 in0.0 mm 0.00 in0.0 mm
09:32 AM 34.9°F1.6°C 23.2°F-4.9°C 62% 4.6 mph NW7.4 kmh NW 5.8 mph9.3 kmh 29.98 in1015.2 mb - 0.00 in0.0 mm 0.00 in0.0 mm
09:33 AM 34.9°F1.6°C 23.6°F-4.7°C 63% 3.5 mph NW5.6 kmh NW 3.5 mph5.6 kmh 29.98 in1015.2 mb - 0.00 in0.0 mm 0.00 in0.0 mm
09:34 AM 34.9°F1.6°C 23.6°F-4.7°C 63% 2.3 mph ENE3.7 kmh ENE 4.6 mph7.4 kmh 29.98 in1015.2 mb - 0.00 in0.0 mm 0.00 in0.0 mm
09:35 AM 34.9°F1.6°C 23.6°F-4.7°C 63% 3.5 mph NE5.6 kmh NE 4.6 mph7.4 kmh 29.98 in1015.2 mb - 0.00 in0.0 mm 0.00 in0.0 mm
09:36 AM 34.9°F1.6°C 23.6°F-4.7°C 63% 3.5 mph NE5.6 kmh NE 4.6 mph7.4 kmh 29.98 in1015.2 mb - 0.00 in0.0 mm 0.00 in0.0 mm
09:37 AM 34.9°F1.6°C 23.6°F-4.7°C 63% 4.6 mph NE7.4 kmh NE 5.8 mph9.3 kmh 29.98 in1015.2 mb - 0.00 in0.0 mm 0.00 in0.0 mm
09:38 AM 34.9°F1.6°C 23.2°F-4.9°C 62% 4.6 mph NE7.4 kmh NE 3.5 mph5.6 kmh 29.98 in1015.2 mb - 0.00 in0.0 mm 0.00 in0.0 mm
09:39 AM 34.9°F1.6°C 23.6°F-4.7°C 63% 3.5 mph NNE5.6 kmh NNE 3.5 mph5.6 kmh 29.99 in1015.6 mb - 0.00 in0.0 mm 0.00 in0.0 mm
09:40 AM 35.0°F1.7°C 23.6°F-4.7°C 63% 3.5 mph NNE5.6 kmh NNE 3.5 mph5.6 kmh 29.99 in1015.6 mb - 0.00 in0.0 mm 0.00 in0.0 mm
09:41 AM 35.1°F1.7°C 23.8°F-4.6°C 63% 3.5 mph W5.6 kmh W 4.6 mph7.4 kmh 29.99 in1015.6 mb - 0.00 in0.0 mm 0.00 in0.0 mm
09:42 AM 35.1°F1.7°C 23.8°F-4.6°C 63% 4.6 mph N7.4 kmh N 6.9 mph11.1 kmh 29.99 in1015.6 mb - 0.00 in0.0 mm 0.00 in0.0 mm
09:43 AM 35.1°F1.7°C 23.8°F-4.6°C 63% 4.6 mph NW7.4 kmh NW 4.6 mph7.4 kmh 29.99 in1015.6 mb - 0.00 in0.0 mm 0.00 in0.0 mm
09:44 AM 35.1°F1.7°C 23.8°F-4.6°C 63% 3.5 mph WNW5.6 kmh WNW 4.6 mph7.4 kmh 29.99 in1015.6 mb - 0.00 in0.0 mm 0.00 in0.0 mm
09:45 AM 35.1°F1.7°C 23.8°F-4.6°C 63% 3.5 mph NNW5.6 kmh NNW 9.2 mph14.8 kmh 29.99 in1015.6 mb - 0.00 in0.0 mm 0.00 in0.0 mm
09:46 AM 35.1°F1.7°C 23.0°F-5.0°C 61% 5.8 mph NNW9.3 kmh NNW 9.2 mph14.8 kmh 29.99 in1015.6 mb - 0.00 in0.0 mm 0.00 in0.0 mm
09:47 AM 35.1°F1.7°C 23.0°F-5.0°C 61% 5.8 mph NNE9.3 kmh NNE 10.4 mph16.7 kmh 29.99 in1015.6 mb - 0.00 in0.0 mm 0.00 in0.0 mm
09:48 AM 35.1°F1.7°C 23.0°F-5.0°C 61% 5.8 mph NE9.3 kmh NE 4.6 mph7.4 kmh 29.99 in1015.6 mb - 0.00 in0.0 mm 0.00 in0.0 mm
09:49 AM 35.1°F1.7°C 23.0°F-5.0°C 61% 3.5 mph NW5.6 kmh NW 4.6 mph7.4 kmh 29.99 in1015.6 mb - 0.00 in0.0 mm 0.00 in0.0 mm
09:50 AM 35.1°F1.7°C 23.0°F-5.0°C 61% 4.6 mph NW7.4 kmh NW 8.1 mph13.0 kmh 29.99 in1015.6 mb - 0.00 in0.0 mm 0.00 in0.0 mm
09:51 AM 35.1°F1.7°C 22.6°F-5.2°C 60% 5.8 mph NNW9.3 kmh NNW 8.1 mph13.0 kmh 29.99 in1015.6 mb - 0.00 in0.0 mm 0.00 in0.0 mm
09:52 AM 35.1°F1.7°C 22.6°F-5.2°C 60% 4.6 mph NW7.4 kmh NW 5.8 mph9.3 kmh 29.99 in1015.6 mb - 0.00 in0.0 mm 0.00 in0.0 mm
09:53 AM 35.1°F1.7°C 22.6°F-5.2°C 60% 5.8 mph N9.3 kmh N 6.9 mph11.1 kmh 29.99 in1015.6 mb - 0.00 in0.0 mm 0.00 in0.0 mm
09:54 AM 35.1°F1.7°C 22.6°F-5.2°C 60% 3.5 mph NW5.6 kmh NW 4.6 mph7.4 kmh 29.99 in1015.6 mb - 0.00 in0.0 mm 0.00 in0.0 mm
09:55 AM 35.1°F1.7°C 22.6°F-5.2°C 60% 3.5 mph NNW5.6 kmh NNW 4.6 mph7.4 kmh 29.99 in1015.6 mb - 0.00 in0.0 mm 0.00 in0.0 mm
09:56 AM 35.1°F1.7°C 23.0°F-5.0°C 61% 3.5 mph NE5.6 kmh NE 4.6 mph7.4 kmh 29.99 in1015.6 mb - 0.00 in0.0 mm 0.00 in0.0 mm
09:57 AM 35.1°F1.7°C 23.0°F-5.0°C 61% 4.6 mph NE7.4 kmh NE 4.6 mph7.4 kmh 29.99 in1015.6 mb - 0.00 in0.0 mm 0.00 in0.0 mm
09:58 AM 35.1°F1.7°C 23.0°F-5.0°C 61% 3.5 mph NE5.6 kmh NE 4.6 mph7.4 kmh 29.99 in1015.6 mb - 0.00 in0.0 mm 0.00 in0.0 mm
09:59 AM 35.1°F1.7°C 23.4°F-4.8°C 62% 3.5 mph NNE5.6 kmh NNE 3.5 mph5.6 kmh 29.99 in1015.6 mb - 0.00 in0.0 mm 0.00 in0.0 mm
10:00 AM 35.1°F1.7°C 23.8°F-4.6°C 63% 1.2 mph ENE1.9 kmh ENE 1.2 mph1.9 kmh 29.99 in1015.6 mb - 0.00 in0.0 mm 0.00 in0.0 mm
10:01 AM 35.1°F1.7°C 23.8°F-4.6°C 63% 1.2 mph N1.9 kmh N 4.6 mph7.4 kmh 29.99 in1015.6 mb - 0.00 in0.0 mm 0.00 in0.0 mm
10:02 AM 35.1°F1.7°C 23.4°F-4.8°C 62% 3.5 mph E5.6 kmh E 4.6 mph7.4 kmh 29.99 in1015.6 mb - 0.00 in0.0 mm 0.00 in0.0 mm
10:03 AM 35.1°F1.7°C 23.4°F-4.8°C 62% 3.5 mph N5.6 kmh N 3.5 mph5.6 kmh 29.99 in1015.6 mb - 0.00 in0.0 mm 0.00 in0.0 mm
10:04 AM 35.1°F1.7°C 23.4°F-4.8°C 62% 2.3 mph WNW3.7 kmh WNW 3.5 mph5.6 kmh 29.99 in1015.6 mb - 0.00 in0.0 mm 0.00 in0.0 mm
10:05 AM 35.1°F1.7°C 23.4°F-4.8°C 62% 2.3 mph WSW3.7 kmh WSW 2.3 mph3.7 kmh 29.99 in1015.6 mb - 0.00 in0.0 mm 0.00 in0.0 mm
10:06 AM 35.1°F1.7°C 23.8°F-4.6°C 63% 2.3 mph NNE3.7 kmh NNE 3.5 mph5.6 kmh 29.99 in1015.6 mb - 0.00 in0.0 mm 0.00 in0.0 mm
10:07 AM 35.1°F1.7°C 23.8°F-4.6°C 63% 3.5 mph NNW5.6 kmh NNW 5.8 mph9.3 kmh 29.99 in1015.6 mb - 0.00 in0.0 mm 0.00 in0.0 mm
10:08 AM 35.1°F1.7°C 23.8°F-4.6°C 63% 4.6 mph NNW7.4 kmh NNW 5.8 mph9.3 kmh 29.99 in1015.6 mb - 0.00 in0.0 mm 0.00 in0.0 mm
10:09 AM 35.1°F1.7°C 23.4°F-4.8°C 62% 4.6 mph N7.4 kmh N 5.8 mph9.3 kmh 29.99 in1015.6 mb - 0.00 in0.0 mm 0.00 in0.0 mm
10:10 AM 35.1°F1.7°C 23.0°F-5.0°C 61% 4.6 mph E7.4 kmh E 5.8 mph9.3 kmh 29.99 in1015.6 mb - 0.00 in0.0 mm 0.00 in0.0 mm
10:11 AM 35.1°F1.7°C 23.0°F-5.0°C 61% 4.6 mph W7.4 kmh W 3.5 mph5.6 kmh 29.99 in1015.6 mb - 0.00 in0.0 mm 0.00 in0.0 mm
10:12 AM 35.1°F1.7°C 23.0°F-5.0°C 61% 3.5 mph NNW5.6 kmh NNW 3.5 mph5.6 kmh 29.99 in1015.6 mb - 0.00 in0.0 mm 0.00 in0.0 mm
10:13 AM 35.1°F1.7°C 23.0°F-5.0°C 61% 3.5 mph NW5.6 kmh NW 3.5 mph5.6 kmh 29.99 in1015.6 mb - 0.00 in0.0 mm 0.00 in0.0 mm
10:14 AM 35.1°F1.7°C 23.0°F-5.0°C 61% 2.3 mph NNW3.7 kmh NNW 5.8 mph9.3 kmh 30.00 in1015.9 mb - 0.00 in0.0 mm 0.00 in0.0 mm
10:15 AM 35.1°F1.7°C 22.6°F-5.2°C 60% 3.5 mph N5.6 kmh N 5.8 mph9.3 kmh 30.00 in1015.9 mb - 0.00 in0.0 mm 0.00 in0.0 mm
10:16 AM 35.1°F1.7°C 22.6°F-5.2°C 60% 3.5 mph N5.6 kmh N 5.8 mph9.3 kmh 30.00 in1015.9 mb - 0.00 in0.0 mm 0.00 in0.0 mm
10:17 AM 35.1°F1.7°C 23.0°F-5.0°C 61% 3.5 mph N5.6 kmh N 5.8 mph9.3 kmh 30.00 in1015.9 mb - 0.00 in0.0 mm 0.00 in0.0 mm
10:18 AM 35.1°F1.7°C 23.4°F-4.8°C 62% 3.5 mph W5.6 kmh W 2.3 mph3.7 kmh 30.00 in1015.9 mb - 0.00 in0.0 mm 0.00 in0.0 mm
10:19 AM 35.1°F1.7°C 23.4°F-4.8°C 62% 2.3 mph W3.7 kmh W 5.8 mph9.3 kmh 30.00 in1015.9 mb - 0.00 in0.0 mm 0.00 in0.0 mm
10:20 AM 35.2°F1.8°C 23.5°F-4.7°C 62% 4.6 mph NE7.4 kmh NE 8.1 mph13.0 kmh 30.00 in1015.9 mb - 0.00 in0.0 mm 0.00 in0.0 mm
10:21 AM 35.2°F1.8°C 22.7°F-5.2°C 60% 6.9 mph N11.1 kmh N 8.1 mph13.0 kmh 30.00 in1015.9 mb - 0.00 in0.0 mm 0.00 in0.0 mm
10:22 AM 35.2°F1.8°C 22.3°F-5.4°C 59% 5.8 mph E9.3 kmh E 8.1 mph13.0 kmh 30.00 in1015.9 mb - 0.00 in0.0 mm 0.00 in0.0 mm
10:23 AM 35.2°F1.8°C 22.7°F-5.2°C 60% 4.6 mph NNW7.4 kmh NNW 5.8 mph9.3 kmh 30.00 in1015.9 mb - 0.00 in0.0 mm 0.00 in0.0 mm
10:24 AM 35.2°F1.8°C 22.7°F-5.2°C 60% 4.6 mph NNE7.4 kmh NNE 5.8 mph9.3 kmh 30.00 in1015.9 mb - 0.00 in0.0 mm 0.00 in0.0 mm
10:25 AM 35.2°F1.8°C 22.7°F-5.2°C 60% 3.5 mph NW5.6 kmh NW 4.6 mph7.4 kmh 30.00 in1015.9 mb - 0.00 in0.0 mm 0.00 in0.0 mm
10:26 AM 35.2°F1.8°C 23.1°F-4.9°C 61% 3.5 mph NNE5.6 kmh NNE 3.5 mph5.6 kmh 30.00 in1015.9 mb - 0.00 in0.0 mm 0.00 in0.0 mm
10:27 AM 35.2°F1.8°C 23.5°F-4.7°C 62% 2.3 mph WSW3.7 kmh WSW 2.3 mph3.7 kmh 30.00 in1015.9 mb - 0.00 in0.0 mm 0.00 in0.0 mm
10:28 AM 35.2°F1.8°C 23.5°F-4.7°C 62% 2.3 mph NNW3.7 kmh NNW 2.3 mph3.7 kmh 30.00 in1015.9 mb - 0.00 in0.0 mm 0.00 in0.0 mm
10:29 AM 35.3°F1.8°C 23.6°F-4.7°C 62% 1.2 mph N1.9 kmh N -- 30.00 in1015.9 mb - 0.00 in0.0 mm 0.00 in0.0 mm
10:30 AM 35.4°F1.9°C 24.0°F-4.4°C 63% 1.2 mph WNW1.9 kmh WNW 3.5 mph5.6 kmh 30.00 in1015.9 mb - 0.00 in0.0 mm 0.00 in0.0 mm
10:31 AM 35.4°F1.9°C 23.3°F-4.8°C 61% 2.3 mph N3.7 kmh N 3.5 mph5.6 kmh 30.00 in1015.9 mb - 0.00 in0.0 mm 0.00 in0.0 mm
10:32 AM 35.4°F1.9°C 23.3°F-4.8°C 61% 3.5 mph N5.6 kmh N 4.6 mph7.4 kmh 30.00 in1015.9 mb - 0.00 in0.0 mm 0.00 in0.0 mm
10:33 AM 35.4°F1.9°C 23.3°F-4.8°C 61% 3.5 mph N5.6 kmh N 4.6 mph7.4 kmh 30.00 in1015.9 mb - 0.00 in0.0 mm 0.00 in0.0 mm
10:34 AM 35.6°F2.0°C 23.5°F-4.7°C 61% 3.5 mph WNW5.6 kmh WNW 3.5 mph5.6 kmh 30.00 in1015.9 mb - 0.00 in0.0 mm 0.00 in0.0 mm
10:35 AM 35.6°F2.0°C 23.5°F-4.7°C 61% 3.5 mph N5.6 kmh N 5.8 mph9.3 kmh 30.00 in1015.9 mb - 0.00 in0.0 mm 0.00 in0.0 mm
10:36 AM 35.6°F2.0°C 22.7°F-5.2°C 59% 4.6 mph N7.4 kmh N 4.6 mph7.4 kmh 30.00 in1015.9 mb - 0.00 in0.0 mm 0.00 in0.0 mm
10:37 AM 35.6°F2.0°C 22.7°F-5.2°C 59% 3.5 mph NNE5.6 kmh NNE 3.5 mph5.6 kmh 30.00 in1015.9 mb - 0.00 in0.0 mm 0.00 in0.0 mm
10:38 AM 35.7°F2.1°C 23.1°F-4.9°C 60% 2.3 mph WNW3.7 kmh WNW 2.3 mph3.7 kmh 30.01 in1016.3 mb - 0.00 in0.0 mm 0.00 in0.0 mm
10:39 AM 35.8°F2.1°C 24.0°F-4.4°C 62% 2.3 mph NW3.7 kmh NW 3.5 mph5.6 kmh 30.01 in1016.3 mb - 0.00 in0.0 mm 0.00 in0.0 mm
10:40 AM 35.8°F2.1°C 23.7°F-4.6°C 61% 3.5 mph NW5.6 kmh NW 3.5 mph5.6 kmh 30.01 in1016.3 mb - 0.00 in0.0 mm 0.00 in0.0 mm
10:41 AM 35.8°F2.1°C 23.7°F-4.6°C 61% 3.5 mph NW5.6 kmh NW 3.5 mph5.6 kmh 30.01 in1016.3 mb - 0.00 in0.0 mm 0.00 in0.0 mm
10:42 AM 35.8°F2.1°C 23.7°F-4.6°C 61% 3.5 mph NW5.6 kmh NW 3.5 mph5.6 kmh 30.01 in1016.3 mb - 0.00 in0.0 mm 0.00 in0.0 mm
10:43 AM 35.8°F2.1°C 23.7°F-4.6°C 61% 3.5 mph NW5.6 kmh NW 3.5 mph5.6 kmh 30.01 in1016.3 mb - 0.00 in0.0 mm 0.00 in0.0 mm
10:44 AM 35.9°F2.2°C 23.8°F-4.6°C 61% 3.5 mph WNW5.6 kmh WNW 4.6 mph7.4 kmh 30.01 in1016.3 mb - 0.00 in0.0 mm 0.00 in0.0 mm
10:45 AM 36.0°F2.2°C 24.2°F-4.3°C 62% 3.5 mph WNW5.6 kmh WNW 4.6 mph7.4 kmh 30.01 in1016.3 mb - 0.00 in0.0 mm 0.00 in0.0 mm
10:46 AM 36.0°F2.2°C 23.8°F-4.6°C 61% 3.5 mph W5.6 kmh W 4.6 mph7.4 kmh 30.01 in1016.3 mb - 0.00 in0.0 mm 0.00 in0.0 mm
10:47 AM 36.0°F2.2°C 23.4°F-4.8°C 60% 3.5 mph NW5.6 kmh NW 4.6 mph7.4 kmh 30.01 in1016.3 mb - 0.00 in0.0 mm 0.00 in0.0 mm
10:48 AM 36.1°F2.3°C 23.5°F-4.7°C 60% 2.3 mph NNW3.7 kmh NNW 2.3 mph3.7 kmh 30.01 in1016.3 mb - 0.00 in0.0 mm 0.00 in0.0 mm
10:49 AM 36.1°F2.3°C 24.3°F-4.3°C 62% 2.3 mph NNW3.7 kmh NNW 2.3 mph3.7 kmh 30.01 in1016.3 mb - 0.00 in0.0 mm 0.00 in0.0 mm
10:50 AM 36.2°F2.3°C 24.8°F-4.0°C 63% 2.3 mph NW3.7 kmh NW 2.3 mph3.7 kmh 30.02 in1016.6 mb - 0.00 in0.0 mm 0.00 in0.0 mm
10:51 AM 36.3°F2.4°C 25.3°F-3.7°C 64% 1.2 mph NW1.9 kmh NW 2.3 mph3.7 kmh 30.02 in1016.6 mb - 0.00 in0.0 mm 0.00 in0.0 mm
10:52 AM 36.3°F2.4°C 25.3°F-3.7°C 64% 2.3 mph WNW3.7 kmh WNW 2.3 mph3.7 kmh 30.02 in1016.6 mb - 0.00 in0.0 mm 0.00 in0.0 mm
10:53 AM 36.3°F2.4°C 24.9°F-3.9°C 63% 2.3 mph WNW3.7 kmh WNW 3.5 mph5.6 kmh 30.02 in1016.6 mb - 0.00 in0.0 mm 0.00 in0.0 mm
10:54 AM 36.3°F2.4°C 24.5°F-4.2°C 62% 3.5 mph W5.6 kmh W 4.6 mph7.4 kmh 30.02 in1016.6 mb - 0.00 in0.0 mm 0.00 in0.0 mm
10:55 AM 36.3°F2.4°C 24.9°F-3.9°C 63% 3.5 mph NNW5.6 kmh NNW 4.6 mph7.4 kmh 30.02 in1016.6 mb - 0.00 in0.0 mm 0.00 in0.0 mm
10:56 AM 36.4°F2.4°C 25.0°F-3.9°C 63% 2.3 mph N3.7 kmh N 3.5 mph5.6 kmh 30.02 in1016.6 mb - 0.00 in0.0 mm 0.00 in0.0 mm
10:57 AM 36.5°F2.5°C 25.1°F-3.8°C 63% 2.3 mph WNW3.7 kmh WNW 2.3 mph3.7 kmh 30.02 in1016.6 mb - 0.00 in0.0 mm 0.00 in0.0 mm
10:58 AM 36.5°F2.5°C 24.7°F-4.1°C 62% 1.2 mph W1.9 kmh W 3.5 mph5.6 kmh 30.02 in1016.6 mb - 0.00 in0.0 mm 0.00 in0.0 mm
10:59 AM 36.5°F2.5°C 24.3°F-4.3°C 61% 2.3 mph NNW3.7 kmh NNW 3.5 mph5.6 kmh 30.02 in1016.6 mb - 0.00 in0.0 mm 0.00 in0.0 mm
11:00 AM 36.5°F2.5°C 23.9°F-4.5°C 60% 3.5 mph NW5.6 kmh NW 3.5 mph5.6 kmh 30.02 in1016.6 mb - 0.00 in0.0 mm 0.00 in0.0 mm
11:01 AM 36.5°F2.5°C 24.3°F-4.3°C 61% 3.5 mph NNW5.6 kmh NNW 3.5 mph5.6 kmh 30.02 in1016.6 mb - 0.00 in0.0 mm 0.00 in0.0 mm
11:02 AM 36.5°F2.5°C 24.3°F-4.3°C 61% 3.5 mph N5.6 kmh N 3.5 mph5.6 kmh 30.02 in1016.6 mb - 0.00 in0.0 mm 0.00 in0.0 mm
11:03 AM 36.5°F2.5°C 23.5°F-4.7°C 59% 3.5 mph N5.6 kmh N 4.6 mph7.4 kmh 30.02 in1016.6 mb - 0.00 in0.0 mm 0.00 in0.0 mm
11:04 AM 36.5°F2.5°C 23.5°F-4.7°C 59% 3.5 mph NNW5.6 kmh NNW 5.8 mph9.3 kmh 30.02 in1016.6 mb - 0.00 in0.0 mm 0.00 in0.0 mm
11:05 AM 36.5°F2.5°C 23.5°F-4.7°C 59% 4.6 mph NNE7.4 kmh NNE 5.8 mph9.3 kmh 30.02 in1016.6 mb - 0.00 in0.0 mm 0.00 in0.0 mm
11:06 AM 36.7°F2.6°C 23.7°F-4.6°C 59% 3.5 mph N5.6 kmh N 3.5 mph5.6 kmh 30.02 in1016.6 mb - 0.00 in0.0 mm 0.00 in0.0 mm
11:07 AM 36.7°F2.6°C 23.7°F-4.6°C 59% 3.5 mph N5.6 kmh N 4.6 mph7.4 kmh 30.02 in1016.6 mb - 0.00 in0.0 mm 0.00 in0.0 mm
11:08 AM 36.8°F2.7°C 23.8°F-4.6°C 59% 3.5 mph NW5.6 kmh NW 4.6 mph7.4 kmh 30.02 in1016.6 mb - 0.00 in0.0 mm 0.00 in0.0 mm
11:09 AM 36.9°F2.7°C 23.9°F-4.5°C 59% 2.3 mph NW3.7 kmh NW 2.3 mph3.7 kmh 30.02 in1016.6 mb - 0.00 in0.0 mm 0.00 in0.0 mm
11:10 AM 36.9°F2.7°C 24.3°F-4.3°C 60% 2.3 mph NW3.7 kmh NW 3.5 mph5.6 kmh 30.02 in1016.6 mb - 0.00 in0.0 mm 0.00 in0.0 mm
11:11 AM 37.0°F2.8°C 24.4°F-4.2°C 60% 2.3 mph N3.7 kmh N 3.5 mph5.6 kmh 30.02 in1016.6 mb - 0.00 in0.0 mm 0.00 in0.0 mm
11:12 AM 37.0°F2.8°C 24.4°F-4.2°C 60% 3.5 mph NNE5.6 kmh NNE 3.5 mph5.6 kmh 30.02 in1016.6 mb - 0.00 in0.0 mm 0.00 in0.0 mm
11:13 AM 37.0°F2.8°C 24.4°F-4.2°C 60% 3.5 mph N5.6 kmh N 4.6 mph7.4 kmh 30.01 in1016.3 mb - 0.00 in0.0 mm 0.00 in0.0 mm
11:14 AM 37.0°F2.8°C 24.4°F-4.2°C 60% 3.5 mph N5.6 kmh N 4.6 mph7.4 kmh 30.01 in1016.3 mb - 0.00 in0.0 mm 0.00 in0.0 mm
11:15 AM 37.0°F2.8°C 24.0°F-4.4°C 59% 4.6 mph N7.4 kmh N 4.6 mph7.4 kmh 30.01 in1016.3 mb - 0.00 in0.0 mm 0.00 in0.0 mm
11:16 AM 37.0°F2.8°C 24.0°F-4.4°C 59% 3.5 mph NNW5.6 kmh NNW 4.6 mph7.4 kmh 30.01 in1016.3 mb - 0.00 in0.0 mm 0.00 in0.0 mm
11:17 AM 37.0°F2.8°C 24.0°F-4.4°C 59% 2.3 mph N3.7 kmh N 2.3 mph3.7 kmh 30.01 in1016.3 mb - 0.00 in0.0 mm 0.00 in0.0 mm
11:18 AM 37.0°F2.8°C 24.0°F-4.4°C 59% 2.3 mph N3.7 kmh N 3.5 mph5.6 kmh 30.01 in1016.3 mb - 0.00 in0.0 mm 0.00 in0.0 mm
11:19 AM 37.0°F2.8°C 24.4°F-4.2°C 60% 3.5 mph NW5.6 kmh NW 3.5 mph5.6 kmh 30.01 in1016.3 mb - 0.00 in0.0 mm 0.00 in0.0 mm
11:20 AM 37.0°F2.8°C 24.4°F-4.2°C 60% 3.5 mph NW5.6 kmh NW 5.8 mph9.3 kmh 30.01 in1016.3 mb - 0.00 in0.0 mm 0.00 in0.0 mm
11:21 AM 37.0°F2.8°C 24.4°F-4.2°C 60% 3.5 mph NNW5.6 kmh NNW 3.5 mph5.6 kmh 30.01 in1016.3 mb - 0.00 in0.0 mm 0.00 in0.0 mm
11:22 AM 37.0°F2.8°C 24.4°F-4.2°C 60% 2.3 mph W3.7 kmh W 2.3 mph3.7 kmh 30.01 in1016.3 mb - 0.00 in0.0 mm 0.00 in0.0 mm
11:23 AM 37.0°F2.8°C 24.8°F-4.0°C 61% 2.3 mph NW3.7 kmh NW 5.8 mph9.3 kmh 30.01 in1016.3 mb - 0.00 in0.0 mm 0.00 in0.0 mm
11:24 AM 36.9°F2.7°C 24.7°F-4.1°C 61% 4.6 mph E7.4 kmh E 5.8 mph9.3 kmh 30.01 in1016.3 mb - 0.00 in0.0 mm 0.00 in0.0 mm
11:25 AM 36.9°F2.7°C 25.1°F-3.8°C 62% 2.3 mph NE3.7 kmh NE 3.5 mph5.6 kmh 30.00 in1015.9 mb - 0.00 in0.0 mm 0.00 in0.0 mm
11:26 AM 36.9°F2.7°C 25.1°F-3.8°C 62% 2.3 mph NW3.7 kmh NW 3.5 mph5.6 kmh 30.00 in1015.9 mb - 0.00 in0.0 mm 0.00 in0.0 mm
11:27 AM 36.9°F2.7°C 25.1°F-3.8°C 62% 2.3 mph NNE3.7 kmh NNE 3.5 mph5.6 kmh 30.00 in1015.9 mb - 0.00 in0.0 mm 0.00 in0.0 mm
11:28 AM 36.9°F2.7°C 25.1°F-3.8°C 62% 3.5 mph N5.6 kmh N 5.8 mph9.3 kmh 30.00 in1015.9 mb - 0.00 in0.0 mm 0.00 in0.0 mm
11:29 AM 36.9°F2.7°C 24.7°F-4.1°C 61% 3.5 mph N5.6 kmh N 4.6 mph7.4 kmh 30.00 in1015.9 mb - 0.00 in0.0 mm 0.00 in0.0 mm
11:30 AM 36.9°F2.7°C 24.7°F-4.1°C 61% 2.3 mph NW3.7 kmh NW 4.6 mph7.4 kmh 30.00 in1015.9 mb - 0.00 in0.0 mm 0.00 in0.0 mm
11:31 AM 36.9°F2.7°C 25.1°F-3.8°C 62% 3.5 mph NNE5.6 kmh NNE 5.8 mph9.3 kmh 30.00 in1015.9 mb - 0.00 in0.0 mm 0.00 in0.0 mm
11:32 AM 36.9°F2.7°C 24.7°F-4.1°C 61% 3.5 mph NNW5.6 kmh NNW 3.5 mph5.6 kmh 30.00 in1015.9 mb - 0.00 in0.0 mm 0.00 in0.0 mm
11:33 AM 36.9°F2.7°C 24.7°F-4.1°C 61% 1.2 mph NW1.9 kmh NW 2.3 mph3.7 kmh 30.00 in1015.9 mb - 0.00 in0.0 mm 0.00 in0.0 mm
11:34 AM 37.0°F2.8°C 24.4°F-4.2°C 60% 2.3 mph N3.7 kmh N 4.6 mph7.4 kmh 30.00 in1015.9 mb - 0.00 in0.0 mm 0.00 in0.0 mm
11:35 AM 37.0°F2.8°C 24.4°F-4.2°C 60% 3.5 mph NE5.6 kmh NE 5.8 mph9.3 kmh 30.00 in1015.9 mb - 0.00 in0.0 mm 0.00 in0.0 mm
11:36 AM 37.0°F2.8°C 24.4°F-4.2°C 60% 4.6 mph NE7.4 kmh NE 4.6 mph7.4 kmh 30.00 in1015.9 mb - 0.00 in0.0 mm 0.00 in0.0 mm
11:37 AM 37.0°F2.8°C 24.4°F-4.2°C 60% 3.5 mph N5.6 kmh N 4.6 mph7.4 kmh 30.00 in1015.9 mb - 0.00 in0.0 mm 0.00 in0.0 mm
11:38 AM 37.0°F2.8°C 24.8°F-4.0°C 61% 2.3 mph NE3.7 kmh NE 6.9 mph11.1 kmh 30.00 in1015.9 mb - 0.00 in0.0 mm 0.00 in0.0 mm
11:39 AM 37.0°F2.8°C 24.4°F-4.2°C 60% 4.6 mph NNE7.4 kmh NNE 5.8 mph9.3 kmh 30.00 in1015.9 mb - 0.00 in0.0 mm 0.00 in0.0 mm
11:40 AM 37.0°F2.8°C 24.8°F-4.0°C 61% 3.5 mph N5.6 kmh N 3.5 mph5.6 kmh 30.00 in1015.9 mb - 0.00 in0.0 mm 0.00 in0.0 mm
11:41 AM 37.0°F2.8°C 24.8°F-4.0°C 61% 2.3 mph WSW3.7 kmh WSW 2.3 mph3.7 kmh 30.00 in1015.9 mb - 0.00 in0.0 mm 0.00 in0.0 mm
11:42 AM 37.0°F2.8°C 24.8°F-4.0°C 61% 1.2 mph NW1.9 kmh NW 3.5 mph5.6 kmh 30.00 in1015.9 mb - 0.00 in0.0 mm 0.00 in0.0 mm
11:43 AM 37.0°F2.8°C 24.8°F-4.0°C 61% 1.2 mph SW1.9 kmh SW 3.5 mph5.6 kmh 30.00 in1015.9 mb - 0.00 in0.0 mm 0.00 in0.0 mm
11:44 AM 37.0°F2.8°C 24.8°F-4.0°C 61% 2.3 mph NW3.7 kmh NW 3.5 mph5.6 kmh 30.00 in1015.9 mb - 0.00 in0.0 mm 0.00 in0.0 mm
11:45 AM 37.0°F2.8°C 24.8°F-4.0°C 61% 3.5 mph NNW5.6 kmh NNW 3.5 mph5.6 kmh 30.00 in1015.9 mb - 0.00 in0.0 mm 0.00 in0.0 mm
11:46 AM 37.0°F2.8°C 25.2°F-3.8°C 62% 2.3 mph WSW3.7 kmh WSW 2.3 mph3.7 kmh 30.00 in1015.9 mb - 0.00 in0.0 mm 0.00 in0.0 mm
11:47 AM 37.0°F2.8°C 25.2°F-3.8°C 62% 1.2 mph SSW1.9 kmh SSW 2.3 mph3.7 kmh 30.00 in1015.9 mb - 0.00 in0.0 mm 0.00 in0.0 mm
11:48 AM 37.2°F2.9°C 25.0°F-3.9°C 61% 1.2 mph N1.9 kmh N 3.5 mph5.6 kmh 30.00 in1015.9 mb - 0.00 in0.0 mm 0.00 in0.0 mm
11:49 AM 37.2°F2.9°C 25.0°F-3.9°C 61% 2.3 mph NW3.7 kmh NW 3.5 mph5.6 kmh 30.00 in1015.9 mb - 0.00 in0.0 mm 0.00 in0.0 mm
11:50 AM 37.3°F2.9°C 25.5°F-3.6°C 62% 2.3 mph N3.7 kmh N 3.5 mph5.6 kmh 30.00 in1015.9 mb - 0.00 in0.0 mm 0.00 in0.0 mm
11:51 AM 37.4°F3.0°C 25.6°F-3.6°C 62% 3.5 mph NNE5.6 kmh NNE 3.5 mph5.6 kmh 30.00 in1015.9 mb - 0.00 in0.0 mm 0.00 in0.0 mm
11:52 AM 37.4°F3.0°C 25.2°F-3.8°C 61% 3.5 mph NNW5.6 kmh NNW 3.5 mph5.6 kmh 30.00 in1015.9 mb - 0.00 in0.0 mm 0.00 in0.0 mm
11:53 AM 37.4°F3.0°C 25.2°F-3.8°C 61% 2.3 mph NNE3.7 kmh NNE 3.5 mph5.6 kmh 30.00 in1015.9 mb - 0.00 in0.0 mm 0.00 in0.0 mm
11:54 AM 37.4°F3.0°C 25.2°F-3.8°C 61% 3.5 mph N5.6 kmh N 2.3 mph3.7 kmh 30.00 in1015.9 mb - 0.00 in0.0 mm 0.00 in0.0 mm
11:55 AM 37.4°F3.0°C 25.6°F-3.6°C 62% 2.3 mph N3.7 kmh N 2.3 mph3.7 kmh 30.00 in1015.9 mb - 0.00 in0.0 mm 0.00 in0.0 mm
11:56 AM 37.4°F3.0°C 25.9°F-3.4°C 63% 2.3 mph WSW3.7 kmh WSW 2.3 mph3.7 kmh 30.00 in1015.9 mb - 0.00 in0.0 mm 0.00 in0.0 mm
11:57 AM 37.4°F3.0°C 26.3°F-3.2°C 64% 1.2 mph W1.9 kmh W 5.8 mph9.3 kmh 30.00 in1015.9 mb - 0.00 in0.0 mm 0.00 in0.0 mm
11:58 AM 37.4°F3.0°C 25.9°F-3.4°C 63% 3.5 mph NW5.6 kmh NW 5.8 mph9.3 kmh 30.00 in1015.9 mb - 0.00 in0.0 mm 0.00 in0.0 mm
11:59 AM 37.4°F3.0°C 25.6°F-3.6°C 62% 4.6 mph WNW7.4 kmh WNW 4.6 mph7.4 kmh 30.00 in1015.9 mb - 0.00 in0.0 mm 0.00 in0.0 mm
12:00 PM 37.4°F3.0°C 25.6°F-3.6°C 62% 3.5 mph NW5.6 kmh NW 3.5 mph5.6 kmh 30.00 in1015.9 mb - 0.00 in0.0 mm 0.00 in0.0 mm
12:01 PM 37.3°F2.9°C 25.5°F-3.6°C 62% 3.5 mph NNW5.6 kmh NNW 5.8 mph9.3 kmh 30.00 in1015.9 mb - 0.00 in0.0 mm 0.00 in0.0 mm
12:02 PM 37.2°F2.9°C 25.4°F-3.7°C 62% 3.5 mph NW5.6 kmh NW 5.8 mph9.3 kmh 30.00 in1015.9 mb - 0.00 in0.0 mm 0.00 in0.0 mm
12:03 PM 37.2°F2.9°C 25.0°F-3.9°C 61% 3.5 mph NW5.6 kmh NW 5.8 mph9.3 kmh 30.00 in1015.9 mb - 0.00 in0.0 mm 0.00 in0.0 mm
12:04 PM 37.2°F2.9°C 25.4°F-3.7°C 62% 2.3 mph WNW3.7 kmh WNW 4.6 mph7.4 kmh 30.00 in1015.9 mb - 0.00 in0.0 mm 0.00 in0.0 mm
12:05 PM 37.2°F2.9°C 25.4°F-3.7°C 62% 3.5 mph NW5.6 kmh NW 4.6 mph7.4 kmh 30.00 in1015.9 mb - 0.00 in0.0 mm 0.00 in0.0 mm
12:06 PM 37.2°F2.9°C 26.1°F-3.3°C 64% 2.3 mph NE3.7 kmh NE 3.5 mph5.6 kmh 30.00 in1015.9 mb - 0.00 in0.0 mm 0.00 in0.0 mm
12:07 PM 37.4°F3.0°C 26.3°F-3.2°C 64% 2.3 mph N3.7 kmh N 3.5 mph5.6 kmh 30.00 in1015.9 mb - 0.00 in0.0 mm 0.00 in0.0 mm
12:08 PM 37.4°F3.0°C 25.9°F-3.4°C 63% 2.3 mph NNW3.7 kmh NNW 3.5 mph5.6 kmh 30.00 in1015.9 mb - 0.00 in0.0 mm 0.00 in0.0 mm
12:09 PM 37.4°F3.0°C 25.6°F-3.6°C 62% 3.5 mph NW5.6 kmh NW 4.6 mph7.4 kmh 30.00 in1015.9 mb - 0.00 in0.0 mm 0.00 in0.0 mm
12:10 PM 37.4°F3.0°C 25.6°F-3.6°C 62% 3.5 mph NW5.6 kmh NW 3.5 mph5.6 kmh 30.00 in1015.9 mb - 0.00 in0.0 mm 0.00 in0.0 mm
12:11 PM 37.6°F3.1°C 26.1°F-3.3°C 63% 2.3 mph NW3.7 kmh NW 3.5 mph5.6 kmh 30.00 in1015.9 mb - 0.00 in0.0 mm 0.00 in0.0 mm
12:12 PM 37.6°F3.1°C 26.1°F-3.3°C 63% 2.3 mph N3.7 kmh N 3.5 mph5.6 kmh 30.00 in1015.9 mb - 0.00 in0.0 mm 0.00 in0.0 mm
12:13 PM 37.6°F3.1°C 26.1°F-3.3°C 63% 2.3 mph N3.7 kmh N 3.5 mph5.6 kmh 30.00 in1015.9 mb - 0.00 in0.0 mm 0.00 in0.0 mm
12:14 PM 37.6°F3.1°C 26.1°F-3.3°C 63% 2.3 mph WNW3.7 kmh WNW 3.5 mph5.6 kmh 30.00 in1015.9 mb - 0.00 in0.0 mm 0.00 in0.0 mm
12:15 PM 37.6°F3.1°C 26.5°F-3.1°C 64% 1.2 mph NE1.9 kmh NE 2.3 mph3.7 kmh 30.00 in1015.9 mb - 0.00 in0.0 mm 0.00 in0.0 mm
12:16 PM 37.6°F3.1°C 26.1°F-3.3°C 63% 2.3 mph N3.7 kmh N 3.5 mph5.6 kmh 30.00 in1015.9 mb - 0.00 in0.0 mm 0.00 in0.0 mm
12:17 PM 37.7°F3.2°C 26.2°F-3.2°C 63% 2.3 mph NNW3.7 kmh NNW 2.3 mph3.7 kmh 30.00 in1015.9 mb - 0.00 in0.0 mm 0.00 in0.0 mm
12:18 PM 37.8°F3.2°C 26.3°F-3.2°C 63% 2.3 mph N3.7 kmh N 2.3 mph3.7 kmh 30.00 in1015.9 mb - 0.00 in0.0 mm 0.00 in0.0 mm
12:19 PM 37.9°F3.3°C 26.4°F-3.1°C 63% 1.2 mph N1.9 kmh N 2.3 mph3.7 kmh 30.00 in1015.9 mb - 0.00 in0.0 mm 0.00 in0.0 mm
12:20 PM 37.9°F3.3°C 26.4°F-3.1°C 63% 2.3 mph NW3.7 kmh NW 4.6 mph7.4 kmh 30.00 in1015.9 mb - 0.00 in0.0 mm 0.00 in0.0 mm
12:21 PM 37.9°F3.3°C 26.0°F-3.3°C 62% 3.5 mph N5.6 kmh N 4.6 mph7.4 kmh 30.00 in1015.9 mb - 0.00 in0.0 mm 0.00 in0.0 mm
12:22 PM 37.9°F3.3°C 26.0°F-3.3°C 62% 3.5 mph NNW5.6 kmh NNW 4.6 mph7.4 kmh 30.00 in1015.9 mb - 0.00 in0.0 mm 0.00 in0.0 mm
12:23 PM 37.9°F3.3°C 26.0°F-3.3°C 62% 3.5 mph NNE5.6 kmh NNE 3.5 mph5.6 kmh 30.00 in1015.9 mb - 0.00 in0.0 mm 0.00 in0.0 mm
12:24 PM 37.9°F3.3°C 26.0°F-3.3°C 62% 2.3 mph NW3.7 kmh NW 2.3 mph3.7 kmh 30.00 in1015.9 mb - 0.00 in0.0 mm 0.00 in0.0 mm
12:25 PM 37.9°F3.3°C 26.4°F-3.1°C 63% 2.3 mph WNW3.7 kmh WNW 2.3 mph3.7 kmh 29.99 in1015.6 mb - 0.00 in0.0 mm 0.00 in0.0 mm
12:26 PM 37.9°F3.3°C 26.4°F-3.1°C 63% 2.3 mph N3.7 kmh N 6.9 mph11.1 kmh 29.99 in1015.6 mb - 0.00 in0.0 mm 0.00 in0.0 mm
12:27 PM 37.9°F3.3°C 26.0°F-3.3°C 62% 4.6 mph N7.4 kmh N 6.9 mph11.1 kmh 29.99 in1015.6 mb - 0.00 in0.0 mm 0.00 in0.0 mm
12:28 PM 37.9°F3.3°C 25.6°F-3.6°C 61% 4.6 mph N7.4 kmh N 5.8 mph9.3 kmh 29.99 in1015.6 mb - 0.00 in0.0 mm 0.00 in0.0 mm
12:29 PM 37.8°F3.2°C 25.5°F-3.6°C 61% 4.6 mph NNE7.4 kmh NNE 5.8 mph9.3 kmh 29.99 in1015.6 mb - 0.00 in0.0 mm 0.00 in0.0 mm
12:30 PM 37.8°F3.2°C 25.5°F-3.6°C 61% 3.5 mph N5.6 kmh N 5.8 mph9.3 kmh 29.99 in1015.6 mb - 0.00 in0.0 mm 0.00 in0.0 mm
12:31 PM 37.8°F3.2°C 25.5°F-3.6°C 61% 4.6 mph N7.4 kmh N 5.8 mph9.3 kmh 29.99 in1015.6 mb - 0.00 in0.0 mm 0.00 in0.0 mm
12:32 PM 37.8°F3.2°C 25.9°F-3.4°C 62% 3.5 mph NE5.6 kmh NE 3.5 mph5.6 kmh 29.99 in1015.6 mb - 0.00 in0.0 mm 0.00 in0.0 mm
12:33 PM 37.8°F3.2°C 26.3°F-3.2°C 63% 3.5 mph NE5.6 kmh NE 4.6 mph7.4 kmh 29.99 in1015.6 mb - 0.00 in0.0 mm 0.00 in0.0 mm
12:34 PM 37.8°F3.2°C 26.3°F-3.2°C 63% 3.5 mph N5.6 kmh N 3.5 mph5.6 kmh 29.99 in1015.6 mb - 0.00 in0.0 mm 0.00 in0.0 mm
12:35 PM 37.8°F3.2°C 26.3°F-3.2°C 63% 3.5 mph N5.6 kmh N 3.5 mph5.6 kmh 29.99 in1015.6 mb - 0.00 in0.0 mm 0.00 in0.0 mm
12:36 PM 37.8°F3.2°C 26.3°F-3.2°C 63% 3.5 mph ESE5.6 kmh ESE 4.6 mph7.4 kmh 29.99 in1015.6 mb - 0.00 in0.0 mm 0.00 in0.0 mm
12:37 PM 37.6°F3.1°C 26.1°F-3.3°C 63% 3.5 mph NW5.6 kmh NW 4.6 mph7.4 kmh 29.98 in1015.2 mb - 0.00 in0.0 mm 0.00 in0.0 mm
12:38 PM 37.4°F3.0°C 26.0°F-3.3°C 63% 4.6 mph N7.4 kmh N 5.8 mph9.3 kmh 29.98 in1015.2 mb - 0.00 in0.0 mm 0.00 in0.0 mm
12:39 PM 37.4°F3.0°C 25.9°F-3.4°C 63% 4.6 mph N7.4 kmh N 4.6 mph7.4 kmh 29.98 in1015.2 mb - 0.00 in0.0 mm 0.00 in0.0 mm
12:40 PM 37.4°F3.0°C 25.9°F-3.4°C 63% 4.6 mph N7.4 kmh N 4.6 mph7.4 kmh 29.98 in1015.2 mb - 0.00 in0.0 mm 0.00 in0.0 mm
12:41 PM 37.4°F3.0°C 25.9°F-3.4°C 63% 3.5 mph N5.6 kmh N 4.6 mph7.4 kmh 29.98 in1015.2 mb - 0.00 in0.0 mm 0.00 in0.0 mm
12:42 PM 37.4°F3.0°C 25.9°F-3.4°C 63% 4.6 mph NW7.4 kmh NW 5.8 mph9.3 kmh 29.98 in1015.2 mb - 0.00 in0.0 mm 0.00 in0.0 mm
12:43 PM 37.4°F3.0°C 25.9°F-3.4°C 63% 4.6 mph NNW7.4 kmh NNW 4.6 mph7.4 kmh 29.98 in1015.2 mb - 0.00 in0.0 mm 0.00 in0.0 mm
12:44 PM 37.4°F3.0°C 25.9°F-3.4°C 63% 3.5 mph N5.6 kmh N 4.6 mph7.4 kmh 29.98 in1015.2 mb - 0.00 in0.0 mm 0.00 in0.0 mm
12:45 PM 37.4°F3.0°C 26.3°F-3.2°C 64% 3.5 mph N5.6 kmh N 4.6 mph7.4 kmh 29.98 in1015.2 mb - 0.00 in0.0 mm 0.00 in0.0 mm
12:46 PM 37.4°F3.0°C 26.3°F-3.2°C 64% 3.5 mph NNE5.6 kmh NNE 4.6 mph7.4 kmh 29.98 in1015.2 mb - 0.00 in0.0 mm 0.00 in0.0 mm
12:47 PM 37.3°F2.9°C 26.2°F-3.2°C 64% 3.5 mph N5.6 kmh N 4.6 mph7.4 kmh 29.98 in1015.2 mb - 0.00 in0.0 mm 0.00 in0.0 mm
12:48 PM 37.2°F2.9°C 26.1°F-3.3°C 64% 2.3 mph W3.7 kmh W 3.5 mph5.6 kmh 29.98 in1015.2 mb - 0.00 in0.0 mm 0.00 in0.0 mm
12:49 PM 37.2°F2.9°C 26.5°F-3.1°C 65% 2.3 mph N3.7 kmh N 3.5 mph5.6 kmh 29.98 in1015.2 mb - 0.00 in0.0 mm 0.00 in0.0 mm
12:50 PM 37.3°F2.9°C 26.6°F-3.0°C 65% 2.3 mph NW3.7 kmh NW 2.3 mph3.7 kmh 29.98 in1015.2 mb - 0.00 in0.0 mm 0.00 in0.0 mm
12:51 PM 37.4°F3.0°C 26.7°F-2.9°C 65% 2.3 mph N3.7 kmh N 4.6 mph7.4 kmh 29.98 in1015.2 mb - 0.00 in0.0 mm 0.00 in0.0 mm
12:52 PM 37.4°F3.0°C 27.1°F-2.7°C 66% 3.5 mph N5.6 kmh N 4.6 mph7.4 kmh 29.98 in1015.2 mb - 0.00 in0.0 mm 0.00 in0.0 mm
12:53 PM 37.4°F3.0°C 26.7°F-2.9°C 65% 3.5 mph N5.6 kmh N 3.5 mph5.6 kmh 29.98 in1015.2 mb - 0.00 in0.0 mm 0.00 in0.0 mm
12:54 PM 37.4°F3.0°C 26.7°F-2.9°C 65% 3.5 mph NW5.6 kmh NW 4.6 mph7.4 kmh 29.98 in1015.2 mb - 0.00 in0.0 mm 0.00 in0.0 mm
12:55 PM 37.4°F3.0°C 26.3°F-3.2°C 64% 3.5 mph NNW5.6 kmh NNW 3.5 mph5.6 kmh 29.98 in1015.2 mb - 0.00 in0.0 mm 0.00 in0.0 mm
12:56 PM 37.4°F3.0°C 26.3°F-3.2°C 64% 3.5 mph NW5.6 kmh NW 3.5 mph5.6 kmh 29.98 in1015.2 mb - 0.00 in0.0 mm 0.00 in0.0 mm
12:57 PM 37.4°F3.0°C 26.7°F-2.9°C 65% 1.2 mph NE1.9 kmh NE 2.3 mph3.7 kmh 29.98 in1015.2 mb - 0.00 in0.0 mm 0.00 in0.0 mm
12:58 PM 37.6°F3.1°C 26.9°F-2.8°C 65% 2.3 mph NNW3.7 kmh NNW 2.3 mph3.7 kmh 29.98 in1015.2 mb - 0.00 in0.0 mm 0.00 in0.0 mm
12:59 PM 37.6°F3.1°C 26.9°F-2.8°C 65% 2.3 mph W3.7 kmh W 3.5 mph5.6 kmh 29.98 in1015.2 mb - 0.00 in0.0 mm 0.00 in0.0 mm
01:00 PM 37.6°F3.1°C 26.9°F-2.8°C 65% 2.3 mph NW3.7 kmh NW 2.3 mph3.7 kmh 29.98 in1015.2 mb - 0.00 in0.0 mm 0.00 in0.0 mm
01:01 PM 37.6°F3.1°C 26.9°F-2.8°C 65% 2.3 mph NNW3.7 kmh NNW 2.3 mph3.7 kmh 29.98 in1015.2 mb - 0.00 in0.0 mm 0.00 in0.0 mm
01:02 PM 37.6°F3.1°C 27.3°F-2.6°C 66% 2.3 mph NNW3.7 kmh NNW 2.3 mph3.7 kmh 29.97 in1014.9 mb - 0.00 in0.0 mm 0.00 in0.0 mm
01:03 PM 37.6°F3.1°C 27.3°F-2.6°C 66% 2.3 mph NNW3.7 kmh NNW 2.3 mph3.7 kmh 29.97 in1014.9 mb - 0.00 in0.0 mm 0.00 in0.0 mm
01:04 PM 37.6°F3.1°C 27.3°F-2.6°C 66% 2.3 mph NE3.7 kmh NE 2.3 mph3.7 kmh 29.97 in1014.9 mb - 0.00 in0.0 mm 0.00 in0.0 mm
01:05 PM 37.6°F3.1°C 27.3°F-2.6°C 66% 2.3 mph N3.7 kmh N 2.3 mph3.7 kmh 29.97 in1014.9 mb - 0.00 in0.0 mm 0.00 in0.0 mm
01:06 PM 37.7°F3.2°C 27.4°F-2.6°C 66% 2.3 mph N3.7 kmh N 3.5 mph5.6 kmh 29.97 in1014.9 mb - 0.00 in0.0 mm 0.00 in0.0 mm
01:07 PM 37.8°F3.2°C 27.5°F-2.5°C 66% 2.3 mph NNE3.7 kmh NNE 3.5 mph5.6 kmh 29.97 in1014.9 mb - 0.00 in0.0 mm 0.00 in0.0 mm
01:08 PM 37.8°F3.2°C 27.5°F-2.5°C 66% 1.2 mph NW1.9 kmh NW 1.2 mph1.9 kmh 29.97 in1014.9 mb - 0.00 in0.0 mm 0.00 in0.0 mm
01:09 PM 37.8°F3.2°C 27.5°F-2.5°C 66% 1.2 mph NW1.9 kmh NW 3.5 mph5.6 kmh 29.97 in1014.9 mb - 0.00 in0.0 mm 0.00 in0.0 mm
01:10 PM 37.9°F3.3°C 27.5°F-2.5°C 66% 2.3 mph NW3.7 kmh NW 4.6 mph7.4 kmh 29.97 in1014.9 mb - 0.00 in0.0 mm 0.00 in0.0 mm
01:11 PM 37.9°F3.3°C 27.6°F-2.4°C 66% 2.3 mph WNW3.7 kmh WNW 2.3 mph3.7 kmh 29.97 in1014.9 mb - 0.00 in0.0 mm 0.00 in0.0 mm
01:12 PM 38.1°F3.4°C 27.7°F-2.4°C 66% 1.2 mph NE1.9 kmh NE 1.2 mph1.9 kmh 29.97 in1014.9 mb - 0.00 in0.0 mm 0.00 in0.0 mm
01:13 PM 38.1°F3.4°C 27.7°F-2.4°C 66% 2.3 mph NW3.7 kmh NW 2.3 mph3.7 kmh 29.97 in1014.9 mb - 0.00 in0.0 mm 0.00 in0.0 mm
01:14 PM 38.1°F3.4°C 27.7°F-2.4°C 66% 2.3 mph NW3.7 kmh NW 3.5 mph5.6 kmh 29.96 in1014.6 mb - 0.00 in0.0 mm 0.00 in0.0 mm
01:15 PM 38.1°F3.4°C 27.7°F-2.4°C 66% 2.3 mph N3.7 kmh N 3.5 mph5.6 kmh 29.96 in1014.6 mb - 0.00 in0.0 mm 0.00 in0.0 mm
01:16 PM 38.1°F3.4°C 27.4°F-2.6°C 65% 2.3 mph N3.7 kmh N 3.5 mph5.6 kmh 29.96 in1014.6 mb - 0.00 in0.0 mm 0.00 in0.0 mm
01:17 PM 38.1°F3.4°C 27.7°F-2.4°C 66% 2.3 mph ENE3.7 kmh ENE 3.5 mph5.6 kmh 29.96 in1014.6 mb - 0.00 in0.0 mm 0.00 in0.0 mm
01:18 PM 38.1°F3.4°C 27.4°F-2.6°C 65% 2.3 mph N3.7 kmh N 3.5 mph5.6 kmh 29.96 in1014.6 mb - 0.00 in0.0 mm 0.00 in0.0 mm
01:19 PM 38.1°F3.4°C 27.0°F-2.8°C 64% 2.3 mph WNW3.7 kmh WNW 2.3 mph3.7 kmh 29.96 in1014.6 mb - 0.00 in0.0 mm 0.00 in0.0 mm
01:20 PM 38.2°F3.4°C 27.1°F-2.7°C 64% 1.2 mph NE1.9 kmh NE 1.2 mph1.9 kmh 29.96 in1014.6 mb - 0.00 in0.0 mm 0.00 in0.0 mm
01:21 PM 38.3°F3.5°C 27.6°F-2.4°C 65% 1.2 mph NE1.9 kmh NE 2.3 mph3.7 kmh 29.96 in1014.6 mb - 0.00 in0.0 mm 0.00 in0.0 mm
01:22 PM 38.3°F3.5°C 27.2°F-2.7°C 64% 2.3 mph NNE3.7 kmh NNE 4.6 mph7.4 kmh 29.96 in1014.6 mb - 0.00 in0.0 mm 0.00 in0.0 mm
01:23 PM 38.3°F3.5°C 27.2°F-2.7°C 64% 4.6 mph NNW7.4 kmh NNW 5.8 mph9.3 kmh 29.96 in1014.6 mb - 0.00 in0.0 mm 0.00 in0.0 mm
01:24 PM 38.3°F3.5°C 27.2°F-2.7°C 64% 3.5 mph N5.6 kmh N 2.3 mph3.7 kmh 29.96 in1014.6 mb - 0.00 in0.0 mm 0.00 in0.0 mm
01:25 PM 38.3°F3.5°C 27.2°F-2.7°C 64% 2.3 mph NNE3.7 kmh NNE 2.3 mph3.7 kmh 29.96 in1014.6 mb - 0.00 in0.0 mm 0.00 in0.0 mm
01:26 PM 38.3°F3.5°C 27.2°F-2.7°C 64% 2.3 mph N3.7 kmh N 2.3 mph3.7 kmh 29.96 in1014.6 mb - 0.00 in0.0 mm 0.00 in0.0 mm
01:27 PM 38.3°F3.5°C 27.2°F-2.7°C 64% 2.3 mph NNE3.7 kmh NNE 2.3 mph3.7 kmh 29.96 in1014.6 mb - 0.00 in0.0 mm 0.00 in0.0 mm
01:28 PM 38.3°F3.5°C 27.6°F-2.4°C 65% 1.2 mph WNW1.9 kmh WNW 1.2 mph1.9 kmh 29.96 in1014.6 mb - 0.00 in0.0 mm 0.00 in0.0 mm
01:29 PM 38.3°F3.5°C 27.6°F-2.4°C 65% Calm Calm 1.2 mph1.9 kmh 29.96 in1014.6 mb - 0.00 in0.0 mm 0.00 in0.0 mm
01:30 PM 38.4°F3.6°C 27.6°F-2.4°C 65% Calm Calm 2.3 mph3.7 kmh 29.96 in1014.6 mb - 0.00 in0.0 mm 0.00 in0.0 mm
01:31 PM 38.5°F3.6°C 27.7°F-2.4°C 65% 1.2 mph N1.9 kmh N 1.2 mph1.9 kmh 29.96 in1014.6 mb - 0.00 in0.0 mm 0.00 in0.0 mm
01:32 PM 38.5°F3.6°C 27.7°F-2.4°C 65% 1.2 mph N1.9 kmh N 2.3 mph3.7 kmh 29.96 in1014.6 mb - 0.00 in0.0 mm 0.00 in0.0 mm
01:33 PM 38.6°F3.7°C 27.8°F-2.3°C 65% 2.3 mph N3.7 kmh N 2.3 mph3.7 kmh 29.96 in1014.6 mb - 0.00 in0.0 mm 0.00 in0.0 mm
01:34 PM 38.7°F3.7°C 27.9°F-2.3°C 65% 2.3 mph N3.7 kmh N 1.2 mph1.9 kmh 29.96 in1014.6 mb - 0.00 in0.0 mm 0.00 in0.0 mm
01:35 PM 38.7°F3.7°C 27.6°F-2.4°C 64% 1.2 mph NE1.9 kmh NE 1.2 mph1.9 kmh 29.96 in1014.6 mb - 0.00 in0.0 mm 0.00 in0.0 mm
01:36 PM 38.8°F3.8°C 27.6°F-2.4°C 64% 1.2 mph NE1.9 kmh NE 2.3 mph3.7 kmh 29.96 in1014.6 mb - 0.00 in0.0 mm 0.00 in0.0 mm
01:37 PM 38.8°F3.8°C 27.7°F-2.4°C 64% 2.3 mph W3.7 kmh W 2.3 mph3.7 kmh 29.95 in1014.2 mb - 0.00 in0.0 mm 0.00 in0.0 mm
01:38 PM 38.8°F3.8°C 27.7°F-2.4°C 64% 2.3 mph NW3.7 kmh NW 2.3 mph3.7 kmh 29.95 in1014.2 mb - 0.00 in0.0 mm 0.00 in0.0 mm
01:39 PM 38.8°F3.8°C 27.7°F-2.4°C 64% 1.2 mph NNW1.9 kmh NNW 2.3 mph3.7 kmh 29.95 in1014.2 mb - 0.00 in0.0 mm 0.00 in0.0 mm
01:40 PM 38.8°F3.8°C 27.7°F-2.4°C 64% 2.3 mph WSW3.7 kmh WSW 3.5 mph5.6 kmh 29.95 in1014.2 mb - 0.00 in0.0 mm 0.00 in0.0 mm
01:41 PM 38.8°F3.8°C 27.7°F-2.4°C 64% 3.5 mph W5.6 kmh W 3.5 mph5.6 kmh 29.95 in1014.2 mb - 0.00 in0.0 mm 0.00 in0.0 mm
01:42 PM 38.8°F3.8°C 27.7°F-2.4°C 64% 2.3 mph W3.7 kmh W 2.3 mph3.7 kmh 29.95 in1014.2 mb - 0.00 in0.0 mm 0.00 in0.0 mm
01:43 PM 38.8°F3.8°C 27.7°F-2.4°C 64% 2.3 mph WNW3.7 kmh WNW 3.5 mph5.6 kmh 29.95 in1014.2 mb - 0.00 in0.0 mm 0.00 in0.0 mm
01:44 PM 38.8°F3.8°C 27.7°F-2.4°C 64% 2.3 mph W3.7 kmh W 3.5 mph5.6 kmh 29.95 in1014.2 mb - 0.00 in0.0 mm 0.00 in0.0 mm
01:45 PM 38.8°F3.8°C 27.7°F-2.4°C 64% 2.3 mph WSW3.7 kmh WSW 3.5 mph5.6 kmh 29.95 in1014.2 mb - 0.00 in0.0 mm 0.00 in0.0 mm
01:46 PM 38.8°F3.8°C 27.7°F-2.4°C 64% 2.3 mph W3.7 kmh W 3.5 mph5.6 kmh 29.95 in1014.2 mb - 0.00 in0.0 mm 0.00 in0.0 mm
01:47 PM 39.0°F3.9°C 27.4°F-2.6°C 63% 2.3 mph W3.7 kmh W 2.3 mph3.7 kmh 29.95 in1014.2 mb - 0.00 in0.0 mm 0.00 in0.0 mm
01:48 PM 39.0°F3.9°C 27.8°F-2.3°C 64% 1.2 mph NW1.9 kmh NW 2.3 mph3.7 kmh 29.95 in1014.2 mb - 0.00 in0.0 mm 0.00 in0.0 mm
01:49 PM 39.0°F3.9°C 27.8°F-2.3°C 64% 2.3 mph W3.7 kmh W 4.6 mph7.4 kmh 29.95 in1014.2 mb - 0.00 in0.0 mm 0.00 in0.0 mm
01:50 PM 39.0°F3.9°C 27.5°F-2.5°C 63% 3.5 mph NW5.6 kmh NW 4.6 mph7.4 kmh 29.95 in1014.2 mb - 0.00 in0.0 mm 0.00 in0.0 mm
01:51 PM 39.0°F3.9°C 27.5°F-2.5°C 63% 2.3 mph WNW3.7 kmh WNW 3.5 mph5.6 kmh 29.95 in1014.2 mb - 0.00 in0.0 mm 0.00 in0.0 mm
01:52 PM 39.0°F3.9°C 27.5°F-2.5°C 63% 2.3 mph W3.7 kmh W 2.3 mph3.7 kmh 29.95 in1014.2 mb - 0.00 in0.0 mm 0.00 in0.0 mm
01:53 PM 39.0°F3.9°C 27.5°F-2.5°C 63% 2.3 mph WSW3.7 kmh WSW 2.3 mph3.7 kmh 29.95 in1014.2 mb - 0.00 in0.0 mm 0.00 in0.0 mm
01:54 PM 39.0°F3.9°C 27.8°F-2.3°C 64% 2.3 mph W3.7 kmh W 2.3 mph3.7 kmh 29.95 in1014.2 mb - 0.00 in0.0 mm 0.00 in0.0 mm
01:55 PM 39.0°F3.9°C 27.5°F-2.5°C 63% 2.3 mph E3.7 kmh E 2.3 mph3.7 kmh 29.95 in1014.2 mb - 0.00 in0.0 mm 0.00 in0.0 mm
01:56 PM 39.1°F3.9°C 28.4°F-2.0°C 65% Calm Calm 2.3 mph3.7 kmh 29.95 in1014.2 mb - 0.00 in0.0 mm 0.00 in0.0 mm
01:57 PM 39.2°F4.0°C 28.4°F-2.0°C 65% 1.2 mph NNW1.9 kmh NNW 2.3 mph3.7 kmh 29.95 in1014.2 mb - 0.00 in0.0 mm 0.00 in0.0 mm
01:58 PM 39.2°F4.0°C 28.4°F-2.0°C 65% 2.3 mph NE3.7 kmh NE 2.3 mph3.7 kmh 29.95 in1014.2 mb - 0.00 in0.0 mm 0.00 in0.0 mm
01:59 PM 39.2°F4.0°C 28.4°F-2.0°C 65% 2.3 mph NNE3.7 kmh NNE 2.3 mph3.7 kmh 29.95 in1014.2 mb - 0.00 in0.0 mm 0.00 in0.0 mm
02:00 PM 39.2°F4.0°C 28.4°F-2.0°C 65% 2.3 mph N3.7 kmh N 2.3 mph3.7 kmh 29.95 in1014.2 mb - 0.00 in0.0 mm 0.00 in0.0 mm
02:01 PM 39.3°F4.1°C 28.5°F-1.9°C 65% 2.3 mph NW3.7 kmh NW 2.3 mph3.7 kmh 29.95 in1014.2 mb - 0.00 in0.0 mm 0.00 in0.0 mm
02:02 PM 39.4°F4.1°C 28.6°F-1.9°C 65% 1.2 mph NW1.9 kmh NW 1.2 mph1.9 kmh 29.94 in1013.9 mb - 0.00 in0.0 mm 0.00 in0.0 mm
02:03 PM 39.4°F4.1°C 27.8°F-2.3°C 63% 1.2 mph NW1.9 kmh NW 2.3 mph3.7 kmh 29.94 in1013.9 mb - 0.00 in0.0 mm 0.00 in0.0 mm
02:04 PM 39.4°F4.1°C 27.8°F-2.3°C 63% 2.3 mph W3.7 kmh W 2.3 mph3.7 kmh 29.94 in1013.9 mb - 0.00 in0.0 mm 0.00 in0.0 mm
02:05 PM 39.4°F4.1°C 27.8°F-2.3°C 63% 2.3 mph SSE3.7 kmh SSE 2.3 mph3.7 kmh 29.94 in1013.9 mb - 0.00 in0.0 mm 0.00 in0.0 mm
02:06 PM 39.4°F4.1°C 27.8°F-2.3°C 63% 1.2 mph S1.9 kmh S 2.3 mph3.7 kmh 29.94 in1013.9 mb - 0.00 in0.0 mm 0.00 in0.0 mm
02:07 PM 39.4°F4.1°C 28.2°F-2.1°C 64% 1.2 mph N1.9 kmh N 2.3 mph3.7 kmh 29.94 in1013.9 mb - 0.00 in0.0 mm 0.00 in0.0 mm
02:08 PM 39.4°F4.1°C 27.8°F-2.3°C 63% 2.3 mph N3.7 kmh N 2.3 mph3.7 kmh 29.94 in1013.9 mb - 0.00 in0.0 mm 0.00 in0.0 mm
02:09 PM 39.5°F4.2°C 28.4°F-2.0°C 64% 1.2 mph NW1.9 kmh NW 1.2 mph1.9 kmh 29.94 in1013.9 mb - 0.00 in0.0 mm 0.00 in0.0 mm
02:10 PM 39.6°F4.2°C 28.4°F-2.0°C 64% 1.2 mph NW1.9 kmh NW 2.3 mph3.7 kmh 29.94 in1013.9 mb - 0.00 in0.0 mm 0.00 in0.0 mm
02:11 PM 39.6°F4.2°C 27.6°F-2.4°C 62% 2.3 mph NW3.7 kmh NW 2.3 mph3.7 kmh 29.94 in1013.9 mb - 0.00 in0.0 mm 0.00 in0.0 mm
02:12 PM 39.6°F4.2°C 27.6°F-2.4°C 62% Calm Calm -- 29.94 in1013.9 mb - 0.00 in0.0 mm 0.00 in0.0 mm
02:13 PM 39.6°F4.2°C 27.7°F-2.4°C 62% Calm Calm -- 29.94 in1013.9 mb - 0.00 in0.0 mm 0.00 in0.0 mm
02:14 PM 39.7°F4.3°C 28.1°F-2.2°C 63% Calm Calm 1.2 mph1.9 kmh 29.94 in1013.9 mb - 0.00 in0.0 mm 0.00 in0.0 mm
02:15 PM 39.7°F4.3°C 28.1°F-2.2°C 63% 1.2 mph NW1.9 kmh NW 2.3 mph3.7 kmh 29.94 in1013.9 mb - 0.00 in0.0 mm 0.00 in0.0 mm
02:16 PM 39.7°F4.3°C 28.1°F-2.2°C 63% 1.2 mph NW1.9 kmh NW 2.3 mph3.7 kmh 29.94 in1013.9 mb - 0.00 in0.0 mm 0.00 in0.0 mm
02:17 PM 39.7°F4.3°C 28.1°F-2.2°C 63% 2.3 mph NNW3.7 kmh NNW 1.2 mph1.9 kmh 29.94 in1013.9 mb - 0.00 in0.0 mm 0.00 in0.0 mm
02:18 PM 39.7°F4.3°C 28.5°F-1.9°C 64% 1.2 mph W1.9 kmh W 2.3 mph3.7 kmh 29.94 in1013.9 mb - 0.00 in0.0 mm 0.00 in0.0 mm
02:19 PM 39.7°F4.3°C 27.7°F-2.4°C 62% 2.3 mph N3.7 kmh N 2.3 mph3.7 kmh 29.94 in1013.9 mb - 0.00 in0.0 mm 0.00 in0.0 mm
02:20 PM 39.7°F4.3°C 27.7°F-2.4°C 62% 1.2 mph NW1.9 kmh NW 1.2 mph1.9 kmh 29.94 in1013.9 mb - 0.00 in0.0 mm 0.00 in0.0 mm
02:21 PM 39.7°F4.3°C 27.7°F-2.4°C 62% 1.2 mph NNW1.9 kmh NNW 2.3 mph3.7 kmh 29.94 in1013.9 mb - 0.00 in0.0 mm 0.00 in0.0 mm
02:22 PM 39.7°F4.3°C 27.7°F-2.4°C 62% 2.3 mph WNW3.7 kmh WNW 1.2 mph1.9 kmh 29.94 in1013.9 mb - 0.00 in0.0 mm 0.00 in0.0 mm
02:23 PM 39.7°F4.3°C 27.7°F-2.4°C 62% 1.2 mph W1.9 kmh W 1.2 mph1.9 kmh 29.94 in1013.9 mb - 0.00 in0.0 mm 0.00 in0.0 mm
02:24 PM 39.7°F4.3°C 27.7°F-2.4°C 62% 1.2 mph WNW1.9 kmh WNW 1.2 mph1.9 kmh 29.94 in1013.9 mb - 0.00 in0.0 mm 0.00 in0.0 mm
02:25 PM 39.7°F4.3°C 28.1°F-2.2°C 63% 1.2 mph N1.9 kmh N 1.2 mph1.9 kmh 29.94 in1013.9 mb - 0.00 in0.0 mm 0.00 in0.0 mm
02:26 PM 39.7°F4.3°C 28.1°F-2.2°C 63% 1.2 mph WNW1.9 kmh WNW 2.3 mph3.7 kmh 29.94 in1013.9 mb - 0.00 in0.0 mm 0.00 in0.0 mm
02:27 PM 39.7°F4.3°C 27.7°F-2.4°C 62% 2.3 mph WNW3.7 kmh WNW 3.5 mph5.6 kmh 29.94 in1013.9 mb - 0.00 in0.0 mm 0.00 in0.0 mm
02:28 PM 39.7°F4.3°C 27.7°F-2.4°C 62% 3.5 mph WNW5.6 kmh WNW 3.5 mph5.6 kmh 29.94 in1013.9 mb - 0.00 in0.0 mm 0.00 in0.0 mm
02:29 PM 39.6°F4.2°C 27.6°F-2.4°C 62% 2.3 mph NW3.7 kmh NW 2.3 mph3.7 kmh 29.94 in1013.9 mb - 0.00 in0.0 mm 0.00 in0.0 mm
02:30 PM 39.6°F4.2°C 27.6°F-2.4°C 62% 2.3 mph NW3.7 kmh NW 3.5 mph5.6 kmh 29.94 in1013.9 mb - 0.00 in0.0 mm 0.00 in0.0 mm
02:31 PM 39.6°F4.2°C 27.6°F-2.4°C 62% 3.5 mph NW5.6 kmh NW 3.5 mph5.6 kmh 29.94 in1013.9 mb - 0.00 in0.0 mm 0.00 in0.0 mm
02:32 PM 39.6°F4.2°C 28.4°F-2.0°C 64% 2.3 mph WSW3.7 kmh WSW 2.3 mph3.7 kmh 29.94 in1013.9 mb - 0.00 in0.0 mm 0.00 in0.0 mm
02:33 PM 39.6°F4.2°C 28.4°F-2.0°C 64% 2.3 mph NW3.7 kmh NW 2.3 mph3.7 kmh 29.94 in1013.9 mb - 0.00 in0.0 mm 0.00 in0.0 mm
02:34 PM 39.6°F4.2°C 28.4°F-2.0°C 64% 2.3 mph N3.7 kmh N 3.5 mph5.6 kmh 29.94 in1013.9 mb - 0.00 in0.0 mm 0.00 in0.0 mm
02:35 PM 39.6°F4.2°C 28.0°F-2.2°C 63% 3.5 mph NNW5.6 kmh NNW 3.5 mph5.6 kmh 29.94 in1013.9 mb - 0.00 in0.0 mm 0.00 in0.0 mm
02:36 PM 39.5°F4.2°C 27.9°F-2.3°C 63% 3.5 mph NW5.6 kmh NW 3.5 mph5.6 kmh 29.94 in1013.9 mb - 0.00 in0.0 mm 0.00 in0.0 mm
02:37 PM 39.4°F4.1°C 27.5°F-2.5°C 62% 3.5 mph NW5.6 kmh NW 3.5 mph5.6 kmh 29.94 in1013.9 mb - 0.00 in0.0 mm 0.00 in0.0 mm
02:38 PM 39.4°F4.1°C 27.8°F-2.3°C 63% 2.3 mph NW3.7 kmh NW 4.6 mph7.4 kmh 29.94 in1013.9 mb - 0.00 in0.0 mm 0.00 in0.0 mm
02:39 PM 39.4°F4.1°C 27.8°F-2.3°C 63% 3.5 mph NNW5.6 kmh NNW 3.5 mph5.6 kmh 29.94 in1013.9 mb - 0.00 in0.0 mm 0.00 in0.0 mm
02:40 PM 39.4°F4.1°C 27.8°F-2.3°C 63% 2.3 mph N3.7 kmh N 3.5 mph5.6 kmh 29.94 in1013.9 mb - 0.00 in0.0 mm 0.00 in0.0 mm
02:41 PM 39.4°F4.1°C 27.8°F-2.3°C 63% 3.5 mph WNW5.6 kmh WNW 3.5 mph5.6 kmh 29.94 in1013.9 mb - 0.00 in0.0 mm 0.00 in0.0 mm
02:42 PM 39.4°F4.1°C 27.8°F-2.3°C 63% 3.5 mph NW5.6 kmh NW 4.6 mph7.4 kmh 29.94 in1013.9 mb - 0.00 in0.0 mm 0.00 in0.0 mm
02:43 PM 39.4°F4.1°C 27.8°F-2.3°C 63% 3.5 mph W5.6 kmh W 3.5 mph5.6 kmh 29.94 in1013.9 mb - 0.00 in0.0 mm 0.00 in0.0 mm
02:44 PM 39.4°F4.1°C 27.8°F-2.3°C 63% 2.3 mph WSW3.7 kmh WSW 3.5 mph5.6 kmh 29.94 in1013.9 mb - 0.00 in0.0 mm 0.00 in0.0 mm
02:45 PM 39.4°F4.1°C 28.2°F-2.1°C 64% 2.3 mph N3.7 kmh N 3.5 mph5.6 kmh 29.94 in1013.9 mb - 0.00 in0.0 mm 0.00 in0.0 mm
02:46 PM 39.4°F4.1°C 28.2°F-2.1°C 64% 2.3 mph NNW3.7 kmh NNW 1.2 mph1.9 kmh 29.94 in1013.9 mb - 0.00 in0.0 mm 0.00 in0.0 mm
02:47 PM 39.5°F4.2°C 28.4°F-2.0°C 64% 1.2 mph WNW1.9 kmh WNW 2.3 mph3.7 kmh 29.94 in1013.9 mb - 0.00 in0.0 mm 0.00 in0.0 mm
02:48 PM 39.6°F4.2°C 28.8°F-1.8°C 65% 2.3 mph WNW3.7 kmh WNW 3.5 mph5.6 kmh 29.94 in1013.9 mb - 0.00 in0.0 mm 0.00 in0.0 mm
02:49 PM 39.6°F4.2°C 28.8°F-1.8°C 65% 2.3 mph W3.7 kmh W 2.3 mph3.7 kmh 29.94 in1013.9 mb - 0.00 in0.0 mm 0.00 in0.0 mm
02:50 PM 39.6°F4.2°C 28.8°F-1.8°C 65% 2.3 mph N3.7 kmh N 2.3 mph3.7 kmh 29.94 in1013.9 mb - 0.00 in0.0 mm 0.00 in0.0 mm
02:51 PM 39.6°F4.2°C 28.8°F-1.8°C 65% 2.3 mph NW3.7 kmh NW 2.3 mph3.7 kmh 29.94 in1013.9 mb - 0.00 in0.0 mm 0.00 in0.0 mm
02:52 PM 39.7°F4.3°C 28.9°F-1.7°C 65% 2.3 mph W3.7 kmh W 3.5 mph5.6 kmh 29.94 in1013.9 mb - 0.00 in0.0 mm 0.00 in0.0 mm
02:53 PM 39.7°F4.3°C 28.9°F-1.7°C 65% 2.3 mph W3.7 kmh W 3.5 mph5.6 kmh 29.94 in1013.9 mb - 0.00 in0.0 mm 0.00 in0.0 mm
02:54 PM 39.7°F4.3°C 28.9°F-1.7°C 65% 1.2 mph W1.9 kmh W 2.3 mph3.7 kmh 29.94 in1013.9 mb - 0.00 in0.0 mm 0.00 in0.0 mm
02:55 PM 39.7°F4.3°C 28.9°F-1.7°C 65% 2.3 mph NW3.7 kmh NW 2.3 mph3.7 kmh 29.94 in1013.9 mb - 0.00 in0.0 mm 0.00 in0.0 mm
02:56 PM 39.7°F4.3°C 28.5°F-1.9°C 64% 2.3 mph N3.7 kmh N 2.3 mph3.7 kmh 29.94 in1013.9 mb - 0.00 in0.0 mm 0.00 in0.0 mm
02:57 PM 39.7°F4.3°C 28.1°F-2.2°C 63% 2.3 mph NW3.7 kmh NW 3.5 mph5.6 kmh 29.94 in1013.9 mb - 0.00 in0.0 mm 0.00 in0.0 mm
02:58 PM 39.7°F4.3°C 27.7°F-2.4°C 62% 3.5 mph W5.6 kmh W 3.5 mph5.6 kmh 29.94 in1013.9 mb - 0.00 in0.0 mm 0.00 in0.0 mm
02:59 PM 39.6°F4.2°C 27.2°F-2.7°C 61% 2.3 mph WSW3.7 kmh WSW 2.3 mph3.7 kmh 29.94 in1013.9 mb - 0.00 in0.0 mm 0.00 in0.0 mm
03:00 PM 39.6°F4.2°C 27.2°F-2.7°C 61% 2.3 mph WNW3.7 kmh WNW 2.3 mph3.7 kmh 29.94 in1013.9 mb - 0.00 in0.0 mm 0.00 in0.0 mm
03:01 PM 39.6°F4.2°C 27.6°F-2.4°C 62% 2.3 mph NW3.7 kmh NW 2.3 mph3.7 kmh 29.93 in1013.5 mb - 0.00 in0.0 mm 0.00 in0.0 mm
03:02 PM 39.6°F4.2°C 27.6°F-2.4°C 62% 2.3 mph NW3.7 kmh NW 2.3 mph3.7 kmh 29.92 in1013.2 mb - 0.00 in0.0 mm 0.00 in0.0 mm
03:03 PM 39.6°F4.2°C 27.2°F-2.7°C 61% 2.3 mph NW3.7 kmh NW 2.3 mph3.7 kmh 29.92 in1013.2 mb - 0.00 in0.0 mm 0.00 in0.0 mm
03:04 PM 39.7°F4.3°C 27.7°F-2.4°C 62% 1.2 mph NNW1.9 kmh NNW 1.2 mph1.9 kmh 29.92 in1013.2 mb - 0.00 in0.0 mm 0.00 in0.0 mm
03:05 PM 39.7°F4.3°C 28.1°F-2.2°C 63% Calm Calm 2.3 mph3.7 kmh 29.92 in1013.2 mb - 0.00 in0.0 mm 0.00 in0.0 mm
03:06 PM 39.7°F4.3°C 27.7°F-2.4°C 62% 2.3 mph NW3.7 kmh NW 2.3 mph3.7 kmh 29.92 in1013.2 mb - 0.00 in0.0 mm 0.00 in0.0 mm
03:07 PM 39.7°F4.3°C 27.7°F-2.4°C 62% 2.3 mph WSW3.7 kmh WSW 2.3 mph3.7 kmh 29.92 in1013.2 mb - 0.00 in0.0 mm 0.00 in0.0 mm
03:08 PM 39.7°F4.3°C 28.1°F-2.2°C 63% 1.2 mph WNW1.9 kmh WNW 2.3 mph3.7 kmh 29.92 in1013.2 mb - 0.00 in0.0 mm 0.00 in0.0 mm
03:09 PM 39.7°F4.3°C 28.1°F-2.2°C 63% 1.2 mph NW1.9 kmh NW 2.3 mph3.7 kmh 29.92 in1013.2 mb - 0.00 in0.0 mm 0.00 in0.0 mm
03:10 PM 39.8°F4.3°C 28.2°F-2.1°C 63% 2.3 mph WNW3.7 kmh WNW 2.3 mph3.7 kmh 29.92 in1013.2 mb - 0.00 in0.0 mm 0.00 in0.0 mm
03:11 PM 39.9°F4.4°C 28.3°F-2.1°C 63% 1.2 mph SW1.9 kmh SW 2.3 mph3.7 kmh 29.92 in1013.2 mb - 0.00 in0.0 mm 0.00 in0.0 mm
03:12 PM 40.0°F4.4°C 28.0°F-2.2°C 62% 1.2 mph WNW1.9 kmh WNW -- 29.92 in1013.2 mb - 0.00 in0.0 mm 0.00 in0.0 mm
03:13 PM 40.1°F4.5°C 28.1°F-2.2°C 62% Calm Calm 1.2 mph1.9 kmh 29.92 in1013.2 mb - 0.00 in0.0 mm 0.00 in0.0 mm
03:14 PM 40.1°F4.5°C 28.1°F-2.2°C 62% 1.2 mph N1.9 kmh N 2.3 mph3.7 kmh 29.92 in1013.2 mb - 0.00 in0.0 mm 0.00 in0.0 mm
03:15 PM 40.2°F4.6°C 28.6°F-1.9°C 63% 1.2 mph N1.9 kmh N -- 29.92 in1013.2 mb - 0.00 in0.0 mm 0.00 in0.0 mm
03:16 PM 40.3°F4.6°C 28.7°F-1.8°C 63% Calm Calm 1.2 mph1.9 kmh 29.92 in1013.2 mb - 0.00 in0.0 mm 0.00 in0.0 mm
03:17 PM 40.3°F4.6°C 28.7°F-1.8°C 63% Calm Calm 1.2 mph1.9 kmh 29.92 in1013.2 mb - 0.00 in0.0 mm 0.00 in0.0 mm
03:18 PM 40.3°F4.6°C 28.7°F-1.8°C 63% Calm Calm 2.3 mph3.7 kmh 29.92 in1013.2 mb - 0.00 in0.0 mm 0.00 in0.0 mm
03:19 PM 40.3°F4.6°C 28.3°F-2.1°C 62% 1.2 mph WNW1.9 kmh WNW 2.3 mph3.7 kmh 29.92 in1013.2 mb - 0.00 in0.0 mm 0.00 in0.0 mm
03:20 PM 40.3°F4.6°C 28.7°F-1.8°C 63% 1.2 mph NW1.9 kmh NW 2.3 mph3.7 kmh 29.92 in1013.2 mb - 0.00 in0.0 mm 0.00 in0.0 mm
03:21 PM 40.3°F4.6°C 28.7°F-1.8°C 63% 1.2 mph E1.9 kmh E 2.3 mph3.7 kmh 29.92 in1013.2 mb - 0.00 in0.0 mm 0.00 in0.0 mm
03:22 PM 40.6°F4.8°C 28.9°F-1.7°C 63% Calm Calm 1.2 mph1.9 kmh 29.92 in1013.2 mb - 0.00 in0.0 mm 0.00 in0.0 mm
03:23 PM 40.6°F4.8°C 28.6°F-1.9°C 62% 1.2 mph 1.9 kmh 2.3 mph3.7 kmh 29.92 in1013.2 mb - 0.00 in0.0 mm 0.00 in0.0 mm
03:24 PM 40.6°F4.8°C 27.8°F-2.3°C 60% 1.2 mph NE1.9 kmh NE 1.2 mph1.9 kmh 29.92 in1013.2 mb - 0.00 in0.0 mm 0.00 in0.0 mm
03:25 PM 40.6°F4.8°C 27.8°F-2.3°C 60% 1.2 mph NNE1.9 kmh NNE 1.2 mph1.9 kmh 29.92 in1013.2 mb - 0.00 in0.0 mm 0.00 in0.0 mm
03:26 PM 40.6°F4.8°C 28.2°F-2.1°C 61% Calm Calm -- 29.91 in1012.9 mb - 0.00 in0.0 mm 0.00 in0.0 mm
03:27 PM 40.5°F4.7°C 27.7°F-2.4°C 60% Calm Calm -- 29.91 in1012.9 mb - 0.00 in0.0 mm 0.00 in0.0 mm
03:28 PM 40.5°F4.7°C 27.3°F-2.6°C 59% Calm Calm -- 29.91 in1012.9 mb - 0.00 in0.0 mm 0.00 in0.0 mm
03:29 PM 40.5°F4.7°C 27.7°F-2.4°C 60% 1.2 mph N1.9 kmh N 4.6 mph7.4 kmh 29.91 in1012.9 mb - 0.00 in0.0 mm 0.00 in0.0 mm
03:30 PM 40.5°F4.7°C 27.7°F-2.4°C 60% 2.3 mph WNW3.7 kmh WNW 2.3 mph3.7 kmh 29.91 in1012.9 mb - 0.00 in0.0 mm 0.00 in0.0 mm
03:31 PM 40.5°F4.7°C 27.3°F-2.6°C 59% 2.3 mph N3.7 kmh N 2.3 mph3.7 kmh 29.91 in1012.9 mb - 0.00 in0.0 mm 0.00 in0.0 mm
03:32 PM 40.5°F4.7°C 27.7°F-2.4°C 60% 2.3 mph N3.7 kmh N 2.3 mph3.7 kmh 29.91 in1012.9 mb - 0.00 in0.0 mm 0.00 in0.0 mm
03:33 PM 40.5°F4.7°C 27.7°F-2.4°C 60% 2.3 mph NW3.7 kmh NW 1.2 mph1.9 kmh 29.91 in1012.9 mb - 0.00 in0.0 mm 0.00 in0.0 mm
03:34 PM 40.6°F4.8°C 27.8°F-2.3°C 60% 2.3 mph NW3.7 kmh NW 3.5 mph5.6 kmh 29.91 in1012.9 mb - 0.00 in0.0 mm 0.00 in0.0 mm
03:35 PM 40.6°F4.8°C 27.4°F-2.6°C 59% 3.5 mph N5.6 kmh N 3.5 mph5.6 kmh 29.91 in1012.9 mb - 0.00 in0.0 mm 0.00 in0.0 mm
03:36 PM 40.6°F4.8°C 27.4°F-2.6°C 59% 3.5 mph WNW5.6 kmh WNW 4.6 mph7.4 kmh 29.91 in1012.9 mb - 0.00 in0.0 mm 0.00 in0.0 mm
03:37 PM 40.6°F4.8°C 27.0°F-2.8°C 58% 3.5 mph NNW5.6 kmh NNW 3.5 mph5.6 kmh 29.91 in1012.9 mb - 0.00 in0.0 mm 0.00 in0.0 mm
03:38 PM 40.5°F4.7°C 26.9°F-2.8°C 58% 2.3 mph NW3.7 kmh NW 3.5 mph5.6 kmh 29.91 in1012.9 mb - 0.00 in0.0 mm 0.00 in0.0 mm
03:39 PM 40.5°F4.7°C 27.3°F-2.6°C 59% 2.3 mph NNW3.7 kmh NNW 2.3 mph3.7 kmh 29.91 in1012.9 mb - 0.00 in0.0 mm 0.00 in0.0 mm
03:40 PM 40.5°F4.7°C 26.9°F-2.8°C 58% 2.3 mph NW3.7 kmh NW 3.5 mph5.6 kmh 29.91 in1012.9 mb - 0.00 in0.0 mm 0.00 in0.0 mm
03:41 PM 40.5°F4.7°C 26.9°F-2.8°C 58% 2.3 mph NNW3.7 kmh NNW 4.6 mph7.4 kmh 29.91 in1012.9 mb - 0.00 in0.0 mm 0.00 in0.0 mm
03:42 PM 40.5°F4.7°C 26.4°F-3.1°C 57% 3.5 mph WNW5.6 kmh WNW 4.6 mph7.4 kmh 29.91 in1012.9 mb - 0.00 in0.0 mm 0.00 in0.0 mm
03:43 PM 40.4°F4.7°C 26.4°F-3.1°C 57% 2.3 mph WSW3.7 kmh WSW 2.3 mph3.7 kmh 29.91 in1012.9 mb - 0.00 in0.0 mm 0.00 in0.0 mm
03:44 PM 40.3°F4.6°C 27.1°F-2.7°C 59% 1.2 mph SW1.9 kmh SW 2.3 mph3.7 kmh 29.91 in1012.9 mb - 0.00 in0.0 mm 0.00 in0.0 mm
03:45 PM 40.3°F4.6°C 27.1°F-2.7°C 59% 2.3 mph NW3.7 kmh NW 3.5 mph5.6 kmh 29.91 in1012.9 mb - 0.00 in0.0 mm 0.00 in0.0 mm
03:46 PM 40.3°F4.6°C 27.1°F-2.7°C 59% 2.3 mph NNW3.7 kmh NNW 2.3 mph3.7 kmh 29.91 in1012.9 mb - 0.00 in0.0 mm 0.00 in0.0 mm
03:47 PM 40.3°F4.6°C 27.1°F-2.7°C 59% 2.3 mph W3.7 kmh W 3.5 mph5.6 kmh 29.91 in1012.9 mb - 0.00 in0.0 mm 0.00 in0.0 mm
03:48 PM 40.3°F4.6°C 27.5°F-2.5°C 60% 2.3 mph NW3.7 kmh NW 3.5 mph5.6 kmh 29.91 in1012.9 mb - 0.00 in0.0 mm 0.00 in0.0 mm
03:49 PM 40.3°F4.6°C 27.9°F-2.3°C 61% 2.3 mph N3.7 kmh N 2.3 mph3.7 kmh 29.92 in1013.2 mb - 0.00 in0.0 mm 0.00 in0.0 mm
03:50 PM 40.3°F4.6°C 27.9°F-2.3°C 61% 2.3 mph N3.7 kmh N 3.5 mph5.6 kmh 29.92 in1013.2 mb - 0.00 in0.0 mm 0.00 in0.0 mm
03:51 PM 40.3°F4.6°C 28.3°F-2.1°C 62% 2.3 mph NW3.7 kmh NW 3.5 mph5.6 kmh 29.92 in1013.2 mb - 0.00 in0.0 mm 0.00 in0.0 mm
03:52 PM 40.3°F4.6°C 28.7°F-1.8°C 63% 2.3 mph WNW3.7 kmh WNW 3.5 mph5.6 kmh 29.92 in1013.2 mb - 0.00 in0.0 mm 0.00 in0.0 mm
03:53 PM 40.3°F4.6°C 29.1°F-1.6°C 64% 2.3 mph NW3.7 kmh NW 3.5 mph5.6 kmh 29.92 in1013.2 mb - 0.00 in0.0 mm 0.00 in0.0 mm
03:54 PM 40.3°F4.6°C 29.5°F-1.4°C 65% 2.3 mph NW3.7 kmh NW 2.3 mph3.7 kmh 29.92 in1013.2 mb - 0.00 in0.0 mm 0.00 in0.0 mm
03:55 PM 40.3°F4.6°C 29.1°F-1.6°C 64% 2.3 mph NW3.7 kmh NW 3.5 mph5.6 kmh 29.92 in1013.2 mb - 0.00 in0.0 mm 0.00 in0.0 mm
03:56 PM 40.3°F4.6°C 28.7°F-1.8°C 63% 3.5 mph NW5.6 kmh NW 4.6 mph7.4 kmh 29.92 in1013.2 mb - 0.00 in0.0 mm 0.00 in0.0 mm
03:57 PM 40.3°F4.6°C 28.7°F-1.8°C 63% 3.5 mph WNW5.6 kmh WNW 4.6 mph7.4 kmh 29.92 in1013.2 mb - 0.00 in0.0 mm 0.00 in0.0 mm
03:58 PM 40.3°F4.6°C 28.3°F-2.1°C 62% 3.5 mph WNW5.6 kmh WNW 3.5 mph5.6 kmh 29.92 in1013.2 mb - 0.00 in0.0 mm 0.00 in0.0 mm
03:59 PM 40.3°F4.6°C 28.7°F-1.8°C 63% 2.3 mph NW3.7 kmh NW 2.3 mph3.7 kmh 29.92 in1013.2 mb - 0.00 in0.0 mm 0.00 in0.0 mm
04:00 PM 40.3°F4.6°C 28.7°F-1.8°C 63% 2.3 mph N3.7 kmh N 2.3 mph3.7 kmh 29.92 in1013.2 mb - 0.00 in0.0 mm 0.00 in0.0 mm
04:01 PM 40.3°F4.6°C 28.7°F-1.8°C 63% 2.3 mph NNW3.7 kmh NNW 2.3 mph3.7 kmh 29.92 in1013.2 mb - 0.00 in0.0 mm 0.00 in0.0 mm
04:02 PM 40.3°F4.6°C 28.7°F-1.8°C 63% 2.3 mph NW3.7 kmh NW 2.3 mph3.7 kmh 29.92 in1013.2 mb - 0.00 in0.0 mm 0.00 in0.0 mm
04:03 PM 40.3°F4.6°C 28.7°F-1.8°C 63% 2.3 mph NW3.7 kmh NW 2.3 mph3.7 kmh 29.92 in1013.2 mb - 0.00 in0.0 mm 0.00 in0.0 mm
04:04 PM 40.3°F4.6°C 28.3°F-2.1°C 62% 1.2 mph NW1.9 kmh NW 1.2 mph1.9 kmh 29.92 in1013.2 mb - 0.00 in0.0 mm 0.00 in0.0 mm
04:05 PM 40.5°F4.7°C 28.5°F-1.9°C 62% Calm Calm -- 29.92 in1013.2 mb - 0.00 in0.0 mm 0.00 in0.0 mm
04:06 PM 40.5°F4.7°C 28.9°F-1.7°C 63% Calm Calm -- 29.92 in1013.2 mb - 0.00 in0.0 mm 0.00 in0.0 mm
04:07 PM 40.5°F4.7°C 29.7°F-1.3°C 65% Calm Calm -- 29.92 in1013.2 mb - 0.00 in0.0 mm 0.00 in0.0 mm
04:08 PM 40.5°F4.7°C 30.0°F-1.1°C 66% Calm Calm -- 29.92 in1013.2 mb - 0.00 in0.0 mm 0.00 in0.0 mm
04:09 PM 40.6°F4.8°C 29.3°F-1.5°C 64% Calm Calm 2.3 mph3.7 kmh 29.92 in1013.2 mb - 0.00 in0.0 mm 0.00 in0.0 mm
04:10 PM 40.6°F4.8°C 29.0°F-1.7°C 63% 2.3 mph NW3.7 kmh NW 2.3 mph3.7 kmh 29.92 in1013.2 mb - 0.00 in0.0 mm 0.00 in0.0 mm
04:11 PM 40.6°F4.8°C 29.4°F-1.4°C 64% 1.2 mph WSW1.9 kmh WSW 1.2 mph1.9 kmh 29.92 in1013.2 mb - 0.00 in0.0 mm 0.00 in0.0 mm
04:12 PM 40.5°F4.7°C 29.7°F-1.3°C 65% Calm Calm 2.3 mph3.7 kmh 29.92 in1013.2 mb - 0.00 in0.0 mm 0.00 in0.0 mm
04:13 PM 40.5°F4.7°C 29.7°F-1.3°C 65% 1.2 mph SSW1.9 kmh SSW 1.2 mph1.9 kmh 29.92 in1013.2 mb - 0.00 in0.0 mm 0.00 in0.0 mm
04:14 PM 40.4°F4.7°C 29.5°F-1.4°C 65% 1.2 mph WSW1.9 kmh WSW 1.2 mph1.9 kmh 29.92 in1013.2 mb - 0.00 in0.0 mm 0.00 in0.0 mm
04:15 PM 40.3°F4.6°C 29.5°F-1.4°C 65% Calm Calm -- 29.92 in1013.2 mb - 0.00 in0.0 mm 0.00 in0.0 mm
04:16 PM 40.3°F4.6°C 29.5°F-1.4°C 65% Calm Calm -- 29.92 in1013.2 mb - 0.00 in0.0 mm 0.00 in0.0 mm
04:17 PM 40.3°F4.6°C 29.5°F-1.4°C 65% Calm Calm 1.2 mph1.9 kmh 29.92 in1013.2 mb - 0.00 in0.0 mm 0.00 in0.0 mm
04:18 PM 40.3°F4.6°C 29.5°F-1.4°C 65% 1.2 mph SW1.9 kmh SW -- 29.92 in1013.2 mb - 0.00 in0.0 mm 0.00 in0.0 mm
04:19 PM 40.3°F4.6°C 29.5°F-1.4°C 65% Calm Calm -- 29.92 in1013.2 mb - 0.00 in0.0 mm 0.00 in0.0 mm
04:20 PM 40.3°F4.6°C 29.8°F-1.2°C 66% Calm Calm -- 29.92 in1013.2 mb - 0.00 in0.0 mm 0.00 in0.0 mm
04:21 PM 40.5°F4.7°C 30.0°F-1.1°C 66% Calm Calm -- 29.92 in1013.2 mb - 0.00 in0.0 mm 0.00 in0.0 mm
04:22 PM 40.6°F4.8°C 30.1°F-1.1°C 66% Calm Calm -- 29.92 in1013.2 mb - 0.00 in0.0 mm 0.00 in0.0 mm
04:23 PM 40.8°F4.9°C 29.9°F-1.2°C 65% Calm Calm 1.2 mph1.9 kmh 29.92 in1013.2 mb - 0.00 in0.0 mm 0.00 in0.0 mm
04:24 PM 40.8°F4.9°C 29.9°F-1.2°C 65% 1.2 mph W1.9 kmh W 2.3 mph3.7 kmh 29.92 in1013.2 mb - 0.00 in0.0 mm 0.00 in0.0 mm
04:25 PM 40.8°F4.9°C 29.6°F-1.3°C 64% 2.3 mph W3.7 kmh W 2.3 mph3.7 kmh 29.92 in1013.2 mb - 0.00 in0.0 mm 0.00 in0.0 mm
04:26 PM 40.8°F4.9°C 29.6°F-1.3°C 64% 2.3 mph WNW3.7 kmh WNW 2.3 mph3.7 kmh 29.92 in1013.2 mb - 0.00 in0.0 mm 0.00 in0.0 mm
04:27 PM 40.8°F4.9°C 29.9°F-1.2°C 65% Calm Calm 1.2 mph1.9 kmh 29.92 in1013.2 mb - 0.00 in0.0 mm 0.00 in0.0 mm
04:28 PM 40.6°F4.8°C 29.7°F-1.3°C 65% 1.2 mph NW1.9 kmh NW 2.3 mph3.7 kmh 29.92 in1013.2 mb - 0.00 in0.0 mm 0.00 in0.0 mm
04:29 PM 40.6°F4.8°C 29.7°F-1.3°C 65% 1.2 mph WNW1.9 kmh WNW 1.2 mph1.9 kmh 29.92 in1013.2 mb - 0.00 in0.0 mm 0.00 in0.0 mm
04:30 PM 40.6°F4.8°C 29.7°F-1.3°C 65% Calm Calm 1.2 mph1.9 kmh 29.92 in1013.2 mb - 0.00 in0.0 mm 0.00 in0.0 mm
04:31 PM 40.6°F4.8°C 29.7°F-1.3°C 65% 1.2 mph W1.9 kmh W 2.3 mph3.7 kmh 29.92 in1013.2 mb - 0.00 in0.0 mm 0.00 in0.0 mm
04:32 PM 40.6°F4.8°C 29.7°F-1.3°C 65% 2.3 mph WNW3.7 kmh WNW 2.3 mph3.7 kmh 29.92 in1013.2 mb - 0.00 in0.0 mm 0.00 in0.0 mm
04:33 PM 40.6°F4.8°C 30.1°F-1.1°C 66% Calm Calm -- 29.92 in1013.2 mb - 0.00 in0.0 mm 0.00 in0.0 mm
04:34 PM 40.6°F4.8°C 30.1°F-1.1°C 66% Calm Calm 1.2 mph1.9 kmh 29.92 in1013.2 mb - 0.00 in0.0 mm 0.00 in0.0 mm
04:35 PM 40.6°F4.8°C 30.1°F-1.1°C 66% Calm Calm -- 29.92 in1013.2 mb - 0.00 in0.0 mm 0.00 in0.0 mm
04:36 PM 40.6°F4.8°C 30.1°F-1.1°C 66% Calm Calm -- 29.92 in1013.2 mb - 0.00 in0.0 mm 0.00 in0.0 mm
04:37 PM 40.6°F4.8°C 30.1°F-1.1°C 66% Calm Calm -- 29.92 in1013.2 mb - 0.00 in0.0 mm 0.00 in0.0 mm
04:38 PM 40.6°F4.8°C 30.1°F-1.1°C 66% Calm Calm -- 29.92 in1013.2 mb - 0.00 in0.0 mm 0.00 in0.0 mm
04:39 PM 40.6°F4.8°C 30.5°F-0.8°C 67% Calm Calm -- 29.92 in1013.2 mb - 0.00 in0.0 mm 0.00 in0.0 mm
04:40 PM 40.5°F4.7°C 30.4°F-0.9°C 67% Calm Calm -- 29.92 in1013.2 mb - 0.00 in0.0 mm 0.00 in0.0 mm
04:41 PM 40.5°F4.7°C 30.4°F-0.9°C 67% Calm Calm -- 29.92 in1013.2 mb - 0.00 in0.0 mm 0.00 in0.0 mm
04:42 PM 40.5°F4.7°C 30.4°F-0.9°C 67% Calm Calm -- 29.92 in1013.2 mb - 0.00 in0.0 mm 0.00 in0.0 mm
04:43 PM 40.5°F4.7°C 30.4°F-0.9°C 67% Calm Calm -- 29.92 in1013.2 mb - 0.00 in0.0 mm 0.00 in0.0 mm
04:44 PM 40.5°F4.7°C 30.4°F-0.9°C 67% Calm Calm -- 29.92 in1013.2 mb - 0.00 in0.0 mm 0.00 in0.0 mm
04:45 PM 40.3°F4.6°C 30.6°F-0.8°C 68% Calm Calm -- 29.92 in1013.2 mb - 0.00 in0.0 mm 0.00 in0.0 mm
04:46 PM 40.3°F4.6°C 30.6°F-0.8°C 68% Calm Calm -- 29.92 in1013.2 mb - 0.00 in0.0 mm 0.00 in0.0 mm
04:47 PM 40.3°F4.6°C 30.6°F-0.8°C 68% Calm Calm -- 29.92 in1013.2 mb - 0.00 in0.0 mm 0.00 in0.0 mm
04:48 PM 40.3°F4.6°C 30.6°F-0.8°C 68% Calm Calm -- 29.92 in1013.2 mb - 0.00 in0.0 mm 0.00 in0.0 mm
04:49 PM 40.1°F4.5°C 30.8°F-0.7°C 69% Calm Calm -- 29.92 in1013.2 mb - 0.00 in0.0 mm 0.00 in0.0 mm
04:50 PM 40.1°F4.5°C 30.7°F-0.7°C 69% Calm Calm -- 29.93 in1013.5 mb - 0.00 in0.0 mm 0.00 in0.0 mm
04:51 PM 40.1°F4.5°C 31.1°F-0.5°C 70% Calm Calm -- 29.93 in1013.5 mb - 0.00 in0.0 mm 0.00 in0.0 mm
04:52 PM 40.1°F4.5°C 31.4°F-0.3°C 71% Calm Calm -- 29.93 in1013.5 mb - 0.00 in0.0 mm 0.00 in0.0 mm
04:53 PM 40.0°F4.4°C 31.0°F-0.6°C 70% Calm Calm -- 29.93 in1013.5 mb - 0.00 in0.0 mm 0.00 in0.0 mm
04:54 PM 39.9°F4.4°C 30.5°F-0.8°C 69% Calm Calm -- 29.93 in1013.5 mb - 0.00 in0.0 mm 0.00 in0.0 mm
04:55 PM 39.7°F4.3°C 29.7°F-1.3°C 67% Calm Calm -- 29.93 in1013.5 mb - 0.00 in0.0 mm 0.00 in0.0 mm
04:56 PM 39.7°F4.3°C 29.6°F-1.3°C 67% Calm Calm -- 29.93 in1013.5 mb - 0.00 in0.0 mm 0.00 in0.0 mm
04:57 PM 39.7°F4.3°C 30.0°F-1.1°C 68% Calm Calm -- 29.93 in1013.5 mb - 0.00 in0.0 mm 0.00 in0.0 mm
04:58 PM 39.7°F4.3°C 30.4°F-0.9°C 69% Calm Calm -- 29.93 in1013.5 mb - 0.00 in0.0 mm 0.00 in0.0 mm
04:59 PM 39.6°F4.2°C 30.3°F-0.9°C 69% Calm Calm -- 29.93 in1013.5 mb - 0.00 in0.0 mm 0.00 in0.0 mm
05:00 PM 39.6°F4.2°C 30.6°F-0.8°C 70% Calm Calm -- 29.93 in1013.5 mb - 0.00 in0.0 mm 0.00 in0.0 mm
05:01 PM 39.4°F4.1°C 30.1°F-1.1°C 69% Calm Calm -- 29.93 in1013.5 mb - 0.00 in0.0 mm 0.00 in0.0 mm
05:02 PM 39.4°F4.1°C 30.4°F-0.9°C 70% Calm Calm -- 29.93 in1013.5 mb - 0.00 in0.0 mm 0.00 in0.0 mm
05:03 PM 39.4°F4.1°C 30.4°F-0.9°C 70% Calm Calm -- 29.92 in1013.2 mb - 0.00 in0.0 mm 0.00 in0.0 mm
05:04 PM 39.4°F4.1°C 30.1°F-1.1°C 69% Calm Calm -- 29.92 in1013.2 mb - 0.00 in0.0 mm 0.00 in0.0 mm
05:05 PM 39.4°F4.1°C 30.4°F-0.9°C 70% Calm Calm -- 29.92 in1013.2 mb - 0.00 in0.0 mm 0.00 in0.0 mm
05:06 PM 39.4°F4.1°C 30.8°F-0.7°C 71% Calm Calm -- 29.92 in1013.2 mb - 0.00 in0.0 mm 0.00 in0.0 mm
05:07 PM 39.2°F4.0°C 30.6°F-0.8°C 71% Calm Calm -- 29.92 in1013.2 mb - 0.00 in0.0 mm 0.00 in0.0 mm
05:08 PM 39.2°F4.0°C 30.6°F-0.8°C 71% Calm Calm -- 29.92 in1013.2 mb - 0.00 in0.0 mm 0.00 in0.0 mm
05:09 PM 39.2°F4.0°C 30.9°F-0.6°C 72% Calm Calm -- 29.92 in1013.2 mb - 0.00 in0.0 mm 0.00 in0.0 mm
05:10 PM 39.1°F3.9°C 30.9°F-0.6°C 72% Calm Calm -- 29.92 in1013.2 mb - 0.00 in0.0 mm 0.00 in0.0 mm
05:11 PM 39.0°F3.9°C 31.1°F-0.5°C 73% Calm Calm -- 29.92 in1013.2 mb - 0.00 in0.0 mm 0.00 in0.0 mm
05:12 PM 39.0°F3.9°C 31.1°F-0.5°C 73% Calm Calm -- 29.92 in1013.2 mb - 0.00 in0.0 mm 0.00 in0.0 mm
05:13 PM 39.0°F3.9°C 31.1°F-0.5°C 73% Calm Calm -- 29.92 in1013.2 mb - 0.00 in0.0 mm 0.00 in0.0 mm
05:14 PM 38.9°F3.8°C 31.0°F-0.6°C 73% Calm Calm -- 29.91 in1012.9 mb - 0.00 in0.0 mm 0.00 in0.0 mm
05:15 PM 38.8°F3.8°C 30.9°F-0.6°C 73% Calm Calm -- 29.91 in1012.9 mb - 0.00 in0.0 mm 0.00 in0.0 mm
05:16 PM 38.8°F3.8°C 30.9°F-0.6°C 73% Calm Calm -- 29.91 in1012.9 mb - 0.00 in0.0 mm 0.00 in0.0 mm
05:17 PM 38.7°F3.7°C 30.4°F-0.9°C 72% Calm Calm -- 29.91 in1012.9 mb - 0.00 in0.0 mm 0.00 in0.0 mm
05:18 PM 38.6°F3.7°C 31.4°F-0.3°C 75% Calm Calm -- 29.91 in1012.9 mb - 0.00 in0.0 mm 0.00 in0.0 mm
05:19 PM 38.5°F3.6°C 31.9°F-0.1°C 77% Calm Calm -- 29.91 in1012.9 mb - 0.00 in0.0 mm 0.00 in0.0 mm
05:20 PM 38.5°F3.6°C 32.2°F0.1°C 78% Calm Calm -- 29.91 in1012.9 mb - 0.00 in0.0 mm 0.00 in0.0 mm
05:21 PM 38.5°F3.6°C 32.5°F0.3°C 79% Calm Calm -- 29.91 in1012.9 mb - 0.00 in0.0 mm 0.00 in0.0 mm
05:22 PM 38.3°F3.5°C 32.4°F0.2°C 79% Calm Calm -- 29.91 in1012.9 mb - 0.00 in0.0 mm 0.00 in0.0 mm
05:23 PM 38.3°F3.5°C 32.4°F0.2°C 79% Calm Calm -- 29.91 in1012.9 mb - 0.00 in0.0 mm 0.00 in0.0 mm
05:24 PM 38.3°F3.5°C 32.4°F0.2°C 79% Calm Calm -- 29.91 in1012.9 mb - 0.00 in0.0 mm 0.00 in0.0 mm
05:25 PM 38.2°F3.4°C 31.6°F-0.2°C 77% Calm Calm -- 29.91 in1012.9 mb - 0.00 in0.0 mm 0.00 in0.0 mm
05:26 PM 38.1°F3.4°C 31.5°F-0.3°C 77% Calm Calm -- 29.92 in1013.2 mb - 0.00 in0.0 mm 0.00 in0.0 mm
05:27 PM 38.1°F3.4°C 30.9°F-0.6°C 75% Calm Calm -- 29.92 in1013.2 mb - 0.00 in0.0 mm 0.00 in0.0 mm
05:28 PM 38.0°F3.3°C 30.4°F-0.9°C 74% Calm Calm -- 29.92 in1013.2 mb - 0.00 in0.0 mm 0.00 in0.0 mm
05:29 PM 37.9°F3.3°C 30.4°F-0.9°C 74% Calm Calm -- 29.92 in1013.2 mb - 0.00 in0.0 mm 0.00 in0.0 mm
05:30 PM 37.9°F3.3°C 30.0°F-1.1°C 73% Calm Calm -- 29.92 in1013.2 mb - 0.00 in0.0 mm 0.00 in0.0 mm
05:31 PM 37.9°F3.3°C 29.3°F-1.5°C 71% Calm Calm -- 29.92 in1013.2 mb - 0.00 in0.0 mm 0.00 in0.0 mm
05:32 PM 37.8°F3.2°C 28.6°F-1.9°C 69% 1.2 mph NNE1.9 kmh NNE 3.5 mph5.6 kmh 29.92 in1013.2 mb - 0.00 in0.0 mm 0.00 in0.0 mm
05:33 PM 37.8°F3.2°C 28.2°F-2.1°C 68% 2.3 mph N3.7 kmh N 3.5 mph5.6 kmh 29.92 in1013.2 mb - 0.00 in0.0 mm 0.00 in0.0 mm
05:34 PM 37.8°F3.2°C 27.5°F-2.5°C 66% 2.3 mph NNW3.7 kmh NNW 2.3 mph3.7 kmh 29.92 in1013.2 mb - 0.00 in0.0 mm 0.00 in0.0 mm
05:35 PM 37.8°F3.2°C 27.8°F-2.3°C 67% 1.2 mph NNE1.9 kmh NNE 2.3 mph3.7 kmh 29.92 in1013.2 mb - 0.00 in0.0 mm 0.00 in0.0 mm
05:36 PM 37.8°F3.2°C 28.2°F-2.1°C 68% 2.3 mph NW3.7 kmh NW 2.3 mph3.7 kmh 29.92 in1013.2 mb - 0.00 in0.0 mm 0.00 in0.0 mm
05:37 PM 37.8°F3.2°C 28.9°F-1.7°C 70% 2.3 mph WNW3.7 kmh WNW 2.3 mph3.7 kmh 29.92 in1013.2 mb - 0.00 in0.0 mm 0.00 in0.0 mm
05:38 PM 37.8°F3.2°C 28.9°F-1.7°C 70% 1.2 mph NW1.9 kmh NW 1.2 mph1.9 kmh 29.91 in1012.9 mb - 0.00 in0.0 mm 0.00 in0.0 mm
05:39 PM 37.8°F3.2°C 28.9°F-1.7°C 70% 1.2 mph NW1.9 kmh NW 3.5 mph5.6 kmh 29.91 in1012.9 mb - 0.00 in0.0 mm 0.00 in0.0 mm
05:40 PM 37.8°F3.2°C 28.5°F-1.9°C 69% 2.3 mph NW3.7 kmh NW 2.3 mph3.7 kmh 29.91 in1012.9 mb - 0.00 in0.0 mm 0.00 in0.0 mm
05:41 PM 37.8°F3.2°C 28.5°F-1.9°C 69% 1.2 mph NNW1.9 kmh NNW 1.2 mph1.9 kmh 29.91 in1012.9 mb - 0.00 in0.0 mm 0.00 in0.0 mm
05:42 PM 37.8°F3.2°C 28.9°F-1.7°C 70% 1.2 mph NNW1.9 kmh NNW 1.2 mph1.9 kmh 29.91 in1012.9 mb - 0.00 in0.0 mm 0.00 in0.0 mm
05:43 PM 37.8°F3.2°C 28.9°F-1.7°C 70% 1.2 mph WNW1.9 kmh WNW 1.2 mph1.9 kmh 29.91 in1012.9 mb - 0.00 in0.0 mm 0.00 in0.0 mm
05:44 PM 37.6°F3.1°C 28.7°F-1.8°C 70% 1.2 mph N1.9 kmh N 1.2 mph1.9 kmh 29.91 in1012.9 mb - 0.00 in0.0 mm 0.00 in0.0 mm
05:45 PM 37.6°F3.1°C 28.7°F-1.8°C 70% Calm Calm -- 29.91 in1012.9 mb - 0.00 in0.0 mm 0.00 in0.0 mm
05:46 PM 37.6°F3.1°C 29.0°F-1.7°C 71% Calm Calm -- 29.91 in1012.9 mb - 0.00 in0.0 mm 0.00 in0.0 mm
05:47 PM 37.6°F3.1°C 29.0°F-1.7°C 71% Calm Calm -- 29.91 in1012.9 mb - 0.00 in0.0 mm 0.00 in0.0 mm
05:48 PM 37.6°F3.1°C 28.3°F-2.1°C 69% Calm Calm 1.2 mph1.9 kmh 29.91 in1012.9 mb - 0.00 in0.0 mm 0.00 in0.0 mm
05:49 PM 37.6°F3.1°C 28.0°F-2.2°C 68% 1.2 mph NNW1.9 kmh NNW 1.2 mph1.9 kmh 29.91 in1012.9 mb - 0.00 in0.0 mm 0.00 in0.0 mm
05:50 PM 37.6°F3.1°C 26.9°F-2.8°C 65% 1.2 mph NE1.9 kmh NE 1.2 mph1.9 kmh 29.92 in1013.2 mb - 0.00 in0.0 mm 0.00 in0.0 mm
05:51 PM 37.6°F3.1°C 26.9°F-2.8°C 65% Calm Calm -- 29.92 in1013.2 mb - 0.00 in0.0 mm 0.00 in0.0 mm
05:52 PM 37.6°F3.1°C 26.9°F-2.8°C 65% Calm Calm -- 29.92 in1013.2 mb - 0.00 in0.0 mm 0.00 in0.0 mm
05:53 PM 37.6°F3.1°C 26.5°F-3.1°C 64% Calm Calm -- 29.92 in1013.2 mb - 0.00 in0.0 mm 0.00 in0.0 mm
05:54 PM 37.6°F3.1°C 26.5°F-3.1°C 64% Calm Calm 3.5 mph5.6 kmh 29.92 in1013.2 mb - 0.00 in0.0 mm 0.00 in0.0 mm
05:55 PM 37.6°F3.1°C 26.1°F-3.3°C 63% 2.3 mph NW3.7 kmh NW 5.8 mph9.3 kmh 29.92 in1013.2 mb - 0.00 in0.0 mm 0.00 in0.0 mm
05:56 PM 37.6°F3.1°C 25.7°F-3.5°C 62% 2.3 mph NNW3.7 kmh NNW 1.2 mph1.9 kmh 29.92 in1013.2 mb - 0.00 in0.0 mm 0.00 in0.0 mm
05:57 PM 37.6°F3.1°C 26.5°F-3.1°C 64% Calm Calm -- 29.92 in1013.2 mb - 0.00 in0.0 mm 0.00 in0.0 mm
05:58 PM 37.6°F3.1°C 26.9°F-2.8°C 65% Calm Calm -- 29.92 in1013.2 mb - 0.00 in0.0 mm 0.00 in0.0 mm
05:59 PM 37.6°F3.1°C 26.9°F-2.8°C 65% Calm Calm -- 29.92 in1013.2 mb - 0.00 in0.0 mm 0.00 in0.0 mm
06:00 PM 37.6°F3.1°C 26.9°F-2.8°C 65% Calm Calm -- 29.92 in1013.2 mb - 0.00 in0.0 mm 0.00 in0.0 mm
06:01 PM 37.6°F3.1°C 27.3°F-2.6°C 66% Calm Calm -- 29.92 in1013.2 mb - 0.00 in0.0 mm 0.00 in0.0 mm
06:02 PM 37.6°F3.1°C 27.6°F-2.4°C 67% Calm Calm -- 29.92 in1013.2 mb - 0.00 in0.0 mm 0.00 in0.0 mm
06:03 PM 37.6°F3.1°C 28.0°F-2.2°C 68% Calm Calm -- 29.92 in1013.2 mb - 0.00 in0.0 mm 0.00 in0.0 mm
06:04 PM 37.6°F3.1°C 28.3°F-2.1°C 69% Calm Calm -- 29.92 in1013.2 mb - 0.00 in0.0 mm 0.00 in0.0 mm
06:05 PM 37.4°F3.0°C 28.2°F-2.1°C 69% Calm Calm -- 29.92 in1013.2 mb - 0.00 in0.0 mm 0.00 in0.0 mm
06:06 PM 37.4°F3.0°C 28.5°F-1.9°C 70% Calm Calm -- 29.92 in1013.2 mb - 0.00 in0.0 mm 0.00 in0.0 mm
06:07 PM 37.4°F3.0°C 28.9°F-1.7°C 71% Calm Calm -- 29.92 in1013.2 mb - 0.00 in0.0 mm 0.00 in0.0 mm
06:08 PM 37.4°F3.0°C 28.5°F-1.9°C 70% Calm Calm -- 29.92 in1013.2 mb - 0.00 in0.0 mm 0.00 in0.0 mm
06:09 PM 37.4°F3.0°C 27.8°F-2.3°C 68% Calm Calm 2.3 mph3.7 kmh 29.92 in1013.2 mb - 0.00 in0.0 mm 0.00 in0.0 mm
06:10 PM 37.2°F2.9°C 26.9°F-2.8°C 66% 1.2 mph NNE1.9 kmh NNE 2.3 mph3.7 kmh 29.92 in1013.2 mb - 0.00 in0.0 mm 0.00 in0.0 mm
06:11 PM 37.2°F2.9°C 26.5°F-3.1°C 65% 1.2 mph NNW1.9 kmh NNW 1.2 mph1.9 kmh 29.92 in1013.2 mb - 0.00 in0.0 mm 0.00 in0.0 mm
06:12 PM 37.2°F2.9°C 26.1°F-3.3°C 64% 1.2 mph N1.9 kmh N 1.2 mph1.9 kmh 29.92 in1013.2 mb - 0.00 in0.0 mm 0.00 in0.0 mm
06:13 PM 37.2°F2.9°C 26.1°F-3.3°C 64% Calm Calm -- 29.93 in1013.5 mb - 0.00 in0.0 mm 0.00 in0.0 mm
06:14 PM 37.2°F2.9°C 26.1°F-3.3°C 64% Calm Calm -- 29.93 in1013.5 mb - 0.00 in0.0 mm 0.00 in0.0 mm
06:15 PM 37.2°F2.9°C 26.1°F-3.3°C 64% Calm Calm -- 29.93 in1013.5 mb - 0.00 in0.0 mm 0.00 in0.0 mm
06:16 PM 37.2°F2.9°C 26.1°F-3.3°C 64% Calm Calm -- 29.93 in1013.5 mb - 0.00 in0.0 mm 0.00 in0.0 mm
06:17 PM 37.2°F2.9°C 26.1°F-3.3°C 64% Calm Calm -- 29.93 in1013.5 mb - 0.00 in0.0 mm 0.00 in0.0 mm
06:18 PM 37.2°F2.9°C 26.1°F-3.3°C 64% Calm Calm 3.5 mph5.6 kmh 29.93 in1013.5 mb - 0.00 in0.0 mm 0.00 in0.0 mm
06:19 PM 37.2°F2.9°C 25.8°F-3.4°C 63% 2.3 mph NE3.7 kmh NE 2.3 mph3.7 kmh 29.93 in1013.5 mb - 0.00 in0.0 mm 0.00 in0.0 mm
06:20 PM 37.2°F2.9°C 25.4°F-3.7°C 62% 1.2 mph N1.9 kmh N 1.2 mph1.9 kmh 29.93 in1013.5 mb - 0.00 in0.0 mm 0.00 in0.0 mm
06:21 PM 37.2°F2.9°C 25.4°F-3.7°C 62% 1.2 mph NNW1.9 kmh NNW 1.2 mph1.9 kmh 29.93 in1013.5 mb - 0.00 in0.0 mm 0.00 in0.0 mm
06:22 PM 37.2°F2.9°C 25.4°F-3.7°C 62% 1.2 mph NNW1.9 kmh NNW -- 29.93 in1013.5 mb - 0.00 in0.0 mm 0.00 in0.0 mm
06:23 PM 37.2°F2.9°C 25.4°F-3.7°C 62% Calm Calm 1.2 mph1.9 kmh 29.93 in1013.5 mb - 0.00 in0.0 mm 0.00 in0.0 mm
06:24 PM 37.2°F2.9°C 25.4°F-3.7°C 62% Calm Calm -- 29.93 in1013.5 mb - 0.00 in0.0 mm 0.00 in0.0 mm
06:25 PM 37.2°F2.9°C 25.8°F-3.4°C 63% Calm Calm 1.2 mph1.9 kmh 29.93 in1013.5 mb - 0.00 in0.0 mm 0.00 in0.0 mm
06:26 PM 37.3°F2.9°C 26.2°F-3.2°C 64% 1.2 mph W1.9 kmh W 1.2 mph1.9 kmh 29.93 in1013.5 mb - 0.00 in0.0 mm 0.00 in0.0 mm
06:27 PM 37.4°F3.0°C 26.3°F-3.2°C 64% 1.2 mph ENE1.9 kmh ENE 2.3 mph3.7 kmh 29.93 in1013.5 mb - 0.00 in0.0 mm 0.00 in0.0 mm
06:28 PM 37.4°F3.0°C 25.6°F-3.6°C 62% 1.2 mph NNE1.9 kmh NNE 1.2 mph1.9 kmh 29.93 in1013.5 mb - 0.00 in0.0 mm 0.00 in0.0 mm
06:29 PM 37.4°F3.0°C 25.9°F-3.4°C 63% Calm Calm -- 29.93 in1013.5 mb - 0.00 in0.0 mm 0.00 in0.0 mm
06:30 PM 37.4°F3.0°C 26.3°F-3.2°C 64% Calm Calm 1.2 mph1.9 kmh 29.93 in1013.5 mb - 0.00 in0.0 mm 0.00 in0.0 mm
06:31 PM 37.4°F3.0°C 26.7°F-2.9°C 65% Calm Calm 1.2 mph1.9 kmh 29.93 in1013.5 mb - 0.00 in0.0 mm 0.00 in0.0 mm
06:32 PM 37.4°F3.0°C 27.1°F-2.7°C 66% Calm Calm -- 29.93 in1013.5 mb - 0.00 in0.0 mm 0.00 in0.0 mm
06:33 PM 37.4°F3.0°C 26.7°F-2.9°C 65% Calm Calm -- 29.93 in1013.5 mb - 0.00 in0.0 mm 0.00 in0.0 mm
06:34 PM 37.4°F3.0°C 26.7°F-2.9°C 65% Calm Calm 2.3 mph3.7 kmh 29.93 in1013.5 mb - 0.00 in0.0 mm 0.00 in0.0 mm
06:35 PM 37.2°F2.9°C 26.5°F-3.1°C 65% 1.2 mph NNE1.9 kmh NNE 2.3 mph3.7 kmh 29.93 in1013.5 mb - 0.00 in0.0 mm 0.00 in0.0 mm
06:36 PM 37.2°F2.9°C 26.5°F-3.1°C 65% 1.2 mph WNW1.9 kmh WNW 1.2 mph1.9 kmh 29.93 in1013.5 mb - 0.00 in0.0 mm 0.00 in0.0 mm
06:37 PM 37.2°F2.9°C 27.6°F-2.4°C 68% Calm Calm -- 29.93 in1013.5 mb - 0.00 in0.0 mm 0.00 in0.0 mm
06:38 PM 37.2°F2.9°C 28.0°F-2.2°C 69% Calm Calm -- 29.93 in1013.5 mb - 0.00 in0.0 mm 0.00 in0.0 mm
06:39 PM 37.2°F2.9°C 29.3°F-1.5°C 73% Calm Calm -- 29.93 in1013.5 mb - 0.00 in0.0 mm 0.00 in0.0 mm
06:40 PM 37.2°F2.9°C 28.3°F-2.1°C 70% Calm Calm -- 29.93 in1013.5 mb - 0.00 in0.0 mm 0.00 in0.0 mm
06:41 PM 37.2°F2.9°C 28.0°F-2.2°C 69% Calm Calm -- 29.93 in1013.5 mb - 0.00 in0.0 mm 0.00 in0.0 mm
06:42 PM 37.2°F2.9°C 28.0°F-2.2°C 69% Calm Calm -- 29.93 in1013.5 mb - 0.00 in0.0 mm 0.00 in0.0 mm
06:43 PM 37.1°F2.8°C 29.0°F-1.7°C 72% Calm Calm -- 29.93 in1013.5 mb - 0.00 in0.0 mm 0.00 in0.0 mm
06:44 PM 36.9°F2.7°C 28.4°F-2.0°C 71% Calm Calm -- 29.93 in1013.5 mb - 0.00 in0.0 mm 0.00 in0.0 mm
06:45 PM 36.9°F2.7°C 27.7°F-2.4°C 69% Calm Calm -- 29.93 in1013.5 mb - 0.00 in0.0 mm 0.00 in0.0 mm
06:46 PM 36.9°F2.7°C 27.7°F-2.4°C 69% Calm Calm -- 29.93 in1013.5 mb - 0.00 in0.0 mm 0.00 in0.0 mm
06:47 PM 36.9°F2.7°C 28.0°F-2.2°C 70% Calm Calm -- 29.93 in1013.5 mb - 0.00 in0.0 mm 0.00 in0.0 mm
06:48 PM 36.9°F2.7°C 28.4°F-2.0°C 71% Calm Calm -- 29.93 in1013.5 mb - 0.00 in0.0 mm 0.00 in0.0 mm
06:49 PM 36.9°F2.7°C 28.0°F-2.2°C 70% Calm Calm -- 29.93 in1013.5 mb - 0.00 in0.0 mm 0.00 in0.0 mm
06:50 PM 36.9°F2.7°C 28.0°F-2.2°C 70% Calm Calm -- 29.94 in1013.9 mb - 0.00 in0.0 mm 0.00 in0.0 mm
06:51 PM 36.9°F2.7°C 28.0°F-2.2°C 70% Calm Calm -- 29.94 in1013.9 mb - 0.00 in0.0 mm 0.00 in0.0 mm
06:52 PM 36.9°F2.7°C 28.7°F-1.8°C 72% Calm Calm -- 29.94 in1013.9 mb - 0.00 in0.0 mm 0.00 in0.0 mm
06:53 PM 36.9°F2.7°C 28.4°F-2.0°C 71% Calm Calm -- 29.94 in1013.9 mb - 0.00 in0.0 mm 0.00 in0.0 mm
06:54 PM 36.8°F2.7°C 27.9°F-2.3°C 70% Calm Calm -- 29.94 in1013.9 mb - 0.00 in0.0 mm 0.00 in0.0 mm
06:55 PM 36.7°F2.6°C 27.5°F-2.5°C 69% Calm Calm -- 29.94 in1013.9 mb - 0.00 in0.0 mm 0.00 in0.0 mm
06:56 PM 36.7°F2.6°C 27.8°F-2.3°C 70% Calm Calm -- 29.94 in1013.9 mb - 0.00 in0.0 mm 0.00 in0.0 mm
06:57 PM 36.7°F2.6°C 27.5°F-2.5°C 69% Calm Calm -- 29.94 in1013.9 mb - 0.00 in0.0 mm 0.00 in0.0 mm
06:58 PM 36.7°F2.6°C 27.8°F-2.3°C 70% Calm Calm -- 29.94 in1013.9 mb - 0.00 in0.0 mm 0.00 in0.0 mm
06:59 PM 36.7°F2.6°C 28.2°F-2.1°C 71% Calm Calm -- 29.94 in1013.9 mb - 0.00 in0.0 mm 0.00 in0.0 mm
07:00 PM 36.7°F2.6°C 27.8°F-2.3°C 70% Calm Calm -- 29.94 in1013.9 mb - 0.00 in0.0 mm 0.00 in0.0 mm
07:01 PM 36.7°F2.6°C 27.5°F-2.5°C 69% Calm Calm -- 29.94 in1013.9 mb - 0.00 in0.0 mm 0.00 in0.0 mm
07:02 PM 36.7°F2.6°C 27.8°F-2.3°C 70% Calm Calm -- 29.94 in1013.9 mb - 0.00 in0.0 mm 0.00 in0.0 mm
07:03 PM 36.7°F2.6°C 27.8°F-2.3°C 70% Calm Calm -- 29.94 in1013.9 mb - 0.00 in0.0 mm 0.00 in0.0 mm
07:04 PM 36.7°F2.6°C 27.8°F-2.3°C 70% Calm Calm -- 29.94 in1013.9 mb - 0.00 in0.0 mm 0.00 in0.0 mm
07:05 PM 36.7°F2.6°C 27.8°F-2.3°C 70% Calm Calm -- 29.94 in1013.9 mb - 0.00 in0.0 mm 0.00 in0.0 mm
07:06 PM 36.7°F2.6°C 28.2°F-2.1°C 71% Calm Calm -- 29.94 in1013.9 mb - 0.00 in0.0 mm 0.00 in0.0 mm
07:07 PM 36.7°F2.6°C 27.5°F-2.5°C 69% Calm Calm -- 29.94 in1013.9 mb - 0.00 in0.0 mm 0.00 in0.0 mm
07:08 PM 36.7°F2.6°C 27.8°F-2.3°C 70% Calm Calm -- 29.94 in1013.9 mb - 0.00 in0.0 mm 0.00 in0.0 mm
07:09 PM 36.7°F2.6°C 28.2°F-2.1°C 71% Calm Calm -- 29.94 in1013.9 mb - 0.00 in0.0 mm 0.00 in0.0 mm
07:10 PM 36.7°F2.6°C 28.2°F-2.1°C 71% Calm Calm -- 29.94 in1013.9 mb - 0.00 in0.0 mm 0.00 in0.0 mm
07:11 PM 36.7°F2.6°C 28.2°F-2.1°C 71% Calm Calm -- 29.94 in1013.9 mb - 0.00 in0.0 mm 0.00 in0.0 mm
07:12 PM 36.7°F2.6°C 27.8°F-2.3°C 70% Calm Calm -- 29.94 in1013.9 mb - 0.00 in0.0 mm 0.00 in0.0 mm
07:13 PM 36.7°F2.6°C 27.5°F-2.5°C 69% Calm Calm -- 29.94 in1013.9 mb - 0.00 in0.0 mm 0.00 in0.0 mm
07:14 PM 36.6°F2.6°C 27.4°F-2.6°C 69% Calm Calm -- 29.94 in1013.9 mb - 0.00 in0.0 mm 0.00 in0.0 mm
07:15 PM 36.5°F2.5°C 27.3°F-2.6°C 69% Calm Calm -- 29.94 in1013.9 mb - 0.00 in0.0 mm 0.00 in0.0 mm
07:16 PM 36.5°F2.5°C 27.6°F-2.4°C 70% Calm Calm -- 29.94 in1013.9 mb - 0.00 in0.0 mm 0.00 in0.0 mm
07:17 PM 36.5°F2.5°C 27.6°F-2.4°C 70% Calm Calm -- 29.94 in1013.9 mb - 0.00 in0.0 mm 0.00 in0.0 mm
07:18 PM 36.5°F2.5°C 28.0°F-2.2°C 71% Calm Calm -- 29.94 in1013.9 mb - 0.00 in0.0 mm 0.00 in0.0 mm
07:19 PM 36.5°F2.5°C 28.7°F-1.8°C 73% Calm Calm -- 29.94 in1013.9 mb - 0.00 in0.0 mm 0.00 in0.0 mm
07:20 PM 36.5°F2.5°C 29.0°F-1.7°C 74% Calm Calm -- 29.94 in1013.9 mb - 0.00 in0.0 mm 0.00 in0.0 mm
07:21 PM 36.5°F2.5°C 29.3°F-1.5°C 75% Calm Calm -- 29.94 in1013.9 mb - 0.00 in0.0 mm 0.00 in0.0 mm
07:22 PM 36.5°F2.5°C 29.0°F-1.7°C 74% Calm Calm -- 29.94 in1013.9 mb - 0.00 in0.0 mm 0.00 in0.0 mm
07:23 PM 36.5°F2.5°C 29.0°F-1.7°C 74% Calm Calm -- 29.94 in1013.9 mb - 0.00 in0.0 mm 0.00 in0.0 mm
07:24 PM 36.5°F2.5°C 29.0°F-1.7°C 74% Calm Calm -- 29.94 in1013.9 mb - 0.00 in0.0 mm 0.00 in0.0 mm
07:25 PM 36.4°F2.4°C 28.6°F-1.9°C 73% Calm Calm -- 29.94 in1013.9 mb - 0.00 in0.0 mm 0.00 in0.0 mm
07:26 PM 36.3°F2.4°C 28.1°F-2.2°C 72% Calm Calm -- 29.95 in1014.2 mb - 0.00 in0.0 mm 0.00 in0.0 mm
07:27 PM 36.3°F2.4°C 28.1°F-2.2°C 72% Calm Calm -- 29.95 in1014.2 mb - 0.00 in0.0 mm 0.00 in0.0 mm
07:28 PM 36.3°F2.4°C 28.1°F-2.2°C 72% Calm Calm -- 29.95 in1014.2 mb - 0.00 in0.0 mm 0.00 in0.0 mm
07:29 PM 36.2°F2.3°C 28.4°F-2.0°C 73% Calm Calm -- 29.95 in1014.2 mb - 0.00 in0.0 mm 0.00 in0.0 mm
07:30 PM 36.1°F2.3°C 28.6°F-1.9°C 74% Calm Calm -- 29.95 in1014.2 mb - 0.00 in0.0 mm 0.00 in0.0 mm
07:31 PM 36.0°F2.2°C 28.5°F-1.9°C 74% Calm Calm -- 29.95 in1014.2 mb - 0.00 in0.0 mm 0.00 in0.0 mm
07:32 PM 36.0°F2.2°C 27.8°F-2.3°C 72% Calm Calm -- 29.95 in1014.2 mb - 0.00 in0.0 mm 0.00 in0.0 mm
07:33 PM 36.0°F2.2°C 27.8°F-2.3°C 72% Calm Calm -- 29.95 in1014.2 mb - 0.00 in0.0 mm 0.00 in0.0 mm
07:34 PM 36.0°F2.2°C 27.8°F-2.3°C 72% Calm Calm -- 29.95 in1014.2 mb - 0.00 in0.0 mm 0.00 in0.0 mm
07:35 PM 36.0°F2.2°C 27.8°F-2.3°C 72% Calm Calm -- 29.95 in1014.2 mb - 0.00 in0.0 mm 0.00 in0.0 mm
07:36 PM 36.0°F2.2°C 27.8°F-2.3°C 72% Calm Calm -- 29.95 in1014.2 mb - 0.00 in0.0 mm 0.00 in0.0 mm
07:37 PM 36.0°F2.2°C 27.8°F-2.3°C 72% Calm Calm -- 29.95 in1014.2 mb - 0.00 in0.0 mm 0.00 in0.0 mm
07:38 PM 36.0°F2.2°C 27.2°F-2.7°C 70% Calm Calm -- 29.95 in1014.2 mb - 0.00 in0.0 mm 0.00 in0.0 mm
07:39 PM 36.0°F2.2°C 26.5°F-3.1°C 68% Calm Calm -- 29.95 in1014.2 mb - 0.00 in0.0 mm 0.00 in0.0 mm
07:40 PM 36.0°F2.2°C 26.1°F-3.3°C 67% Calm Calm -- 29.95 in1014.2 mb - 0.00 in0.0 mm 0.00 in0.0 mm
07:41 PM 36.0°F2.2°C 25.7°F-3.5°C 66% Calm Calm -- 29.95 in1014.2 mb - 0.00 in0.0 mm 0.00 in0.0 mm
07:42 PM 36.0°F2.2°C 26.1°F-3.3°C 67% Calm Calm -- 29.95 in1014.2 mb - 0.00 in0.0 mm 0.00 in0.0 mm
07:43 PM 36.0°F2.2°C 26.1°F-3.3°C 67% Calm Calm -- 29.95 in1014.2 mb - 0.00 in0.0 mm 0.00 in0.0 mm
07:44 PM 36.0°F2.2°C 26.8°F-2.9°C 69% Calm Calm -- 29.95 in1014.2 mb - 0.00 in0.0 mm 0.00 in0.0 mm
07:45 PM 36.0°F2.2°C 27.2°F-2.7°C 70% Calm Calm -- 29.95 in1014.2 mb - 0.00 in0.0 mm 0.00 in0.0 mm
07:46 PM 36.0°F2.2°C 27.2°F-2.7°C 70% Calm Calm -- 29.95 in1014.2 mb - 0.00 in0.0 mm 0.00 in0.0 mm
07:47 PM 36.0°F2.2°C 27.5°F-2.5°C 71% Calm Calm -- 29.95 in1014.2 mb - 0.00 in0.0 mm 0.00 in0.0 mm
07:48 PM 36.0°F2.2°C 27.2°F-2.7°C 70% Calm Calm -- 29.95 in1014.2 mb - 0.00 in0.0 mm 0.00 in0.0 mm
07:49 PM 36.0°F2.2°C 26.8°F-2.9°C 69% Calm Calm -- 29.95 in1014.2 mb - 0.00 in0.0 mm 0.00 in0.0 mm
07:50 PM 36.1°F2.3°C 26.2°F-3.2°C 67% Calm Calm -- 29.95 in1014.2 mb - 0.00 in0.0 mm 0.00 in0.0 mm
07:51 PM 36.1°F2.3°C 26.2°F-3.2°C 67% Calm Calm -- 29.95 in1014.2 mb - 0.00 in0.0 mm 0.00 in0.0 mm
07:52 PM 36.1°F2.3°C 26.9°F-2.8°C 69% Calm Calm -- 29.95 in1014.2 mb - 0.00 in0.0 mm 0.00 in0.0 mm
07:53 PM 36.3°F2.4°C 26.7°F-2.9°C 68% Calm Calm -- 29.95 in1014.2 mb - 0.00 in0.0 mm 0.00 in0.0 mm
07:54 PM 36.3°F2.4°C 26.7°F-2.9°C 68% Calm Calm -- 29.95 in1014.2 mb - 0.00 in0.0 mm 0.00 in0.0 mm
07:55 PM 36.3°F2.4°C 27.1°F-2.7°C 69% Calm Calm -- 29.95 in1014.2 mb - 0.00 in0.0 mm 0.00 in0.0 mm
07:56 PM 36.3°F2.4°C 27.1°F-2.7°C 69% Calm Calm -- 29.95 in1014.2 mb - 0.00 in0.0 mm 0.00 in0.0 mm
07:57 PM 36.3°F2.4°C 27.1°F-2.7°C 69% Calm Calm -- 29.95 in1014.2 mb - 0.00 in0.0 mm